Provisional Data: Little Clearfield Creek near Dimeling, PA


Please select a monitoring station.
Please select start date.
Please select start date.

Toggle Unit: C/F Toggle Unit: C/F
Sample Time Temperature (C) Temperature (F) Specific Conductivity (mS/cm) pH   Turbidity (NTU+) DO (mg/L)
12/11/2021 12:00:00 AM 3.62 38.516 0.31 7.67 3.42 12.49
12/11/2021 12:15:00 AM 3.63 38.534 0.31 7.68 3.19 12.49
12/11/2021 12:30:00 AM 3.64 38.552 0.31 7.67 3.29 12.48
12/11/2021 12:45:00 AM 3.65 38.57 0.31 7.68 3.28 12.48
12/11/2021 1:00:00 AM 3.66 38.588 0.31 7.67 3.3 12.47
12/11/2021 1:15:00 AM 3.67 38.606 0.31 7.68 3.41 12.46
12/11/2021 1:30:00 AM 3.69 38.642 0.31 7.66 3.35 12.45
12/11/2021 1:45:00 AM 3.7 38.66 0.31 7.67 3.28 12.44
12/11/2021 2:00:00 AM 3.72 38.696 0.31 7.68 3.16 12.44
12/11/2021 2:15:00 AM 3.74 38.732 0.31 7.67 3.29 12.43
12/11/2021 2:30:00 AM 3.75 38.75 0.31 7.68 3.25 12.42
12/11/2021 2:45:00 AM 3.77 38.786 0.311 7.67 3.21 12.4
12/11/2021 3:00:00 AM 3.79 38.822 0.311 7.68 3.39 12.4
12/11/2021 3:15:00 AM 3.8 38.84 0.309 7.67 3.41 12.39
12/11/2021 3:30:00 AM 3.82 38.876 0.308 7.67 3.52 12.38
12/11/2021 3:45:00 AM 3.83 38.894 0.306 7.67 3.52 12.39
12/11/2021 4:00:00 AM 3.84 38.912 0.305 7.67 3.58 12.36
12/11/2021 4:15:00 AM 3.85 38.93 0.306 7.66 4.83 12.36
12/11/2021 4:30:00 AM 3.86 38.948 0.306 7.66 3.84 12.34
12/11/2021 4:45:00 AM 3.87 38.966 0.306 7.66 3.75 12.34
12/11/2021 5:00:00 AM 3.89 39.002 0.306 7.66 3.74 12.33
12/11/2021 5:15:00 AM 3.91 39.038 0.306 7.66 4.4 12.32
12/11/2021 5:30:00 AM 3.92 39.056 0.304 7.66 4.64 12.33
12/11/2021 5:45:00 AM 3.95 39.11 0.301 7.66 5.49 12.32
12/11/2021 6:00:00 AM 3.97 39.146 0.299 7.64 4.79 12.3
12/11/2021 6:15:00 AM 3.99 39.182 0.298 7.65 4.98 12.28
12/11/2021 6:30:00 AM 4.03 39.254 0.295 7.64 5.83 12.27
12/11/2021 6:45:00 AM 4.06 39.308 0.294 7.63 5.68 12.26
12/11/2021 7:00:00 AM 4.08 39.344 0.294 7.62 6.57 12.23
12/11/2021 7:15:00 AM 4.11 39.398 0.294 7.61 9.29 12.22
12/11/2021 7:30:00 AM 4.13 39.434 0.295 7.61 8.55 12.2
12/11/2021 7:45:00 AM 4.16 39.488 0.295 7.61 10.03 12.2
12/11/2021 8:00:00 AM 4.19 39.542 0.295 7.6 12.69 12.18
12/11/2021 8:15:00 AM 4.24 39.632 0.294 7.59 17.47 12.17
12/11/2021 8:30:00 AM 4.29 39.722 0.292 7.59 22.72 12.16
12/11/2021 8:45:00 AM 4.33 39.794 0.294 7.59 24.74 12.15
12/11/2021 9:00:00 AM 4.38 39.884 0.294 7.59 27.04 12.14
12/11/2021 9:15:00 AM 4.42 39.956 0.293 7.59 28.78 12.13
12/11/2021 9:30:00 AM 4.46 40.028 0.292 7.56 31.54 12.11
12/11/2021 9:45:00 AM 4.5 40.1 0.292 7.57 39 12.1
12/11/2021 10:00:00 AM 4.54 40.172 0.292 7.56 43.26 12.09
12/11/2021 10:15:00 AM 4.58 40.244 0.291 7.56 43 12.07
12/11/2021 10:30:00 AM 4.6 40.28 0.291 7.56 39.56 12.06
12/11/2021 10:45:00 AM 4.63 40.334 0.289 7.55 36.53 12.05
12/11/2021 11:00:00 AM 4.65 40.37 0.287 7.54 33.33 12.04
12/11/2021 11:15:00 AM 4.69 40.442 0.285 7.55 31.95 12.03
12/11/2021 11:30:00 AM 4.72 40.496 0.284 7.54 31.19 12.01
12/11/2021 11:45:00 AM 4.77 40.586 0.284 7.54 41.13 11.99
12/11/2021 12:00:00 PM 4.82 40.676 0.284 7.51 33.34 11.96
12/11/2021 12:15:00 PM 4.89 40.802 0.284 7.52 36.38 11.94
12/11/2021 12:30:00 PM 4.96 40.928 0.284 7.53 41.82 11.92
12/11/2021 12:45:00 PM 5.02 41.036 0.283 7.53 44.09 11.9
12/11/2021 1:00:00 PM 5.06 41.108 0.28 7.54 36.46 11.86
12/11/2021 1:15:00 PM 5.1 41.18 0.278 7.55 46.14 11.86
12/11/2021 1:30:00 PM 5.15 41.27 0.275 7.54 48.57 11.84
12/11/2021 1:45:00 PM 5.21 41.378 0.273 7.55 41.45 11.83
12/11/2021 2:00:00 PM 5.26 41.468 0.271 7.55 40.7 11.82
12/11/2021 2:15:00 PM 5.32 41.576 0.27 7.56 38.7 11.81
12/11/2021 2:30:00 PM 5.37 41.666 0.269 7.56 38.64 11.79
12/11/2021 2:45:00 PM 5.41 41.738 0.268 7.55 43.75 11.79
12/11/2021 3:00:00 PM 5.44 41.792 0.268 7.55 33.74 11.77
12/11/2021 3:15:00 PM 5.49 41.882 0.267 7.56 33.36 11.76
12/11/2021 3:30:00 PM 5.54 41.972 0.266 7.57 30.47 11.74
12/11/2021 3:45:00 PM 5.61 42.098 0.264 7.56 41.15 11.72
12/11/2021 4:00:00 PM 5.66 42.188 0.262 7.54 51.73 11.7
12/11/2021 4:15:00 PM 5.72 42.296 0.259 7.56 53.05 11.67
12/11/2021 4:30:00 PM 5.76 42.368 0.257 7.55 57.78 11.64
12/11/2021 4:45:00 PM 5.83 42.494 0.255 7.55 66.23 11.61
12/11/2021 5:00:00 PM 5.93 42.674 0.253 7.55 66.48 11.58
12/11/2021 5:15:00 PM 5.99 42.782 0.25 7.54 76.7 11.56
12/11/2021 5:30:00 PM 6.03 42.854 0.248 7.53 78.31 11.54
12/11/2021 5:45:00 PM 6.06 42.908 0.246 7.53 77.69 11.53
12/11/2021 6:00:00 PM 6.08 42.944 0.244 7.52 82.08 11.52
12/11/2021 6:15:00 PM 6.07 42.926 0.243 7.53 76.32 11.52
12/11/2021 6:30:00 PM 6.06 42.908 0.244 7.53 68.28 11.53
12/11/2021 6:45:00 PM 6.04 42.872 0.246 7.53 70.79 11.53
12/11/2021 7:00:00 PM 6.01 42.818 0.249 7.54 70.44 11.54
12/11/2021 7:15:00 PM 5.96 42.728 0.252 7.55 66.51 11.55
12/11/2021 7:30:00 PM 5.94 42.692 0.255 7.55 60.31 11.56
12/11/2021 7:45:00 PM 5.9 42.62 0.257 7.56 61.23 11.57
12/11/2021 8:00:00 PM 5.87 42.566 0.259 7.55 57.65 11.58
12/11/2021 8:15:00 PM 5.84 42.512 0.26 7.57 55.42 11.58
12/11/2021 8:30:00 PM 5.81 42.458 0.261 7.57 51.6 11.59
12/11/2021 8:45:00 PM 5.79 42.422 0.261 7.58 46.65 11.6
12/11/2021 9:00:00 PM 5.76 42.368 0.261 7.57 48.16 11.6
12/11/2021 9:15:00 PM 5.74 42.332 0.26 7.58 49.59 11.61
12/11/2021 9:30:00 PM 5.72 42.296 0.26 7.58 47.24 11.62
12/11/2021 9:45:00 PM 5.7 42.26 0.258 7.58 46.28 11.62
12/11/2021 10:00:00 PM 5.68 42.224 0.257 7.57 45.66 11.63
12/11/2021 10:15:00 PM 5.66 42.188 0.254 7.58 47.58 11.64
12/11/2021 10:30:00 PM 5.65 42.17 0.252 7.56 47.14 11.64
12/11/2021 10:45:00 PM 5.63 42.134 0.249 7.57 49.38 11.64
12/11/2021 11:00:00 PM 5.62 42.116 0.247 7.57 51.15 11.65
12/11/2021 11:15:00 PM 5.6 42.08 0.245 7.55 53.29 11.65
12/11/2021 11:30:00 PM 5.58 42.044 0.243 7.56 52.82 11.66
12/11/2021 11:45:00 PM 5.57 42.026 0.241 7.56 52.61 11.67
12/12/2021 12:00:00 AM 5.56 42.008 0.24 7.55 53.04 11.67
12/12/2021 12:15:00 AM 5.54 41.972 0.239 7.55 48.47 11.68
12/12/2021 12:30:00 AM 5.53 41.954 0.239 7.55 48.6 11.69
12/12/2021 12:45:00 AM 5.51 41.918 0.238 7.53 48.67 11.68
12/12/2021 1:00:00 AM 5.5 41.9 0.237 7.54 46.69 11.69
12/12/2021 1:15:00 AM 5.49 41.882 0.236 7.55 45.35 11.7
12/12/2021 1:30:00 AM 5.48 41.864 0.235 7.54 44.35 11.7
12/12/2021 1:45:00 AM 5.46 41.828 0.234 7.54 44.81 11.7
12/12/2021 2:00:00 AM 5.45 41.81 0.232 7.52 41.79 11.72
12/12/2021 2:15:00 AM 5.44 41.792 0.231 7.53 41.56 11.72
12/12/2021 2:30:00 AM 5.43 41.774 0.229 7.53 43.61 11.73
12/12/2021 2:45:00 AM 5.41 41.738 0.228 7.51 43.05 11.74
12/12/2021 3:00:00 AM 5.39 41.702 0.227 7.52 42.6 11.75
12/12/2021 3:15:00 AM 5.37 41.666 0.226 7.52 40.78 11.76
12/12/2021 3:30:00 AM 5.34 41.612 0.226 7.52 40.54 11.77
12/12/2021 3:45:00 AM 5.31 41.558 0.225 7.52 38.84 11.79
12/12/2021 4:00:00 AM 5.29 41.522 0.225 7.51 40.42 11.8
12/12/2021 4:15:00 AM 5.25 41.45 0.225 7.52 36.66 11.81
12/12/2021 4:30:00 AM 5.22 41.396 0.225 7.51 36.41 11.83
12/12/2021 4:45:00 AM 5.2 41.36 0.225 7.51 35.76 11.84
12/12/2021 5:00:00 AM 5.16 41.288 0.224 7.51 33.63 11.84
12/12/2021 5:15:00 AM 5.12 41.216 0.224 7.51 33.59 11.86
12/12/2021 5:30:00 AM 5.09 41.162 0.224 7.51 32.28 11.87
12/12/2021 5:45:00 AM 5.06 41.108 0.224 7.5 31.93 11.88
12/12/2021 6:00:00 AM 5.02 41.036 0.224 7.51 32.5 11.9
12/12/2021 6:15:00 AM 4.99 40.982 0.224 7.51 30.57 11.91
12/12/2021 6:30:00 AM 4.96 40.928 0.224 7.49 23.87 11.91
12/12/2021 6:45:00 AM 4.93 40.874 0.224 7.51 28.88 11.92
12/12/2021 7:00:00 AM 4.89 40.802 0.224 7.5 28.29 11.93
12/12/2021 7:15:00 AM 4.87 40.766 0.225 7.5 34.98 11.95
12/12/2021 7:30:00 AM 4.85 40.73 0.225 7.51 28.2 11.96
12/12/2021 7:45:00 AM 4.82 40.676 0.225 7.5 27.93 11.97
12/12/2021 8:00:00 AM 4.8 40.64 0.226 7.5 25.89 11.98
12/12/2021 8:15:00 AM 4.77 40.586 0.226 7.51 26 12
12/12/2021 8:30:00 AM 4.76 40.568 0.227 7.5 25.46 12.01
12/12/2021 8:45:00 AM 4.74 40.532 0.227 7.51 24.43 12.02
12/12/2021 9:00:00 AM 4.73 40.514 0.227 7.5 23.39 12.04
12/12/2021 9:15:00 AM 4.72 40.496 0.227 7.49 23.26 12.05
12/12/2021 9:30:00 AM 4.7 40.46 0.227 7.51 25.55 12.07
12/12/2021 9:45:00 AM 4.68 40.424 0.227 7.51 22.91 12.08
12/12/2021 10:00:00 AM 4.67 40.406 0.227 7.5 22.65 12.09
12/12/2021 10:15:00 AM 4.65 40.37 0.227 7.51 22.03 12.1
12/12/2021 10:30:00 AM 4.63 40.334 0.227 7.51 22.69 12.12
12/12/2021 10:45:00 AM 4.63 40.334 0.227 7.5 21.09 12.12
12/12/2021 11:00:00 AM 4.62 40.316 0.227 7.51 22.39 12.14
12/12/2021 11:15:00 AM 4.63 40.334 0.226 7.5 21.36 12.15
12/12/2021 11:30:00 AM 4.64 40.352 0.226 7.51 21.77 12.15
12/12/2021 11:45:00 AM 4.65 40.37 0.226 7.49 21.51 12.16
12/12/2021 12:00:00 PM 4.68 40.424 0.225 7.51 20.11 12.17
12/12/2021 12:15:00 PM 4.7 40.46 0.225 7.51 20.22 12.17
12/12/2021 12:30:00 PM 4.72 40.496 0.225 7.51 21.85 12.18
12/12/2021 12:45:00 PM 4.76 40.568 0.224 7.5 19 12.18
12/12/2021 1:00:00 PM 4.79 40.622 0.224 7.51 19.87 12.18
12/12/2021 1:15:00 PM 4.82 40.676 0.224 7.5 18.86 12.19
12/12/2021 1:30:00 PM 4.85 40.73 0.224 7.51 18.58 12.18
12/12/2021 1:45:00 PM 4.89 40.802 0.223 7.51 17.87 12.19
12/12/2021 2:00:00 PM 4.91 40.838 0.223 7.51 18.86 12.19
12/12/2021 2:15:00 PM 4.94 40.892 0.223 7.5 17.33 12.19
12/12/2021 2:30:00 PM 4.96 40.928 0.223 7.5 17.46 12.19
12/12/2021 2:45:00 PM 4.97 40.946 0.223 7.51 16.23 12.19
12/12/2021 3:00:00 PM 4.96 40.928 0.223 7.5 16.23 12.2
12/12/2021 3:15:00 PM 4.95 40.91 0.222 7.5 16.23 12.19
12/12/2021 3:30:00 PM 4.92 40.856 0.222 7.51 15.43 12.19
12/12/2021 3:45:00 PM 4.88 40.784 0.222 7.51 14.51 12.19
12/12/2021 4:00:00 PM 4.84 40.712 0.222 7.5 15.07 12.19
12/12/2021 4:15:00 PM 4.8 40.64 0.222 7.51 14.89 12.19
12/12/2021 4:30:00 PM 4.76 40.568 0.221 7.49 14.49 12.19
12/12/2021 4:45:00 PM 4.73 40.514 0.221 7.5 14.46 12.19
12/12/2021 5:00:00 PM 4.69 40.442 0.221 7.5 14.3 12.18
12/12/2021 5:15:00 PM 4.65 40.37 0.221 7.5 13.79 12.18
12/12/2021 5:30:00 PM 4.61 40.298 0.221 7.5 12.84 12.19
12/12/2021 5:45:00 PM 4.58 40.244 0.221 7.49 14.04 12.18
12/12/2021 6:00:00 PM 4.55 40.19 0.221 7.48 13.51 12.19
12/12/2021 6:15:00 PM 4.52 40.136 0.221 7.49 12.94 12.19
12/12/2021 6:30:00 PM 4.49 40.082 0.221 7.48 15.09 12.19
12/12/2021 6:45:00 PM 4.46 40.028 0.221 7.48 13.66 12.2
12/12/2021 7:00:00 PM 4.43 39.974 0.221 7.48 12.85 12.21
12/12/2021 7:15:00 PM 4.41 39.938 0.221 7.47 12.99 12.21
12/12/2021 7:30:00 PM 4.37 39.866 0.221 7.48 12.95 12.22
12/12/2021 7:45:00 PM 4.34 39.812 0.221 7.48 12.51 12.23
12/12/2021 8:00:00 PM 4.3 39.74 0.221 7.48 12.1 12.24
12/12/2021 8:15:00 PM 4.27 39.686 0.221 7.48 12.34 12.25
12/12/2021 8:30:00 PM 4.23 39.614 0.221 7.48 12.44 12.26
12/12/2021 8:45:00 PM 4.18 39.524 0.221 7.48 11.9 12.28
12/12/2021 9:00:00 PM 4.14 39.452 0.221 7.45 11.71 12.29
12/12/2021 9:15:00 PM 4.1 39.38 0.221 7.48 12.47 12.31
12/12/2021 9:30:00 PM 4.05 39.29 0.221 7.48 11.18 12.32
12/12/2021 9:45:00 PM 4.01 39.218 0.221 7.48 11.63 12.32
12/12/2021 10:00:00 PM 3.97 39.146 0.221 7.48 11.08 12.34
12/12/2021 10:15:00 PM 3.93 39.074 0.221 7.48 11.28 12.36
12/12/2021 10:30:00 PM 3.89 39.002 0.221 7.48 11.32 12.36
12/12/2021 10:45:00 PM 3.86 38.948 0.221 7.48 12.15 12.37
12/12/2021 11:00:00 PM 3.83 38.894 0.221 7.48 10.81 12.38
12/12/2021 11:15:00 PM 3.79 38.822 0.221 7.48 10.79 12.39
12/12/2021 11:30:00 PM 3.76 38.768 0.221 7.46 10.8 12.4
12/12/2021 11:45:00 PM 3.72 38.696 0.221 7.48 10.29 12.41
12/13/2021 12:00:00 AM 3.69 38.642 0.221 7.47 10.62 12.43
12/13/2021 12:15:00 AM 3.65 38.57 0.221 7.47 10.46 12.43
12/13/2021 12:30:00 AM 3.61 38.498 0.221 7.47 10.51 12.45
12/13/2021 12:45:00 AM 3.58 38.444 0.221 7.47 10.99 12.46
12/13/2021 1:00:00 AM 3.54 38.372 0.221 7.47 10.19 12.48
12/13/2021 1:15:00 AM 3.5 38.3 0.221 7.47 9.82 12.49
12/13/2021 1:30:00 AM 3.46 38.228 0.222 7.47 10.36 12.51
12/13/2021 1:45:00 AM 3.42 38.156 0.222 7.47 10.35 12.53
12/13/2021 2:00:00 AM 3.38 38.084 0.222 7.47 9.52 12.54
12/13/2021 2:15:00 AM 3.34 38.012 0.222 7.47 9.76 12.56
12/13/2021 2:30:00 AM 3.3 37.94 0.222 7.47 9.55 12.58
12/13/2021 2:45:00 AM 3.26 37.868 0.222 7.47 9.75 12.6
12/13/2021 3:00:00 AM 3.23 37.814 0.222 7.47 9.17 12.61
12/13/2021 3:15:00 AM 3.2 37.76 0.222 7.47 9.64 12.63
12/13/2021 3:30:00 AM 3.18 37.724 0.222 7.47 9.36 12.64
12/13/2021 3:45:00 AM 3.16 37.688 0.223 7.47 8.99 12.65
12/13/2021 4:00:00 AM 3.13 37.634 0.223 7.47 8.62 12.66
12/13/2021 4:15:00 AM 3.12 37.616 0.223 7.47 9.44 12.67
12/13/2021 4:30:00 AM 3.1 37.58 0.223 7.47 8.52 12.67
12/13/2021 4:45:00 AM 3.08 37.544 0.223 7.47 9.17 12.69
12/13/2021 5:00:00 AM 3.06 37.508 0.223 7.47 9.09 12.7
12/13/2021 5:15:00 AM 3.05 37.49 0.223 7.47 8.76 12.71
12/13/2021 5:30:00 AM 3.04 37.472 0.223 7.47 8.55 12.71
12/13/2021 5:45:00 AM 3.03 37.454 0.223 7.47 8.79 12.71
12/13/2021 6:00:00 AM 3.01 37.418 0.223 7.47 9.11 12.72
12/13/2021 6:15:00 AM 2.99 37.382 0.223 7.47 8.54 12.72
12/13/2021 6:30:00 AM 2.97 37.346 0.223 7.47 8.73 12.73
12/13/2021 6:45:00 AM 2.94 37.292 0.224 7.47 8.85 12.74
12/13/2021 7:00:00 AM 2.92 37.256 0.224 7.47 8.14 12.74
12/13/2021 7:15:00 AM 2.9 37.22 0.224 7.47 8.18 12.75
12/13/2021 7:30:00 AM 2.88 37.184 0.224 7.47 8.48 12.76
12/13/2021 7:45:00 AM 2.85 37.13 0.224 7.47 8.54 12.77
12/13/2021 8:00:00 AM 2.83 37.094 0.224 7.47 8.14 12.78
12/13/2021 8:15:00 AM 2.82 37.076 0.224 7.47 8.18 12.79
12/13/2021 8:30:00 AM 2.8 37.04 0.224 7.48 7.61 12.8
12/13/2021 8:45:00 AM 2.79 37.022 0.224 7.47 7.73 12.81
12/13/2021 9:00:00 AM 2.78 37.004 0.224 7.47 8.1 12.82
12/13/2021 9:15:00 AM 2.77 36.986 0.224 7.47 7.63 12.83
12/13/2021 9:30:00 AM 2.77 36.986 0.224 7.48 7.24 12.85
12/13/2021 9:45:00 AM 2.78 37.004 0.224 7.48 7.68 12.85
12/13/2021 10:00:00 AM 2.78 37.004 0.224 7.48 7.21 12.86
12/13/2021 10:15:00 AM 2.8 37.04 0.224 7.48 6.96 12.87
12/13/2021 10:30:00 AM 2.81 37.058 0.225 7.48 6.76 12.88
12/13/2021 10:45:00 AM 2.84 37.112 0.225 7.48 7.07 12.89
12/13/2021 11:00:00 AM 2.86 37.148 0.225 7.49 7.07 12.89
12/13/2021 11:15:00 AM 2.9 37.22 0.225 7.49 6.99 12.89
12/13/2021 11:30:00 AM 2.94 37.292 0.225 7.49 6.7 12.89
12/13/2021 11:45:00 AM 2.99 37.382 0.225 7.49 6.71 12.88
12/13/2021 12:00:00 PM 3.05 37.49 0.225 7.5 6.82 12.89
12/13/2021 12:15:00 PM 3.11 37.598 0.225 7.5 6.67 12.88
12/13/2021 12:30:00 PM 3.18 37.724 0.225 7.49 6.75 12.87
12/13/2021 12:45:00 PM 3.25 37.85 0.225 7.5 6.23 12.85
12/13/2021 1:00:00 PM 3.33 37.994 0.225 7.5 6.67 12.84
12/13/2021 1:15:00 PM 3.41 38.138 0.225 7.5 6.25 12.82
12/13/2021 1:30:00 PM 3.48 38.264 0.225 7.5 6.34 12.8
12/13/2021 1:45:00 PM 3.55 38.39 0.225 7.51 6.14 12.78
12/13/2021 2:00:00 PM 3.6 38.48 0.225 7.51 6.38 12.77
12/13/2021 2:15:00 PM 3.65 38.57 0.225 7.51 5.97 12.76
12/13/2021 2:30:00 PM 3.71 38.678 0.225 7.51 6.2 12.74
12/13/2021 2:45:00 PM 3.75 38.75 0.225 7.51 6.14 12.73
12/13/2021 3:00:00 PM 3.77 38.786 0.225 7.51 7.83 12.72
12/13/2021 3:15:00 PM 3.79 38.822 0.225 7.51 6.32 12.71
12/13/2021 3:30:00 PM 3.8 38.84 0.226 7.51 6.08 12.7
12/13/2021 3:45:00 PM 3.77 38.786 0.226 7.52 6.17 12.7
12/13/2021 4:00:00 PM 3.75 38.75 0.226 7.52 5.91 12.68
12/13/2021 4:15:00 PM 3.73 38.714 0.226 7.51 6.09 12.67
12/13/2021 4:30:00 PM 3.7 38.66 0.226 7.51 5.82 12.67
12/13/2021 4:45:00 PM 3.68 38.624 0.226 7.49 6.07 12.65
12/13/2021 5:00:00 PM 3.65 38.57 0.226 7.51 5.99 12.65
12/13/2021 5:15:00 PM 3.63 38.534 0.227 7.5 5.94 12.64
12/13/2021 5:30:00 PM 3.6 38.48 0.227 7.5 6.27 12.63
12/13/2021 5:45:00 PM 3.58 38.444 0.227 7.5 5.91 12.63
12/13/2021 6:00:00 PM 3.55 38.39 0.227 7.5 5.97 12.63
12/13/2021 6:15:00 PM 3.53 38.354 0.227 7.5 6.13 12.62
12/13/2021 6:30:00 PM 3.51 38.318 0.227 7.49 6.22 12.62
12/13/2021 6:45:00 PM 3.49 38.282 0.227 7.5 5.83 12.62
12/13/2021 7:00:00 PM 3.47 38.246 0.227 7.49 5.9 12.61
12/13/2021 7:15:00 PM 3.45 38.21 0.227 7.49 6.29 12.62
12/13/2021 7:30:00 PM 3.44 38.192 0.227 7.49 6 12.61
12/13/2021 7:45:00 PM 3.42 38.156 0.228 7.49 5.98 12.61
12/13/2021 8:00:00 PM 3.41 38.138 0.228 7.49 5.83 12.61
12/13/2021 8:15:00 PM 3.39 38.102 0.228 7.49 5.77 12.62
12/13/2021 8:30:00 PM 3.38 38.084 0.228 7.49 5.75 12.62
12/13/2021 8:45:00 PM 3.36 38.048 0.228 7.49 5.75 12.62
12/13/2021 9:00:00 PM 3.34 38.012 0.228 7.49 6.1 12.63
12/13/2021 9:15:00 PM 3.32 37.976 0.228 7.48 5.57 12.64
12/13/2021 9:30:00 PM 3.29 37.922 0.228 7.48 5.55 12.65
12/13/2021 9:45:00 PM 3.26 37.868 0.228 7.49 5.62 12.65
12/13/2021 10:00:00 PM 3.23 37.814 0.228 7.49 5.79 12.67
12/13/2021 10:15:00 PM 3.21 37.778 0.228 7.49 6.16 12.68
12/13/2021 10:30:00 PM 3.18 37.724 0.229 7.49 5.99 12.68
12/13/2021 10:45:00 PM 3.15 37.67 0.229 7.49 5.81 12.69
12/13/2021 11:00:00 PM 3.12 37.616 0.229 7.49 5.67 12.71
12/13/2021 11:15:00 PM 3.1 37.58 0.229 7.49 5.72 12.72
12/13/2021 11:30:00 PM 3.07 37.526 0.229 7.49 5.9 12.72
12/13/2021 11:45:00 PM 3.05 37.49 0.229 7.49 5.29 12.73
12/14/2021 12:00:00 AM 3.03 37.454 0.229 7.48 5.64 12.74
12/14/2021 12:15:00 AM 3.01 37.418 0.229 7.49 5.94 12.74
12/14/2021 12:30:00 AM 2.99 37.382 0.229 7.48 5.82 12.75
12/14/2021 12:45:00 AM 2.97 37.346 0.229 7.48 5.82 12.76
12/14/2021 1:00:00 AM 2.94 37.292 0.23 7.49 5.28 12.77
12/14/2021 1:15:00 AM 2.92 37.256 0.23 7.49 5.35 12.77
12/14/2021 1:30:00 AM 2.9 37.22 0.23 7.49 5.61 12.78
12/14/2021 1:45:00 AM 2.87 37.166 0.23 7.48 5.48 12.79
12/14/2021 2:00:00 AM 2.85 37.13 0.23 7.47 5.59 12.8
12/14/2021 2:15:00 AM 2.82 37.076 0.23 7.49 5.43 12.82
12/14/2021 2:30:00 AM 2.79 37.022 0.23 7.49 5.51 12.83
12/14/2021 2:45:00 AM 2.76 36.968 0.23 7.48 5.19 12.83
12/14/2021 3:00:00 AM 2.72 36.896 0.23 7.49 5.33 12.85
12/14/2021 3:15:00 AM 2.68 36.824 0.23 7.49 5.4 12.86
12/14/2021 3:30:00 AM 2.65 36.77 0.23 7.49 5.41 12.88
12/14/2021 3:45:00 AM 2.61 36.698 0.23 7.49 5.56 12.89
12/14/2021 4:00:00 AM 2.58 36.644 0.23 7.49 5.43 12.9
12/14/2021 4:15:00 AM 2.54 36.572 0.231 7.48 5.33 12.92
12/14/2021 4:30:00 AM 2.51 36.518 0.231 7.48 5.1 12.93
12/14/2021 4:45:00 AM 2.47 36.446 0.231 7.49 5.5 12.95
12/14/2021 5:00:00 AM 2.44 36.392 0.231 7.49 5.19 12.97
12/14/2021 5:15:00 AM 2.41 36.338 0.231 7.49 5.1 12.97
12/14/2021 5:30:00 AM 2.37 36.266 0.231 7.49 5.31 13
12/14/2021 5:45:00 AM 2.34 36.212 0.232 7.48 5.59 13.01
12/14/2021 6:00:00 AM 2.31 36.158 0.232 7.49 5.09 13.02
12/14/2021 6:15:00 AM 2.28 36.104 0.232 7.48 5.27 13.03
12/14/2021 6:30:00 AM 2.25 36.05 0.232 7.49 5.4 13.05
12/14/2021 6:45:00 AM 2.22 35.996 0.232 7.48 5.96 13.06
12/14/2021 7:00:00 AM 2.19 35.942 0.232 7.48 5.34 13.07
12/14/2021 7:15:00 AM 2.16 35.888 0.232 7.48 5.31 13.09
12/14/2021 7:30:00 AM 2.13 35.834 0.233 7.48 4.92 13.1
12/14/2021 7:45:00 AM 2.1 35.78 0.233 7.48 5.21 13.12
12/14/2021 8:00:00 AM 2.07 35.726 0.233 7.49 5.08 13.14
12/14/2021 8:15:00 AM 2.05 35.69 0.233 7.49 4.95 13.15
12/14/2021 8:30:00 AM 2.03 35.654 0.233 7.49 4.84 13.17
12/14/2021 8:45:00 AM 2.01 35.618 0.233 7.47 4.73 13.18
12/14/2021 9:00:00 AM 1.99 35.582 0.233 7.49 4.83 13.2
12/14/2021 9:15:00 AM 1.99 35.582 0.233 7.49 4.87 13.21
12/14/2021 9:30:00 AM 1.99 35.582 0.234 7.49 4.79 13.23
12/14/2021 9:45:00 AM 2 35.6 0.234 7.49 5.05 13.24
12/14/2021 10:00:00 AM 1.99 35.582 0.234 7.5 5.76 13.26
12/14/2021 10:15:00 AM 2 35.6 0.234 7.5 4.6 13.26
12/14/2021 10:30:00 AM 2.02 35.636 0.234 7.5 4.97 13.27
12/14/2021 10:45:00 AM 2.05 35.69 0.234 7.5 4.76 13.28
12/14/2021 11:00:00 AM 2.08 35.744 0.234 7.5 4.78 13.28
12/14/2021 11:15:00 AM 2.12 35.816 0.234 7.5 4.52 13.29
12/14/2021 11:30:00 AM 2.17 35.906 0.235 7.5 4.65 13.29
12/14/2021 11:45:00 AM 2.22 35.996 0.235 7.51 4.59 13.28
12/14/2021 12:00:00 PM 2.28 36.104 0.235 7.51 4.51 13.28
12/14/2021 12:15:00 PM 2.35 36.23 0.235 7.52 4.38 13.27
12/14/2021 12:30:00 PM 2.43 36.374 0.235 7.51 4.24 13.24
12/14/2021 12:45:00 PM 2.52 36.536 0.235 7.51 4.47 13.23
12/14/2021 1:00:00 PM 2.61 36.698 0.235 7.51 4.39 13.21
12/14/2021 1:15:00 PM 2.71 36.878 0.235 7.52 4.48 13.18
12/14/2021 1:30:00 PM 2.82 37.076 0.235 7.52 4.4 13.16
12/14/2021 1:45:00 PM 2.91 37.238 0.235 7.53 4.19 13.14
12/14/2021 2:00:00 PM 2.99 37.382 0.235 7.52 5.37 13.11
12/14/2021 2:15:00 PM 3.07 37.526 0.235 7.53 4.45 13.1
12/14/2021 2:30:00 PM 3.14 37.652 0.235 7.53 4.25 13.08
12/14/2021 2:45:00 PM 3.2 37.76 0.235 7.53 4.32 13.07
12/14/2021 3:00:00 PM 3.25 37.85 0.235 7.54 4.2 13.05
12/14/2021 3:15:00 PM 3.27 37.886 0.236 7.53 4.23 13.03
12/14/2021 3:30:00 PM 3.29 37.922 0.236 7.53 4.3 13.03
12/14/2021 3:45:00 PM 3.28 37.904 0.236 7.53 4.32 13.02
12/14/2021 4:00:00 PM 3.26 37.868 0.236 7.53 4.16 13
12/14/2021 4:15:00 PM 3.23 37.814 0.236 7.53 4.27 12.99
12/14/2021 4:30:00 PM 3.2 37.76 0.236 7.53 4.86 12.99
12/14/2021 4:45:00 PM 3.17 37.706 0.237 7.53 4.36 12.96
12/14/2021 5:00:00 PM 3.15 37.67 0.237 7.53 4.29 12.96
12/14/2021 5:15:00 PM 3.12 37.616 0.237 7.53 4.31 12.95
12/14/2021 5:30:00 PM 3.09 37.562 0.237 7.52 4.26 12.93
12/14/2021 5:45:00 PM 3.06 37.508 0.237 7.52 4.32 12.94
12/14/2021 6:00:00 PM 3.04 37.472 0.238 7.51 4.53 12.94
12/14/2021 6:15:00 PM 3.01 37.418 0.238 7.52 4.43 12.93
12/14/2021 6:30:00 PM 2.99 37.382 0.238 7.52 4.54 12.93
12/14/2021 6:45:00 PM 2.96 37.328 0.238 7.52 4.14 12.92
12/14/2021 7:00:00 PM 2.95 37.31 0.238 7.51 4.59 12.92
12/14/2021 7:15:00 PM 2.93 37.274 0.239 7.5 4.49 12.93
12/14/2021 7:30:00 PM 2.91 37.238 0.239 7.51 4.35 12.92
12/14/2021 7:45:00 PM 2.9 37.22 0.239 7.51 4.41 12.92
12/14/2021 8:00:00 PM 2.89 37.202 0.239 7.52 4.32 12.92
12/14/2021 8:15:00 PM 2.88 37.184 0.239 7.51 4.47 12.9
12/14/2021 8:30:00 PM 2.87 37.166 0.239 7.51 4.21 12.91
12/14/2021 8:45:00 PM 2.87 37.166 0.239 7.51 4.48 12.91
12/14/2021 9:00:00 PM 2.86 37.148 0.239 7.52 4.26 12.92
12/14/2021 9:15:00 PM 2.85 37.13 0.239 7.51 4.32 12.91
12/14/2021 9:30:00 PM 2.83 37.094 0.239 7.51 4.36 12.91
12/14/2021 9:45:00 PM 2.82 37.076 0.24 7.51 4.05 12.91
12/14/2021 10:00:00 PM 2.8 37.04 0.24 7.51 4.22 12.93
12/14/2021 10:15:00 PM 2.78 37.004 0.24 7.51 4.38 12.93
12/14/2021 10:30:00 PM 2.76 36.968 0.24 7.51 4.26 12.94
12/14/2021 10:45:00 PM 2.74 36.932 0.24 7.51 4.5 12.95
12/14/2021 11:00:00 PM 2.72 36.896 0.24 7.51 4.24 12.95
12/14/2021 11:15:00 PM 2.7 36.86 0.24 7.51 4.25 12.96
12/14/2021 11:30:00 PM 2.67 36.806 0.24 7.51 4.27 12.97
12/14/2021 11:45:00 PM 2.65 36.77 0.241 7.51 4.22 12.98
12/15/2021 12:00:00 AM 2.63 36.734 0.241 7.51 4.05 12.98
12/15/2021 12:15:00 AM 2.61 36.698 0.241 7.51 4.31 12.99
12/15/2021 12:30:00 AM 2.59 36.662 0.241 7.51 4.14 13
12/15/2021 12:45:00 AM 2.56 36.608 0.241 7.51 4.14 13.01
12/15/2021 1:00:00 AM 2.55 36.59 0.241 7.51 4.1 13.01
12/15/2021 1:15:00 AM 2.53 36.554 0.241 7.51 4.14 13.02
12/15/2021 1:30:00 AM 2.52 36.536 0.241 7.51 4.37 13.02
12/15/2021 1:45:00 AM 2.51 36.518 0.242 7.51 4.17 13.03
12/15/2021 2:00:00 AM 2.5 36.5 0.242 7.51 4.73 13.03
12/15/2021 2:15:00 AM 2.49 36.482 0.242 7.51 4.75 13.03
12/15/2021 2:30:00 AM 2.48 36.464 0.242 7.5 4.95 13.04
12/15/2021 2:45:00 AM 2.47 36.446 0.242 7.51 4.29 13.04
12/15/2021 3:00:00 AM 2.45 36.41 0.242 7.51 4.41 13.04
12/15/2021 3:15:00 AM 2.43 36.374 0.242 7.51 4.8 13.06
12/15/2021 3:30:00 AM 2.4 36.32 0.242 7.51 4.16 13.07
12/15/2021 3:45:00 AM 2.38 36.284 0.242 7.51 4.17 13.07
12/15/2021 4:00:00 AM 2.35 36.23 0.242 7.51 4.19 13.08
12/15/2021 4:15:00 AM 2.32 36.176 0.243 7.51 3.91 13.09
12/15/2021 4:30:00 AM 2.29 36.122 0.243 7.51 3.94 13.1
12/15/2021 4:45:00 AM 2.26 36.068 0.243 7.51 4.07 13.11
12/15/2021 5:00:00 AM 2.23 36.014 0.243 7.51 4.29 13.12
12/15/2021 5:15:00 AM 2.21 35.978 0.243 7.51 4.41 13.12
12/15/2021 5:30:00 AM 2.2 35.96 0.244 7.51 4.1 13.14
12/15/2021 5:45:00 AM 2.2 35.96 0.244 7.51 4.26 13.15
12/15/2021 6:00:00 AM 2.17 35.906 0.244 7.51 4.07 13.15
12/15/2021 6:15:00 AM 2.14 35.852 0.244 7.51 4.27 13.16
12/15/2021 6:30:00 AM 2.12 35.816 0.244 7.51 4.29 13.17
12/15/2021 6:45:00 AM 2.09 35.762 0.244 7.51 4.2 13.17
12/15/2021 7:00:00 AM 2.07 35.726 0.245 7.51 4.24 13.18
12/15/2021 7:15:00 AM 2.05 35.69 0.245 7.51 3.97 13.19
12/15/2021 7:30:00 AM 2.04 35.672 0.245 7.52 4.07 13.2
12/15/2021 7:45:00 AM 2.02 35.636 0.245 7.51 4.05 13.21
12/15/2021 8:00:00 AM 2.03 35.654 0.245 7.51 4.37 13.22
12/15/2021 8:15:00 AM 2.04 35.672 0.245 7.52 4.19 13.23
12/15/2021 8:30:00 AM 2.05 35.69 0.245 7.52 4.38 13.25
12/15/2021 8:45:00 AM 2.08 35.744 0.245 7.52 4.01 13.26
12/15/2021 9:00:00 AM 2.11 35.798 0.246 7.52 3.84 13.27
12/15/2021 9:15:00 AM 2.16 35.888 0.246 7.52 3.82 13.28
12/15/2021 9:30:00 AM 2.2 35.96 0.246 7.53 3.89 13.29
12/15/2021 9:45:00 AM 2.26 36.068 0.246 7.53 3.9 13.29
12/15/2021 10:00:00 AM 2.32 36.176 0.246 7.54 3.77 13.29
12/15/2021 10:15:00 AM 2.39 36.302 0.246 7.52 3.72 13.28
12/15/2021 10:30:00 AM 2.44 36.392 0.246 7.54 3.93 13.29
12/15/2021 10:45:00 AM 2.52 36.536 0.246 7.54 3.79 13.27
12/15/2021 11:00:00 AM 2.58 36.644 0.246 7.54 3.92 13.26
12/15/2021 11:15:00 AM 2.66 36.788 0.246 7.55 3.73 13.25
12/15/2021 11:30:00 AM 2.73 36.914 0.246 7.54 3.78 13.23
12/15/2021 11:45:00 AM 2.8 37.04 0.247 7.56 3.59 13.22
12/15/2021 12:00:00 PM 2.88 37.184 0.248 7.56 4 13.2
12/15/2021 12:15:00 PM 2.96 37.328 0.248 7.55 3.84 13.17
12/15/2021 12:30:00 PM 3.02 37.436 0.248 7.55 3.76 13.16
12/15/2021 12:45:00 PM 3.08 37.544 0.248 7.56 3.74 13.13
12/15/2021 1:00:00 PM 3.13 37.634 0.247 7.56 3.68 13.11
12/15/2021 1:15:00 PM 3.16 37.688 0.247 7.56 3.76 13.1
12/15/2021 1:30:00 PM 3.2 37.76 0.247 7.56 3.9 13.07
12/15/2021 1:45:00 PM 3.24 37.832 0.247 7.56 3.68 13.05
12/15/2021 2:00:00 PM 3.28 37.904 0.247 7.57 3.63 13.03
12/15/2021 2:15:00 PM 3.33 37.994 0.247 7.57 3.72 13.01
12/15/2021 2:30:00 PM 3.37 38.066 0.247 7.56 3.6 12.98
12/15/2021 2:45:00 PM 3.41 38.138 0.247 7.56 3.71 12.95
12/15/2021 3:00:00 PM 3.45 38.21 0.248 7.56 3.76 12.92
12/15/2021 3:15:00 PM 3.48 38.264 0.248 7.56 3.79 12.9
12/15/2021 3:30:00 PM 3.51 38.318 0.248 7.56 3.56 12.88
12/15/2021 3:45:00 PM 3.55 38.39 0.248 7.56 3.65 12.85
12/15/2021 4:00:00 PM 3.58 38.444 0.248 7.56 3.7 12.82
12/15/2021 4:15:00 PM 3.62 38.516 0.248 7.56 3.86 12.8
12/15/2021 4:30:00 PM 3.64 38.552 0.249 7.56 3.79 12.78
12/15/2021 4:45:00 PM 3.66 38.588 0.249 7.55 3.53 12.75
12/15/2021 5:00:00 PM 3.68 38.624 0.249 7.55 3.52 12.73
12/15/2021 5:15:00 PM 3.71 38.678 0.249 7.56 3.85 12.71
12/15/2021 5:30:00 PM 3.72 38.696 0.25 7.56 4.03 12.7
12/15/2021 5:45:00 PM 3.74 38.732 0.25 7.55 3.63 12.67
12/15/2021 6:00:00 PM 3.75 38.75 0.25 7.55 3.75 12.66
12/15/2021 6:15:00 PM 3.77 38.786 0.25 7.56 3.8 12.64
12/15/2021 6:30:00 PM 3.78 38.804 0.25 7.55 3.54 12.63
12/15/2021 6:45:00 PM 3.79 38.822 0.25 7.55 3.76 12.6
12/15/2021 7:00:00 PM 3.8 38.84 0.251 7.54 3.63 12.6
12/15/2021 7:15:00 PM 3.8 38.84 0.251 7.55 3.67 12.59
12/15/2021 7:30:00 PM 3.79 38.822 0.251 7.55 3.63 12.58
12/15/2021 7:45:00 PM 3.79 38.822 0.251 7.55 3.64 12.57
12/15/2021 8:00:00 PM 3.82 38.876 0.251 7.55 3.74 12.56
12/15/2021 8:15:00 PM 3.83 38.894 0.251 7.54 3.76 12.54
12/15/2021 8:30:00 PM 3.84 38.912 0.251 7.54 3.69 12.54
12/15/2021 8:45:00 PM 3.86 38.948 0.251 7.54 3.65 12.54
12/15/2021 9:00:00 PM 3.87 38.966 0.251 7.54 3.51 12.53
12/15/2021 9:15:00 PM 3.88 38.984 0.251 7.55 3.67 12.52
12/15/2021 9:30:00 PM 3.89 39.002 0.251 7.54 3.67 12.51
12/15/2021 9:45:00 PM 3.9 39.02 0.252 7.54 3.71 12.51
12/15/2021 10:00:00 PM 3.92 39.056 0.252 7.54 3.64 12.49
12/15/2021 10:15:00 PM 3.93 39.074 0.252 7.53 3.59 12.49
12/15/2021 10:30:00 PM 3.95 39.11 0.252 7.54 3.61 12.48
12/15/2021 10:45:00 PM 3.96 39.128 0.252 7.53 3.72 12.48
12/15/2021 11:00:00 PM 3.98 39.164 0.252 7.54 3.73 12.47
12/15/2021 11:15:00 PM 3.99 39.182 0.252 7.53 3.59 12.46
12/15/2021 11:30:00 PM 4 39.2 0.252 7.54 3.92 12.45
12/15/2021 11:45:00 PM 4.01 39.218 0.253 7.54 3.88 12.45
12/16/2021 12:00:00 AM 4.02 39.236 0.253 7.53 3.85 12.44
12/16/2021 12:15:00 AM 4.04 39.272 0.253 7.53 3.67 12.44
12/16/2021 12:30:00 AM 4.04 39.272 0.253 7.54 3.72 12.43
12/16/2021 12:45:00 AM 4.05 39.29 0.253 7.53 3.66 12.43
12/16/2021 1:00:00 AM 4.07 39.326 0.253 7.54 3.76 12.41
12/16/2021 1:15:00 AM 4.09 39.362 0.253 7.54 3.81 12.41
12/16/2021 1:30:00 AM 4.11 39.398 0.254 7.54 3.84 12.4
12/16/2021 1:45:00 AM 4.13 39.434 0.254 7.53 3.7 12.39
12/16/2021 2:00:00 AM 4.15 39.47 0.254 7.54 3.69 12.39
12/16/2021 2:15:00 AM 4.15 39.47 0.254 7.54 3.76 12.38
12/16/2021 2:30:00 AM 4.15 39.47 0.254 7.53 3.77 12.38
12/16/2021 2:45:00 AM 4.14 39.452 0.254 7.54 3.5 12.37
12/16/2021 3:00:00 AM 4.14 39.452 0.255 7.54 3.66 12.37
12/16/2021 3:15:00 AM 4.15 39.47 0.255 7.54 3.78 12.37
12/16/2021 3:30:00 AM 4.15 39.47 0.255 7.53 3.54 12.36
12/16/2021 3:45:00 AM 4.15 39.47 0.255 7.53 3.51 12.36
12/16/2021 4:00:00 AM 4.15 39.47 0.255 7.53 3.6 12.36
12/16/2021 4:15:00 AM 4.15 39.47 0.255 7.54 3.77 12.35
12/16/2021 4:30:00 AM 4.14 39.452 0.256 7.54 3.65 12.35
12/16/2021 4:45:00 AM 4.13 39.434 0.256 7.54 3.57 12.35
12/16/2021 5:00:00 AM 4.13 39.434 0.256 7.54 3.6 12.35
12/16/2021 5:15:00 AM 4.13 39.434 0.256 7.54 3.59 12.34
12/16/2021 5:30:00 AM 4.12 39.416 0.256 7.54 3.88 12.34
12/16/2021 5:45:00 AM 4.1 39.38 0.256 7.54 3.91 12.34
12/16/2021 6:00:00 AM 4.09 39.362 0.256 7.54 3.73 12.35
12/16/2021 6:15:00 AM 4.08 39.344 0.257 7.54 3.67 12.35
12/16/2021 6:30:00 AM 4.07 39.326 0.257 7.54 3.65 12.34
12/16/2021 6:45:00 AM 4.05 39.29 0.257 7.54 3.91 12.35
12/16/2021 7:00:00 AM 4.03 39.254 0.257 7.55 3.51 12.36
12/16/2021 7:15:00 AM 4.01 39.218 0.257 7.55 3.85 12.36
12/16/2021 7:30:00 AM 3.99 39.182 0.257 7.53 3.84 12.36
12/16/2021 7:45:00 AM 3.97 39.146 0.257 7.54 3.58 12.37
12/16/2021 8:00:00 AM 3.96 39.128 0.258 7.55 3.64 12.38
12/16/2021 8:15:00 AM 3.96 39.128 0.258 7.54 3.91 12.39
12/16/2021 8:30:00 AM 3.96 39.128 0.258 7.55 3.57 12.41
12/16/2021 8:45:00 AM 3.95 39.11 0.258 7.55 3.68 12.42
12/16/2021 9:00:00 AM 3.96 39.128 0.258 7.56 3.58 12.42
12/16/2021 9:15:00 AM 3.96 39.128 0.258 7.55 3.65 12.43
12/16/2021 9:30:00 AM 3.96 39.128 0.258 7.55 3.53 12.44
12/16/2021 9:45:00 AM 3.98 39.164 0.259 7.56 3.56 12.45
12/16/2021 10:00:00 AM 4.02 39.236 0.259 7.56 3.49 12.46
12/16/2021 10:15:00 AM 4.07 39.326 0.259 7.56 4.06 12.47
12/16/2021 10:30:00 AM 4.14 39.452 0.259 7.57 3.33 12.48
12/16/2021 10:45:00 AM 4.24 39.632 0.259 7.56 3.53 12.47
12/16/2021 11:00:00 AM 4.36 39.848 0.259 7.58 3.32 12.47
12/16/2021 11:15:00 AM 4.45 40.01 0.259 7.58 3.62 12.45
12/16/2021 11:30:00 AM 4.52 40.136 0.259 7.59 3.45 12.43
12/16/2021 11:45:00 AM 4.59 40.262 0.259 7.59 3.39 12.41
12/16/2021 12:00:00 PM 4.68 40.424 0.259 7.59 3.37 12.4
12/16/2021 12:15:00 PM 4.77 40.586 0.259 7.59 3.51 12.39
12/16/2021 12:30:00 PM 4.83 40.694 0.259 7.6 3.23 12.39
12/16/2021 12:45:00 PM 4.9 40.82 0.26 7.6 3.42 12.36
12/16/2021 1:00:00 PM 5 41 0.26 7.61 3.37 12.35
12/16/2021 1:15:00 PM 5.08 41.144 0.26 7.61 3.53 12.33
12/16/2021 1:30:00 PM 5.22 41.396 0.26 7.61 3.49 12.29
12/16/2021 1:45:00 PM 5.34 41.612 0.26 7.6 3.38 12.25
12/16/2021 2:00:00 PM 5.44 41.792 0.26 7.61 3.51 12.23
12/16/2021 2:15:00 PM 5.57 42.026 0.26 7.62 3.55 12.2
12/16/2021 2:30:00 PM 5.68 42.224 0.26 7.61 3.42 12.18
12/16/2021 2:45:00 PM 5.78 42.404 0.26 7.62 3.45 12.15
12/16/2021 3:00:00 PM 5.87 42.566 0.26 7.62 3.38 12.12
12/16/2021 3:15:00 PM 5.94 42.692 0.261 7.61 3.38 12.09
12/16/2021 3:30:00 PM 6 42.8 0.261 7.61 3.27 12.04
12/16/2021 3:45:00 PM 6.04 42.872 0.261 7.61 3.53 12
12/16/2021 4:00:00 PM 6.08 42.944 0.261 7.62 3.43 11.97
12/16/2021 4:15:00 PM 6.13 43.034 0.261 7.61 3.42 11.94
12/16/2021 4:30:00 PM 6.15 43.07 0.261 7.61 3.36 11.9
12/16/2021 4:45:00 PM 6.17 43.106 0.261 7.61 3.55 11.86
12/16/2021 5:00:00 PM 6.21 43.178 0.261 7.61 3.54 11.84
12/16/2021 5:15:00 PM 6.23 43.214 0.261 7.6 3.49 11.81
12/16/2021 5:30:00 PM 6.26 43.268 0.262 7.6 3.58 11.79
12/16/2021 5:45:00 PM 6.28 43.304 0.262 7.59 3.61 11.76
12/16/2021 6:00:00 PM 6.32 43.376 0.262 7.6 3.6 11.73
12/16/2021 6:15:00 PM 6.35 43.43 0.262 7.59 3.71 11.71
12/16/2021 6:30:00 PM 6.38 43.484 0.262 7.59 3.79 11.69
12/16/2021 6:45:00 PM 6.42 43.556 0.262 7.6 3.62 11.66
12/16/2021 7:00:00 PM 6.44 43.592 0.263 7.59 3.5 11.65
12/16/2021 7:15:00 PM 6.47 43.646 0.263 7.59 3.55 11.64
12/16/2021 7:30:00 PM 6.51 43.718 0.263 7.6 3.73 11.62
12/16/2021 7:45:00 PM 6.53 43.754 0.263 7.58 3.67 11.61
12/16/2021 8:00:00 PM 6.57 43.826 0.263 7.59 3.74 11.6
12/16/2021 8:15:00 PM 6.61 43.898 0.263 7.59 3.67 11.58
12/16/2021 8:30:00 PM 6.64 43.952 0.264 7.59 3.79 11.57
12/16/2021 8:45:00 PM 6.67 44.006 0.264 7.59 4.04 11.56
12/16/2021 9:00:00 PM 6.71 44.078 0.264 7.59 3.6 11.55
12/16/2021 9:15:00 PM 6.75 44.15 0.264 7.59 3.57 11.53
12/16/2021 9:30:00 PM 6.8 44.24 0.264 7.59 3.86 11.53
12/16/2021 9:45:00 PM 6.85 44.33 0.264 7.58 3.76 11.51
12/16/2021 10:00:00 PM 6.88 44.384 0.265 7.59 3.85 11.49
12/16/2021 10:15:00 PM 6.91 44.438 0.265 7.59 3.75 11.49
12/16/2021 10:30:00 PM 6.96 44.528 0.265 7.59 3.65 11.47
12/16/2021 10:45:00 PM 6.99 44.582 0.265 7.6 3.78 11.46
12/16/2021 11:00:00 PM 6.99 44.582 0.265 7.6 3.8 11.45
12/16/2021 11:15:00 PM 6.98 44.564 0.265 7.6 3.87 11.44
12/16/2021 11:30:00 PM 6.96 44.528 0.265 7.6 3.8 11.44
12/16/2021 11:45:00 PM 6.94 44.492 0.266 7.6 3.79 11.43
12/17/2021 12:00:00 AM 6.92 44.456 0.266 7.6 3.68 11.44
12/17/2021 12:15:00 AM 6.9 44.42 0.266 7.59 4.03 11.43
12/17/2021 12:30:00 AM 6.87 44.366 0.266 7.59 4.09 11.43
12/17/2021 12:45:00 AM 6.85 44.33 0.266 7.59 3.77 11.45
12/17/2021 1:00:00 AM 6.83 44.294 0.266 7.6 4.13 11.44
12/17/2021 1:15:00 AM 6.81 44.258 0.266 7.6 3.73 11.46
12/17/2021 1:30:00 AM 6.8 44.24 0.266 7.6 4 11.45
12/17/2021 1:45:00 AM 6.77 44.186 0.267 7.6 3.93 11.46
12/17/2021 2:00:00 AM 6.74 44.132 0.267 7.6 3.95 11.46
12/17/2021 2:15:00 AM 6.7 44.06 0.267 7.6 3.74 11.48
12/17/2021 2:30:00 AM 6.67 44.006 0.267 7.6 4.05 11.48
12/17/2021 2:45:00 AM 6.64 43.952 0.267 7.6 3.84 11.47
12/17/2021 3:00:00 AM 6.6 43.88 0.267 7.6 3.99 11.49
12/17/2021 3:15:00 AM 6.56 43.808 0.267 7.6 4.19 11.5
12/17/2021 3:30:00 AM 6.53 43.754 0.268 7.6 3.89 11.51
12/17/2021 3:45:00 AM 6.49 43.682 0.268 7.6 3.95 11.5
12/17/2021 4:00:00 AM 6.45 43.61 0.268 7.6 3.78 11.53
12/17/2021 4:15:00 AM 6.41 43.538 0.268 7.6 5.06 11.54
12/17/2021 4:30:00 AM 6.36 43.448 0.268 7.6 3.89 11.55
12/17/2021 4:45:00 AM 6.32 43.376 0.269 7.6 4.1 11.56
12/17/2021 5:00:00 AM 6.27 43.286 0.269 7.6 3.79 11.57
12/17/2021 5:15:00 AM 6.22 43.196 0.269 7.6 3.82 11.59
12/17/2021 5:30:00 AM 6.17 43.106 0.269 7.6 4.07 11.6
12/17/2021 5:45:00 AM 6.13 43.034 0.269 7.6 3.97 11.62
12/17/2021 6:00:00 AM 6.08 42.944 0.269 7.6 3.88 11.64
12/17/2021 6:15:00 AM 6.03 42.854 0.27 7.6 3.84 11.66
12/17/2021 6:30:00 AM 5.97 42.746 0.27 7.61 3.92 11.68
12/17/2021 6:45:00 AM 5.92 42.656 0.27 7.6 3.71 11.69
12/17/2021 7:00:00 AM 5.86 42.548 0.27 7.6 3.93 11.71
12/17/2021 7:15:00 AM 5.81 42.458 0.27 7.61 4 11.73
12/17/2021 7:30:00 AM 5.75 42.35 0.27 7.61 4.23 11.75
12/17/2021 7:45:00 AM 5.7 42.26 0.27 7.61 3.81 11.76
12/17/2021 8:00:00 AM 5.64 42.152 0.271 7.61 4.39 11.78
12/17/2021 8:15:00 AM 5.6 42.08 0.271 7.61 4.46 11.81
12/17/2021 8:30:00 AM 5.55 41.99 0.271 7.61 3.86 11.83
12/17/2021 8:45:00 AM 5.5 41.9 0.271 7.6 3.78 11.85
12/17/2021 9:00:00 AM 5.47 41.846 0.271 7.62 3.76 11.88
12/17/2021 9:15:00 AM 5.44 41.792 0.271 7.62 3.83 11.91
12/17/2021 9:30:00 AM 5.41 41.738 0.272 7.62 3.8 11.95
12/17/2021 9:45:00 AM 5.37 41.666 0.272 7.62 3.64 11.96
12/17/2021 10:00:00 AM 5.34 41.612 0.272 7.63 3.61 11.99
12/17/2021 10:15:00 AM 5.32 41.576 0.272 7.62 3.66 12.01
12/17/2021 10:30:00 AM 5.3 41.54 0.272 7.63 3.77 12.03
12/17/2021 10:45:00 AM 5.3 41.54 0.272 7.64 3.67 12.05
12/17/2021 11:00:00 AM 5.3 41.54 0.272 7.64 3.77 12.08
12/17/2021 11:15:00 AM 5.3 41.54 0.272 7.64 3.49 12.09
12/17/2021 11:30:00 AM 5.33 41.594 0.273 7.63 3.56 12.11
12/17/2021 11:45:00 AM 5.36 41.648 0.273 7.64 4.24 12.12
12/17/2021 12:00:00 PM 5.38 41.684 0.273 7.65 3.6 12.14
12/17/2021 12:15:00 PM 5.4 41.72 0.273 7.65 3.6 12.16
12/17/2021 12:30:00 PM 5.46 41.828 0.273 7.65 3.47 12.15
12/17/2021 12:45:00 PM 5.53 41.954 0.273 7.66 3.67 12.17
12/17/2021 1:00:00 PM 5.54 41.972 0.273 7.66 3.81 12.18
12/17/2021 1:15:00 PM 5.58 42.044 0.274 7.66 3.56 12.18
12/17/2021 1:30:00 PM 5.62 42.116 0.274 7.66 3.4 12.17
12/17/2021 1:45:00 PM 5.68 42.224 0.274 7.65 3.66 12.17
12/17/2021 2:00:00 PM 5.74 42.332 0.274 7.67 3.63 12.15
12/17/2021 2:15:00 PM 5.78 42.404 0.274 7.67 3.7 12.16
12/17/2021 2:30:00 PM 5.81 42.458 0.274 7.67 3.49 12.16
12/17/2021 2:45:00 PM 5.82 42.476 0.274 7.67 3.43 12.16
12/17/2021 3:00:00 PM 5.83 42.494 0.275 7.67 3.41 12.16
12/17/2021 3:15:00 PM 5.84 42.512 0.275 7.67 3.57 12.15
12/17/2021 3:30:00 PM 5.84 42.512 0.275 7.67 3.52 12.14
12/17/2021 3:45:00 PM 5.83 42.494 0.275 7.68 3.65 12.13
12/17/2021 4:00:00 PM 5.81 42.458 0.275 7.66 3.58 12.12
12/17/2021 4:15:00 PM 5.76 42.368 0.275 7.67 3.77 12.1
12/17/2021 4:30:00 PM 5.73 42.314 0.276 7.67 3.71 12.08
12/17/2021 4:45:00 PM 5.69 42.242 0.276 7.66 3.41 12.06
12/17/2021 5:00:00 PM 5.64 42.152 0.276 7.66 3.6 12.04
12/17/2021 5:15:00 PM 5.61 42.098 0.276 7.65 3.57 12.04
12/17/2021 5:30:00 PM 5.57 42.026 0.276 7.65 3.53 12.02
12/17/2021 5:45:00 PM 5.54 41.972 0.276 7.65 3.56 12.01
12/17/2021 6:00:00 PM 5.52 41.936 0.277 7.64 3.89 12.01
12/17/2021 6:15:00 PM 5.47 41.846 0.277 7.63 3.54 12
12/17/2021 6:30:00 PM 5.42 41.756 0.277 7.64 3.77 12
12/17/2021 6:45:00 PM 5.39 41.702 0.277 7.64 3.56 11.99
12/17/2021 7:00:00 PM 5.35 41.63 0.277 7.64 3.53 12.02
12/17/2021 7:15:00 PM 5.32 41.576 0.278 7.64 3.57 12.01
12/17/2021 7:30:00 PM 5.29 41.522 0.278 7.64 3.67 12.02
12/17/2021 7:45:00 PM 5.26 41.468 0.278 7.63 3.58 12.03
12/17/2021 8:00:00 PM 5.24 41.432 0.278 7.63 3.56 12.03
12/17/2021 8:15:00 PM 5.22 41.396 0.279 7.63 3.59 12.03
12/17/2021 8:30:00 PM 5.2 41.36 0.279 7.64 3.74 12.04
12/17/2021 8:45:00 PM 5.17 41.306 0.279 7.63 3.59 12.04
12/17/2021 9:00:00 PM 5.14 41.252 0.279 7.63 3.72 12.04
12/17/2021 9:15:00 PM 5.11 41.198 0.279 7.63 3.6 12.05
12/17/2021 9:30:00 PM 5.09 41.162 0.28 7.63 3.71 12.03
12/17/2021 9:45:00 PM 5.08 41.144 0.28 7.63 4.08 12.05
12/17/2021 10:00:00 PM 5.06 41.108 0.28 7.63 3.7 12.06
12/17/2021 10:15:00 PM 5.05 41.09 0.28 7.63 3.74 12.06
12/17/2021 10:30:00 PM 5.05 41.09 0.281 7.62 3.82 12.06
12/17/2021 10:45:00 PM 5.04 41.072 0.281 7.63 3.79 12.07
12/17/2021 11:00:00 PM 5.03 41.054 0.281 7.63 3.72 12.07
12/17/2021 11:15:00 PM 5.02 41.036 0.281 7.63 3.78 12.08
12/17/2021 11:30:00 PM 5.01 41.018 0.281 7.62 3.76 12.08
12/17/2021 11:45:00 PM 5 41 0.281 7.62 3.73 12.08
12/18/2021 12:00:00 AM 4.99 40.982 0.281 7.63 3.65 12.08
12/18/2021 12:15:00 AM 4.98 40.964 0.281 7.63 3.63 12.09
12/18/2021 12:30:00 AM 4.97 40.946 0.281 7.62 3.75 12.09
12/18/2021 12:45:00 AM 4.95 40.91 0.281 7.63 3.73 12.1
12/18/2021 1:00:00 AM 4.94 40.892 0.281 7.63 3.75 12.1
12/18/2021 1:15:00 AM 4.93 40.874 0.282 7.62 3.68 12.09
12/18/2021 1:30:00 AM 4.92 40.856 0.282 7.63 3.57 12.1
12/18/2021 1:45:00 AM 4.91 40.838 0.282 7.62 3.87 12.1
12/18/2021 2:00:00 AM 4.9 40.82 0.282 7.62 3.86 12.11
12/18/2021 2:15:00 AM 4.89 40.802 0.282 7.61 3.69 12.11
12/18/2021 2:30:00 AM 4.89 40.802 0.282 7.62 3.7 12.11
12/18/2021 2:45:00 AM 4.88 40.784 0.282 7.62 4.4 12.12
12/18/2021 3:00:00 AM 4.88 40.784 0.282 7.62 3.66 12.11
12/18/2021 3:15:00 AM 4.87 40.766 0.282 7.61 3.71 12.13
12/18/2021 3:30:00 AM 4.86 40.748 0.283 7.62 3.77 12.11
12/18/2021 3:45:00 AM 4.86 40.748 0.283 7.62 3.67 12.12
12/18/2021 4:00:00 AM 4.85 40.73 0.283 7.62 3.69 12.13
12/18/2021 4:15:00 AM 4.84 40.712 0.283 7.62 3.81 12.13
12/18/2021 4:30:00 AM 4.83 40.694 0.283 7.62 3.66 12.12
12/18/2021 4:45:00 AM 4.83 40.694 0.283 7.62 3.7 12.13
12/18/2021 5:00:00 AM 4.83 40.694 0.283 7.62 3.69 12.12
12/18/2021 5:15:00 AM 4.83 40.694 0.283 7.62 3.84 12.12
12/18/2021 5:30:00 AM 4.82 40.676 0.284 7.63 3.78 12.12
12/18/2021 5:45:00 AM 4.82 40.676 0.283 7.63 3.74 12.12
12/18/2021 6:00:00 AM 4.81 40.658 0.284 7.63 3.77 12.13
12/18/2021 6:15:00 AM 4.81 40.658 0.284 7.63 3.79 12.12
12/18/2021 6:30:00 AM 4.8 40.64 0.284 7.63 3.87 12.13
12/18/2021 6:45:00 AM 4.79 40.622 0.284 7.63 3.72 12.12
12/18/2021 7:00:00 AM 4.78 40.604 0.283 7.62 3.68 12.12
12/18/2021 7:15:00 AM 4.77 40.586 0.283 7.62 3.75 12.12
12/18/2021 7:30:00 AM 4.77 40.586 0.283 7.61 3.88 12.11
12/18/2021 7:45:00 AM 4.76 40.568 0.283 7.63 3.64 12.13
12/18/2021 8:00:00 AM 4.76 40.568 0.283 7.62 4.03 12.13
12/18/2021 8:15:00 AM 4.75 40.55 0.283 7.62 3.98 12.13
12/18/2021 8:30:00 AM 4.75 40.55 0.283 7.62 3.98 12.13
12/18/2021 8:45:00 AM 4.75 40.55 0.283 7.62 3.68 12.15
12/18/2021 9:00:00 AM 4.75 40.55 0.282 7.63 3.76 12.16
12/18/2021 9:15:00 AM 4.75 40.55 0.282 7.62 3.87 12.16
12/18/2021 9:30:00 AM 4.76 40.568 0.282 7.63 3.8 12.17
12/18/2021 9:45:00 AM 4.78 40.604 0.282 7.62 3.77 12.18
12/18/2021 10:00:00 AM 4.79 40.622 0.282 7.63 3.96 12.19
12/18/2021 10:15:00 AM 4.8 40.64 0.282 7.63 4.13 12.2
12/18/2021 10:30:00 AM 4.81 40.658 0.281 7.63 4.13 12.21
12/18/2021 10:45:00 AM 4.81 40.658 0.281 7.63 4.23 12.2
12/18/2021 11:00:00 AM 4.82 40.676 0.28 7.63 4.04 12.2
12/18/2021 11:15:00 AM 4.82 40.676 0.279 7.61 4.29 12.2
12/18/2021 11:30:00 AM 4.83 40.694 0.278 7.62 4.29 12.19
12/18/2021 11:45:00 AM 4.83 40.694 0.278 7.62 4.47 12.18
12/18/2021 12:00:00 PM 4.84 40.712 0.278 7.61 4.57 12.18
12/18/2021 12:15:00 PM 4.85 40.73 0.278 7.62 4.95 12.17
12/18/2021 12:30:00 PM 4.86 40.748 0.277 7.62 5.45 12.17
12/18/2021 12:45:00 PM 4.87 40.766 0.277 7.61 5.44 12.14
12/18/2021 1:00:00 PM 4.87 40.766 0.276 7.61 5.42 12.14
12/18/2021 1:15:00 PM 4.89 40.802 0.276 7.6 6.23 12.13
12/18/2021 1:30:00 PM 4.91 40.838 0.275 7.6 6.32 12.13
12/18/2021 1:45:00 PM 4.92 40.856 0.274 7.6 7.43 12.1
12/18/2021 2:00:00 PM 4.93 40.874 0.274 7.59 7.02 12.1
12/18/2021 2:15:00 PM 4.94 40.892 0.273 7.58 7.86 12.09
12/18/2021 2:30:00 PM 4.95 40.91 0.272 7.59 8.35 12.08
12/18/2021 2:45:00 PM 4.97 40.946 0.272 7.58 10.71 12.07
12/18/2021 3:00:00 PM 4.98 40.964 0.271 7.57 10.74 12.05
12/18/2021 3:15:00 PM 5 41 0.271 7.57 12.71 12.04
12/18/2021 3:30:00 PM 5.02 41.036 0.27 7.56 13.14 12.02
12/18/2021 3:45:00 PM 5.03 41.054 0.27 7.56 11.99 12.01
12/18/2021 4:00:00 PM 5.05 41.09 0.27 7.55 12.67 12
12/18/2021 4:15:00 PM 5.06 41.108 0.269 7.54 13.92 11.99
12/18/2021 4:30:00 PM 5.07 41.126 0.269 7.54 13.5 11.97
12/18/2021 4:45:00 PM 5.08 41.144 0.268 7.53 15.27 11.95
12/18/2021 5:00:00 PM 5.1 41.18 0.268 7.52 14.14 11.94
12/18/2021 5:15:00 PM 5.11 41.198 0.267 7.53 15.43 11.93
12/18/2021 5:30:00 PM 5.12 41.216 0.267 7.52 15.89 11.92
12/18/2021 5:45:00 PM 5.13 41.234 0.267 7.53 15.45 11.91
12/18/2021 6:00:00 PM 5.15 41.27 0.267 7.53 15.83 11.9
12/18/2021 6:15:00 PM 5.16 41.288 0.267 7.51 16.51 11.89
12/18/2021 6:30:00 PM 5.17 41.306 0.267 7.52 16.73 11.87
12/18/2021 6:45:00 PM 5.19 41.342 0.266 7.53 17.06 11.87
12/18/2021 7:00:00 PM 5.2 41.36 0.266 7.53 17.58 11.87
12/18/2021 7:15:00 PM 5.21 41.378 0.265 7.52 15.8 11.86
12/18/2021 7:30:00 PM 5.22 41.396 0.264 7.52 17.87 11.85
12/18/2021 7:45:00 PM 5.23 41.414 0.264 7.53 16.66 11.86
12/18/2021 8:00:00 PM 5.24 41.432 0.263 7.51 16.65 11.85
12/18/2021 8:15:00 PM 5.25 41.45 0.262 7.53 16.96 11.84
12/18/2021 8:30:00 PM 5.26 41.468 0.261 7.53 16.88 11.84
12/18/2021 8:45:00 PM 5.27 41.486 0.261 7.53 16.22 11.83
12/18/2021 9:00:00 PM 5.28 41.504 0.26 7.53 19.2 11.84
12/18/2021 9:15:00 PM 5.28 41.504 0.258 7.52 18.64 11.83
12/18/2021 9:30:00 PM 5.29 41.522 0.258 7.52 19.27 11.84
12/18/2021 9:45:00 PM 5.29 41.522 0.257 7.53 19.1 11.82
12/18/2021 10:00:00 PM 5.3 41.54 0.256 7.53 19.73 11.84
12/18/2021 10:15:00 PM 5.31 41.558 0.255 7.53 21.37 11.84
12/18/2021 10:30:00 PM 5.32 41.576 0.254 7.54 20.34 11.83
12/18/2021 10:45:00 PM 5.32 41.576 0.253 7.53 21.61 11.83
12/18/2021 11:00:00 PM 5.32 41.576 0.251 7.54 26.79 11.84
12/18/2021 11:15:00 PM 5.32 41.576 0.25 7.54 24.48 11.84
12/18/2021 11:30:00 PM 5.33 41.594 0.249 7.54 25.59 11.84
12/18/2021 11:45:00 PM 5.32 41.576 0.248 7.54 24.42 11.84
12/19/2021 12:00:00 AM 5.31 41.558 0.247 7.53 24.81 11.85
12/19/2021 12:15:00 AM 5.3 41.54 0.247 7.54 25.84 11.86
12/19/2021 12:30:00 AM 5.28 41.504 0.248 7.55 27.28 11.87
12/19/2021 12:45:00 AM 5.27 41.486 0.249 7.55 26.18 11.87
12/19/2021 1:00:00 AM 5.26 41.468 0.25 7.55 24.85 11.87
12/19/2021 1:15:00 AM 5.24 41.432 0.251 7.56 21.7 11.88
12/19/2021 1:30:00 AM 5.23 41.414 0.253 7.56 26.91 11.89
12/19/2021 1:45:00 AM 5.21 41.378 0.254 7.56 24.26 11.9
12/19/2021 2:00:00 AM 5.2 41.36 0.255 7.56 24.49 11.91
12/19/2021 2:15:00 AM 5.18 41.324 0.256 7.57 25.62 11.92
12/19/2021 2:30:00 AM 5.16 41.288 0.257 7.57 24.13 11.92
12/19/2021 2:45:00 AM 5.14 41.252 0.257 7.58 24.26 11.93
12/19/2021 3:00:00 AM 5.13 41.234 0.258 7.57 23.02 11.94
12/19/2021 3:15:00 AM 5.1 41.18 0.257 7.58 23.25 11.94
12/19/2021 3:30:00 AM 5.08 41.144 0.257 7.58 22.64 11.95
12/19/2021 3:45:00 AM 5.06 41.108 0.257 7.58 28.61 11.96
12/19/2021 4:00:00 AM 5.04 41.072 0.256 7.58 21.49 11.97
12/19/2021 4:15:00 AM 5.01 41.018 0.255 7.57 23.07 11.97
12/19/2021 4:30:00 AM 5 41 0.254 7.57 22.07 11.98
12/19/2021 4:45:00 AM 4.98 40.964 0.253 7.58 22.66 11.98
12/19/2021 5:00:00 AM 4.96 40.928 0.253 7.58 22.98 11.99
12/19/2021 5:15:00 AM 4.94 40.892 0.251 7.58 22.01 11.99
12/19/2021 5:30:00 AM 4.92 40.856 0.25 7.57 24.15 12
12/19/2021 5:45:00 AM 4.9 40.82 0.249 7.58 23.92 12.01
12/19/2021 6:00:00 AM 4.88 40.784 0.248 7.57 22.2 12.01
12/19/2021 6:15:00 AM 4.86 40.748 0.247 7.57 21.76 12.02
12/19/2021 6:30:00 AM 4.85 40.73 0.246 7.56 22.09 12.03
12/19/2021 6:45:00 AM 4.83 40.694 0.245 7.57 20.89 12.03
12/19/2021 7:00:00 AM 4.82 40.676 0.243 7.57 23.1 12.04
12/19/2021 7:15:00 AM 4.8 40.64 0.242 7.56 24.32 12.04
12/19/2021 7:30:00 AM 4.78 40.604 0.241 7.56 20.97 12.05
12/19/2021 7:45:00 AM 4.76 40.568 0.239 7.56 23.04 12.05
12/19/2021 8:00:00 AM 4.75 40.55 0.238 7.56 22.6 12.06
12/19/2021 8:15:00 AM 4.73 40.514 0.237 7.56 23.4 12.07
12/19/2021 8:30:00 AM 4.71 40.478 0.235 7.54 24.1 12.08
12/19/2021 8:45:00 AM 4.69 40.442 0.234 7.55 21.3 12.08
12/19/2021 9:00:00 AM 4.68 40.424 0.233 7.55 20.71 12.1
12/19/2021 9:15:00 AM 4.67 40.406 0.232 7.55 20.87 12.1
12/19/2021 9:30:00 AM 4.66 40.388 0.231 7.54 20.35 12.11
12/19/2021 9:45:00 AM 4.65 40.37 0.231 7.54 20.93 12.12
12/19/2021 10:00:00 AM 4.64 40.352 0.23 7.54 19.76 12.13
12/19/2021 10:15:00 AM 4.63 40.334 0.229 7.54 19.18 12.14
12/19/2021 10:30:00 AM 4.62 40.316 0.228 7.53 18.46 12.16
12/19/2021 10:45:00 AM 4.62 40.316 0.228 7.54 19.7 12.16
12/19/2021 11:00:00 AM 4.61 40.298 0.227 7.53 22.79 12.18
12/19/2021 11:15:00 AM 4.62 40.316 0.227 7.53 17.21 12.19
12/19/2021 11:30:00 AM 4.61 40.298 0.226 7.54 17.86 12.21
12/19/2021 11:45:00 AM 4.63 40.334 0.225 7.53 17.08 12.21
12/19/2021 12:00:00 PM 4.65 40.37 0.224 7.54 16.39 12.22
12/19/2021 12:15:00 PM 4.66 40.388 0.223 7.53 15.99 12.23
12/19/2021 12:30:00 PM 4.7 40.46 0.223 7.54 17.62 12.24
12/19/2021 12:45:00 PM 4.7 40.46 0.223 7.54 16.89 12.25
12/19/2021 1:00:00 PM 4.71 40.478 0.222 7.54 17.02 12.26
12/19/2021 1:15:00 PM 4.73 40.514 0.222 7.53 16.57 12.26
12/19/2021 1:30:00 PM 4.75 40.55 0.222 7.54 16.64 12.26
12/19/2021 1:45:00 PM 4.78 40.604 0.221 7.53 15.01 12.26
12/19/2021 2:00:00 PM 4.8 40.64 0.221 7.54 15.41 12.27
12/19/2021 2:15:00 PM 4.78 40.604 0.221 7.54 14.84 12.26
12/19/2021 2:30:00 PM 4.79 40.622 0.221 7.53 14.52 12.26
12/19/2021 2:45:00 PM 4.84 40.712 0.221 7.53 13.89 12.26
12/19/2021 3:00:00 PM 4.87 40.766 0.22 7.54 13.57 12.26
12/19/2021 3:15:00 PM 4.87 40.766 0.22 7.54 13.81 12.26
12/19/2021 3:30:00 PM 4.84 40.712 0.22 7.54 13.38 12.27
12/19/2021 3:45:00 PM 4.79 40.622 0.22 7.53 13.09 12.26
12/19/2021 4:00:00 PM 4.72 40.496 0.22 7.53 13.02 12.26
12/19/2021 4:15:00 PM 4.65 40.37 0.22 7.52 14.28 12.27
12/19/2021 4:30:00 PM 4.58 40.244 0.22 7.52 12.74 12.27
12/19/2021 4:45:00 PM 4.53 40.154 0.22 7.53 12.37 12.28
12/19/2021 5:00:00 PM 4.48 40.064 0.22 7.52 11.96 12.27
12/19/2021 5:15:00 PM 4.45 40.01 0.219 7.51 12.97 12.27
12/19/2021 5:30:00 PM 4.41 39.938 0.219 7.51 12.36 12.28
12/19/2021 5:45:00 PM 4.38 39.884 0.219 7.51 12.13 12.28
12/19/2021 6:00:00 PM 4.36 39.848 0.219 7.51 12.63 12.28
12/19/2021 6:15:00 PM 4.33 39.794 0.219 7.51 12.1 12.29
12/19/2021 6:30:00 PM 4.3 39.74 0.219 7.5 11.79 12.28
12/19/2021 6:45:00 PM 4.27 39.686 0.219 7.51 12.83 12.3
12/19/2021 7:00:00 PM 4.23 39.614 0.219 7.5 11.92 12.31
12/19/2021 7:15:00 PM 4.2 39.56 0.219 7.5 11.69 12.31
12/19/2021 7:30:00 PM 4.16 39.488 0.219 7.5 11.05 12.31
12/19/2021 7:45:00 PM 4.12 39.416 0.219 7.5 11.11 12.32
12/19/2021 8:00:00 PM 4.08 39.344 0.219 7.5 11.52 12.34
12/19/2021 8:15:00 PM 4.04 39.272 0.219 7.5 10.83 12.34
12/19/2021 8:30:00 PM 3.99 39.182 0.219 7.5 10.45 12.35
12/19/2021 8:45:00 PM 3.94 39.092 0.219 7.5 9.95 12.37
12/19/2021 9:00:00 PM 3.9 39.02 0.219 7.5 10.39 12.38
12/19/2021 9:15:00 PM 3.85 38.93 0.219 7.5 10.93 12.4
12/19/2021 9:30:00 PM 3.8 38.84 0.219 7.48 10.63 12.4
12/19/2021 9:45:00 PM 3.75 38.75 0.219 7.5 10.33 12.42
12/19/2021 10:00:00 PM 3.71 38.678 0.219 7.49 10.53 12.43
12/19/2021 10:15:00 PM 3.67 38.606 0.218 7.49 10 12.45
12/19/2021 10:30:00 PM 3.62 38.516 0.218 7.5 9.93 12.46
12/19/2021 10:45:00 PM 3.58 38.444 0.218 7.48 9.67 12.47
12/19/2021 11:00:00 PM 3.54 38.372 0.218 7.49 9.09 12.48
12/19/2021 11:15:00 PM 3.5 38.3 0.218 7.49 9.75 12.5
12/19/2021 11:30:00 PM 3.46 38.228 0.218 7.49 9.16 12.51
12/19/2021 11:45:00 PM 3.42 38.156 0.218 7.49 9.17 12.53
12/20/2021 12:00:00 AM 3.37 38.066 0.218 7.49 9.88 12.54
12/20/2021 12:15:00 AM 3.33 37.994 0.218 7.49 9.26 12.56
12/20/2021 12:30:00 AM 3.28 37.904 0.218 7.46 8.79 12.57
12/20/2021 12:45:00 AM 3.23 37.814 0.218 7.47 9.6 12.59
12/20/2021 1:00:00 AM 3.19 37.742 0.218 7.48 9.78 12.61
12/20/2021 1:15:00 AM 3.13 37.634 0.218 7.48 9.37 12.62
12/20/2021 1:30:00 AM 3.08 37.544 0.218 7.49 9.3 12.64
12/20/2021 1:45:00 AM 3.03 37.454 0.218 7.46 9.12 12.66
12/20/2021 2:00:00 AM 2.98 37.364 0.218 7.48 8.32 12.67
12/20/2021 2:15:00 AM 2.93 37.274 0.218 7.48 8.11 12.69
12/20/2021 2:30:00 AM 2.87 37.166 0.218 7.48 8.35 12.71
12/20/2021 2:45:00 AM 2.82 37.076 0.218 7.46 8.06 12.73
12/20/2021 3:00:00 AM 2.77 36.986 0.218 7.46 7.83 12.74
12/20/2021 3:15:00 AM 2.72 36.896 0.218 7.47 7.92 12.76
12/20/2021 3:30:00 AM 2.67 36.806 0.218 7.47 8.59 12.78
12/20/2021 3:45:00 AM 2.62 36.716 0.218 7.47 7.36 12.79
12/20/2021 4:00:00 AM 2.56 36.608 0.218 7.47 8.08 12.81
12/20/2021 4:15:00 AM 2.53 36.554 0.218 7.47 7.34 12.83
12/20/2021 4:30:00 AM 2.5 36.5 0.218 7.47 7.81 12.85
12/20/2021 4:45:00 AM 2.46 36.428 0.218 7.48 7.34 12.87
12/20/2021 5:00:00 AM 2.43 36.374 0.218 7.48 7.24 12.88
12/20/2021 5:15:00 AM 2.39 36.302 0.218 7.47 8.33 12.9
12/20/2021 5:30:00 AM 2.35 36.23 0.219 7.47 7.15 12.91
12/20/2021 5:45:00 AM 2.32 36.176 0.219 7.47 7.13 12.94
12/20/2021 6:00:00 AM 2.29 36.122 0.219 7.47 6.83 12.94
12/20/2021 6:15:00 AM 2.27 36.086 0.219 7.47 7.24 12.96
12/20/2021 6:30:00 AM 2.25 36.05 0.219 7.47 6.6 12.97
12/20/2021 6:45:00 AM 2.22 35.996 0.219 7.48 6.58 12.98
12/20/2021 7:00:00 AM 2.19 35.942 0.219 7.48 6.75 13
12/20/2021 7:15:00 AM 2.16 35.888 0.219 7.47 8.62 13
12/20/2021 7:30:00 AM 2.14 35.852 0.219 7.48 6.79 13.02
12/20/2021 7:45:00 AM 2.13 35.834 0.219 7.47 7.08 13.03
12/20/2021 8:00:00 AM 2.11 35.798 0.219 7.47 6.32 13.05
12/20/2021 8:15:00 AM 2.11 35.798 0.219 7.48 6.78 13.07
12/20/2021 8:30:00 AM 2.1 35.78 0.219 7.48 6.52 13.08
12/20/2021 8:45:00 AM 2.09 35.762 0.22 7.48 6.6 13.1
12/20/2021 9:00:00 AM 2.08 35.744 0.22 7.49 6.94 13.11
12/20/2021 9:15:00 AM 2.07 35.726 0.22 7.48 6.47 13.13
12/20/2021 9:30:00 AM 2.09 35.762 0.22 7.49 6.28 13.15
12/20/2021 9:45:00 AM 2.08 35.744 0.22 7.49 6.39 13.15
12/20/2021 10:00:00 AM 2.07 35.726 0.22 7.49 6.09 13.16
12/20/2021 10:15:00 AM 2.07 35.726 0.22 7.49 5.94 13.17
12/20/2021 10:30:00 AM 2.07 35.726 0.22 7.49 6.03 13.18
12/20/2021 10:45:00 AM 2.07 35.726 0.22 7.5 6.01 13.18
12/20/2021 11:00:00 AM 2.09 35.762 0.22 7.5 5.66 13.19
12/20/2021 11:15:00 AM 2.11 35.798 0.22 7.49 5.76 13.18
12/20/2021 11:30:00 AM 2.14 35.852 0.221 7.5 5.65 13.19
12/20/2021 11:45:00 AM 2.17 35.906 0.221 7.5 5.45 13.2
12/20/2021 12:00:00 PM 2.2 35.96 0.221 7.5 5.34 13.19
12/20/2021 12:15:00 PM 2.24 36.032 0.221 7.49 5.7 13.18
12/20/2021 12:30:00 PM 2.29 36.122 0.221 7.51 5.52 13.18
12/20/2021 12:45:00 PM 2.35 36.23 0.221 7.51 5.46 13.17
12/20/2021 1:00:00 PM 2.42 36.356 0.221 7.5 5.44 13.15
12/20/2021 1:15:00 PM 2.49 36.482 0.221 7.51 5.54 13.13
12/20/2021 1:30:00 PM 2.55 36.59 0.221 7.51 5.52 13.12
12/20/2021 1:45:00 PM 2.6 36.68 0.221 7.51 5.15 13.11
12/20/2021 2:00:00 PM 2.64 36.752 0.222 7.51 5.61 13.1
12/20/2021 2:15:00 PM 2.69 36.842 0.222 7.51 5.25 13.09
12/20/2021 2:30:00 PM 2.73 36.914 0.222 7.51 5.52 13.07
12/20/2021 2:45:00 PM 2.76 36.968 0.222 7.51 5.36 13.06
12/20/2021 3:00:00 PM 2.79 37.022 0.222 7.51 5.32 13.05
12/20/2021 3:15:00 PM 2.79 37.022 0.222 7.52 5.07 13.05
12/20/2021 3:30:00 PM 2.78 37.004 0.222 7.52 5.08 13.04
12/20/2021 3:45:00 PM 2.76 36.968 0.223 7.52 5.57 13.02
12/20/2021 4:00:00 PM 2.74 36.932 0.223 7.52 5.02 13.01
12/20/2021 4:15:00 PM 2.71 36.878 0.223 7.52 5.33 13.01
12/20/2021 4:30:00 PM 2.69 36.842 0.223 7.5 4.86 12.99
12/20/2021 4:45:00 PM 2.67 36.806 0.223 7.51 5.26 12.98
12/20/2021 5:00:00 PM 2.64 36.752 0.223 7.51 5.01 12.97
12/20/2021 5:15:00 PM 2.61 36.698 0.223 7.51 4.84 12.96
12/20/2021 5:30:00 PM 2.59 36.662 0.224 7.51 5.32 12.96
12/20/2021 5:45:00 PM 2.57 36.626 0.224 7.5 5.24 12.95
12/20/2021 6:00:00 PM 2.55 36.59 0.224 7.51 5.3 12.95
12/20/2021 6:15:00 PM 2.53 36.554 0.224 7.51 4.82 12.94
12/20/2021 6:30:00 PM 2.51 36.518 0.224 7.5 4.95 12.93
12/20/2021 6:45:00 PM 2.5 36.5 0.224 7.49 4.9 12.93
12/20/2021 7:00:00 PM 2.49 36.482 0.224 7.5 5.08 12.92
12/20/2021 7:15:00 PM 2.48 36.464 0.224 7.5 5.27 12.92
12/20/2021 7:30:00 PM 2.47 36.446 0.225 7.5 4.69 12.91
12/20/2021 7:45:00 PM 2.46 36.428 0.225 7.5 4.74 12.91
12/20/2021 8:00:00 PM 2.44 36.392 0.225 7.5 4.87 12.92
12/20/2021 8:15:00 PM 2.42 36.356 0.225 7.48 4.88 12.91
12/20/2021 8:30:00 PM 2.4 36.32 0.225 7.5 4.66 12.92
12/20/2021 8:45:00 PM 2.38 36.284 0.225 7.5 4.77 12.92
12/20/2021 9:00:00 PM 2.35 36.23 0.225 7.49 4.86 12.93
12/20/2021 9:15:00 PM 2.32 36.176 0.226 7.5 4.9 12.94
12/20/2021 9:30:00 PM 2.29 36.122 0.226 7.48 4.84 12.95
12/20/2021 9:45:00 PM 2.25 36.05 0.226 7.5 4.89 12.96
12/20/2021 10:00:00 PM 2.23 36.014 0.226 7.49 4.78 12.96
12/20/2021 10:15:00 PM 2.19 35.942 0.226 7.5 4.75 12.98
12/20/2021 10:30:00 PM 2.16 35.888 0.226 7.5 4.55 12.98
12/20/2021 10:45:00 PM 2.13 35.834 0.226 7.49 4.63 13
12/20/2021 11:00:00 PM 2.11 35.798 0.227 7.5 4.84 12.99
12/20/2021 11:15:00 PM 2.08 35.744 0.227 7.49 4.59 13.01
12/20/2021 11:30:00 PM 2.05 35.69 0.227 7.49 4.84 13.01
12/20/2021 11:45:00 PM 2.02 35.636 0.227 7.5 4.57 13.02
12/21/2021 12:00:00 AM 1.99 35.582 0.227 7.5 4.59 13.03
12/21/2021 12:15:00 AM 1.97 35.546 0.227 7.49 4.73 13.03
12/21/2021 12:30:00 AM 1.93 35.474 0.227 7.49 4.51 13.03
12/21/2021 12:45:00 AM 1.9 35.42 0.228 7.5 4.45 13.06
12/21/2021 1:00:00 AM 1.87 35.366 0.228 7.5 4.57 13.06
12/21/2021 1:15:00 AM 1.83 35.294 0.228 7.49 6.1 13.07
12/21/2021 1:30:00 AM 1.8 35.24 0.228 7.5 4.77 13.08
12/21/2021 1:45:00 AM 1.76 35.168 0.228 7.49 4.6 13.09
12/21/2021 2:00:00 AM 1.72 35.096 0.228 7.49 4.4 13.1
12/21/2021 2:15:00 AM 1.69 35.042 0.229 7.49 4.75 13.12
12/21/2021 2:30:00 AM 1.65 34.97 0.229 7.5 4.72 13.13
12/21/2021 2:45:00 AM 1.61 34.898 0.229 7.49 4.46 13.15
12/21/2021 3:00:00 AM 1.57 34.826 0.229 7.5 4.38 13.15
12/21/2021 3:15:00 AM 1.53 34.754 0.229 7.49 4.38 13.17
12/21/2021 3:30:00 AM 1.49 34.682 0.229 7.49 4.25 13.18
12/21/2021 3:45:00 AM 1.45 34.61 0.229 7.49 4.35 13.2
12/21/2021 4:00:00 AM 1.41 34.538 0.23 7.49 4.4 13.22
12/21/2021 4:15:00 AM 1.38 34.484 0.23 7.49 4.35 13.23
12/21/2021 4:30:00 AM 1.34 34.412 0.23 7.49 4.52 13.24
12/21/2021 4:45:00 AM 1.31 34.358 0.23 7.49 4.37 13.25
12/21/2021 5:00:00 AM 1.27 34.286 0.23 7.49 4.42 13.26
12/21/2021 5:15:00 AM 1.24 34.232 0.23 7.47 4.23 13.27
12/21/2021 5:30:00 AM 1.21 34.178 0.231 7.49 4.32 13.29
12/21/2021 5:45:00 AM 1.18 34.124 0.231 7.49 4.46 13.3
12/21/2021 6:00:00 AM 1.14 34.052 0.231 7.5 4.16 13.32
12/21/2021 6:15:00 AM 1.11 33.998 0.231 7.48 4.37 13.34
12/21/2021 6:30:00 AM 1.09 33.962 0.231 7.49 4.13 13.34
12/21/2021 6:45:00 AM 1.06 33.908 0.232 7.49 4.42 13.35
12/21/2021 7:00:00 AM 1.03 33.854 0.232 7.49 4.27 13.36
12/21/2021 7:15:00 AM 1.01 33.818 0.232 7.49 4.24 13.38
12/21/2021 7:30:00 AM 0.98 33.764 0.232 7.49 4.2 13.38
12/21/2021 7:45:00 AM 0.96 33.728 0.232 7.49 4.48 13.4
12/21/2021 8:00:00 AM 0.95 33.71 0.232 7.49 4.64 13.42
12/21/2021 8:15:00 AM 0.94 33.692 0.232 7.5 4.16 13.43
12/21/2021 8:30:00 AM 0.94 33.692 0.233 7.5 4.08 13.45
12/21/2021 8:45:00 AM 0.97 33.746 0.233 7.5 4.37 13.46
12/21/2021 9:00:00 AM 0.99 33.782 0.233 7.5 4.01 13.48
12/21/2021 9:15:00 AM 1.02 33.836 0.233 7.5 4.22 13.48
12/21/2021 9:30:00 AM 1.04 33.872 0.233 7.51 4.16 13.5
12/21/2021 9:45:00 AM 1.06 33.908 0.233 7.51 4.15 13.5
12/21/2021 10:00:00 AM 1.1 33.98 0.233 7.51 3.93 13.5
12/21/2021 10:15:00 AM 1.15 34.07 0.233 7.51 4.07 13.5
12/21/2021 10:30:00 AM 1.19 34.142 0.233 7.52 4.05 13.49
12/21/2021 10:45:00 AM 1.22 34.196 0.233 7.52 3.71 13.5
12/21/2021 11:00:00 AM 1.26 34.268 0.234 7.52 3.73 13.49
12/21/2021 11:15:00 AM 1.3 34.34 0.234 7.51 3.75 13.48
12/21/2021 11:30:00 AM 1.34 34.412 0.234 7.52 4 13.46
12/21/2021 11:45:00 AM 1.4 34.52 0.234 7.52 4.14 13.45
12/21/2021 12:00:00 PM 1.45 34.61 0.234 7.52 3.8 13.45
12/21/2021 12:15:00 PM 1.51 34.718 0.234 7.52 3.78 13.43
12/21/2021 12:30:00 PM 1.59 34.862 0.234 7.53 3.85 13.41
12/21/2021 12:45:00 PM 1.68 35.024 0.234 7.53 4.69 13.39
12/21/2021 1:00:00 PM 1.78 35.204 0.234 7.54 4.06 13.37
12/21/2021 1:15:00 PM 1.89 35.402 0.234 7.53 3.76 13.36
12/21/2021 1:30:00 PM 1.99 35.582 0.234 7.54 3.96 13.33
12/21/2021 1:45:00 PM 2.08 35.744 0.234 7.54 3.71 13.31
12/21/2021 2:00:00 PM 2.13 35.834 0.234 7.55 3.63 13.28
12/21/2021 2:15:00 PM 2.19 35.942 0.234 7.53 3.73 13.26
12/21/2021 2:30:00 PM 2.25 36.05 0.234 7.55 3.79 13.23
12/21/2021 2:45:00 PM 2.3 36.14 0.234 7.54 3.89 13.2
12/21/2021 3:00:00 PM 2.35 36.23 0.234 7.55 3.92 13.18
12/21/2021 3:15:00 PM 2.35 36.23 0.234 7.55 3.81 13.16
12/21/2021 3:30:00 PM 2.35 36.23 0.234 7.54 3.99 13.15
12/21/2021 3:45:00 PM 2.36 36.248 0.235 7.55 4.5 13.13
12/21/2021 4:00:00 PM 2.35 36.23 0.235 7.55 3.9 13.11
12/21/2021 4:15:00 PM 2.34 36.212 0.235 7.55 3.87 13.1
12/21/2021 4:30:00 PM 2.31 36.158 0.235 7.55 3.9 13.09
12/21/2021 4:45:00 PM 2.29 36.122 0.235 7.54 3.83 13.07
12/21/2021 5:00:00 PM 2.27 36.086 0.235 7.55 3.79 13.05
12/21/2021 5:15:00 PM 2.25 36.05 0.235 7.55 3.72 13.03
12/21/2021 5:30:00 PM 2.23 36.014 0.236 7.54 3.84 13.02
12/21/2021 5:45:00 PM 2.21 35.978 0.236 7.55 3.86 13.01
12/21/2021 6:00:00 PM 2.19 35.942 0.236 7.54 4.16 13.01
12/21/2021 6:15:00 PM 2.17 35.906 0.236 7.54 4.26 13
12/21/2021 6:30:00 PM 2.16 35.888 0.236 7.54 4.29 12.99
12/21/2021 6:45:00 PM 2.15 35.87 0.236 7.53 4.37 12.98
12/21/2021 7:00:00 PM 2.14 35.852 0.236 7.54 3.97 12.98
12/21/2021 7:15:00 PM 2.13 35.834 0.237 7.52 4.12 12.97
12/21/2021 7:30:00 PM 2.11 35.798 0.237 7.53 3.89 12.96
12/21/2021 7:45:00 PM 2.1 35.78 0.237 7.54 3.79 12.96
12/21/2021 8:00:00 PM 2.09 35.762 0.237 7.53 3.91 12.95
12/21/2021 8:15:00 PM 2.07 35.726 0.237 7.53 3.69 12.94
12/21/2021 8:30:00 PM 2.06 35.708 0.237 7.53 3.76 12.94
12/21/2021 8:45:00 PM 2.05 35.69 0.237 7.53 4.03 12.94
12/21/2021 9:00:00 PM 2.03 35.654 0.237 7.53 10.71 12.94
12/21/2021 9:15:00 PM 2.02 35.636 0.238 7.53 4.27 12.94
12/21/2021 9:30:00 PM 1.99 35.582 0.238 7.53 4.13 12.94
12/21/2021 9:45:00 PM 1.97 35.546 0.238 7.53 4.36 12.94
12/21/2021 10:00:00 PM 1.95 35.51 0.238 7.52 3.7 12.95
12/21/2021 10:15:00 PM 1.91 35.438 0.238 7.53 3.85 12.95
12/21/2021 10:30:00 PM 1.88 35.384 0.238 7.52 6.05 12.96
12/21/2021 10:45:00 PM 1.85 35.33 0.238 7.53 4.59 12.96
12/21/2021 11:00:00 PM 1.82 35.276 0.239 7.53 3.81 12.97
12/21/2021 11:15:00 PM 1.79 35.222 0.239 7.52 3.67 12.97
12/21/2021 11:30:00 PM 1.77 35.186 0.239 7.53 4.49 12.98
12/21/2021 11:45:00 PM 1.74 35.132 0.239 7.53 3.82 12.99
12/22/2021 12:00:00 AM 1.72 35.096 0.239 7.53 3.68 12.99
12/22/2021 12:15:00 AM 1.7 35.06 0.239 7.53 3.73 12.99
12/22/2021 12:30:00 AM 1.67 35.006 0.24 7.53 3.86 13
12/22/2021 12:45:00 AM 1.64 34.952 0.24 7.53 5.1 13
12/22/2021 1:00:00 AM 1.62 34.916 0.24 7.53 4.48 13.01
12/22/2021 1:15:00 AM 1.59 34.862 0.24 7.52 4.64 13.01
12/22/2021 1:30:00 AM 1.57 34.826 0.24 7.53 6.29 13.01
12/22/2021 1:45:00 AM 1.55 34.79 0.24 7.53 3.78 13.02
12/22/2021 2:00:00 AM 1.52 34.736 0.241 7.53 3.55 13.03
12/22/2021 2:15:00 AM 1.49 34.682 0.241 7.53 3.65 13.04
12/22/2021 2:30:00 AM 1.45 34.61 0.241 7.53 3.84 13.04
12/22/2021 2:45:00 AM 1.42 34.556 0.241 7.53 3.59 13.06
12/22/2021 3:00:00 AM 1.39 34.502 0.241 7.53 3.79 13.07
12/22/2021 3:15:00 AM 1.35 34.43 0.241 7.52 3.71 13.07
12/22/2021 3:30:00 AM 1.33 34.394 0.242 7.53 3.53 13.09
12/22/2021 3:45:00 AM 1.31 34.358 0.242 7.53 3.6 13.09
12/22/2021 4:00:00 AM 1.3 34.34 0.242 7.52 3.93 13.11
12/22/2021 4:15:00 AM 1.3 34.34 0.242 7.53 3.91 13.11
12/22/2021 4:30:00 AM 1.29 34.322 0.242 7.53 3.54 13.12
12/22/2021 4:45:00 AM 1.29 34.322 0.242 7.53 3.78 13.12
12/22/2021 5:00:00 AM 1.3 34.34 0.242 7.52 3.63 13.13
12/22/2021 5:15:00 AM 1.3 34.34 0.243 7.53 3.43 13.13
12/22/2021 5:30:00 AM 1.3 34.34 0.243 7.53 3.4 13.13
12/22/2021 5:45:00 AM 1.31 34.358 0.243 7.53 4.22 13.13
12/22/2021 6:00:00 AM 1.3 34.34 0.243 7.53 3.48 13.13
12/22/2021 6:15:00 AM 1.31 34.358 0.243 7.53 3.51 13.13
12/22/2021 6:30:00 AM 1.33 34.394 0.243 7.53 3.72 13.13
12/22/2021 6:45:00 AM 1.34 34.412 0.244 7.52 3.49 13.13
12/22/2021 7:00:00 AM 1.36 34.448 0.244 7.52 3.44 13.14
12/22/2021 7:15:00 AM 1.39 34.502 0.244 7.53 3.52 13.12
12/22/2021 7:30:00 AM 1.41 34.538 0.244 7.54 4.24 13.12
12/22/2021 7:45:00 AM 1.44 34.592 0.244 7.52 4.06 13.11
12/22/2021 8:00:00 AM 1.45 34.61 0.244 7.54 6.39 13.13
12/22/2021 8:15:00 AM 1.49 34.682 0.244 7.54 3.56 13.12
12/22/2021 8:30:00 AM 1.52 34.736 0.244 7.54 3.54 13.12
12/22/2021 8:45:00 AM 1.54 34.772 0.245 7.55 3.48 13.13
12/22/2021 9:00:00 AM 1.57 34.826 0.245 7.55 3.58 13.13
12/22/2021 9:15:00 AM 1.59 34.862 0.245 7.55 3.32 13.13
12/22/2021 9:30:00 AM 1.62 34.916 0.245 7.55 3.49 13.13
12/22/2021 9:45:00 AM 1.65 34.97 0.245 7.55 3.67 13.14
12/22/2021 10:00:00 AM 1.67 35.006 0.245 7.56 3.25 13.14
12/22/2021 10:15:00 AM 1.7 35.06 0.245 7.56 3.41 13.15
12/22/2021 10:30:00 AM 1.73 35.114 0.246 7.56 3.79 13.16
12/22/2021 10:45:00 AM 1.76 35.168 0.246 7.57 3.45 13.16
12/22/2021 11:00:00 AM 1.8 35.24 0.246 7.57 3.61 13.16
12/22/2021 11:15:00 AM 1.84 35.312 0.246 7.57 3.3 13.16
12/22/2021 11:30:00 AM 1.85 35.33 0.246 7.57 3.16 13.16
12/22/2021 11:45:00 AM 1.89 35.402 0.246 7.57 3.37 13.15
12/22/2021 12:00:00 PM 1.92 35.456 0.246 7.58 3.42 13.15
12/22/2021 12:15:00 PM 1.94 35.492 0.246 7.58 3.37 13.15
12/22/2021 12:30:00 PM 1.98 35.564 0.246 7.58 4.05 13.15
12/22/2021 12:45:00 PM 1.98 35.564 0.247 7.58 3.3 13.15
12/22/2021 1:00:00 PM 2 35.6 0.247 7.59 3.26 13.15
12/22/2021 1:15:00 PM 2.05 35.69 0.247 7.58 3.61 13.14
12/22/2021 1:30:00 PM 2.07 35.726 0.247 7.58 6.09 13.14
12/22/2021 1:45:00 PM 2.1 35.78 0.247 7.59 3.42 13.13
12/22/2021 2:00:00 PM 2.13 35.834 0.247 7.59 3.43 13.13
12/22/2021 2:15:00 PM 2.16 35.888 0.246 7.59 4.27 13.12
12/22/2021 2:30:00 PM 2.19 35.942 0.247 7.59 3.88 13.12
12/22/2021 2:45:00 PM 2.19 35.942 0.248 7.6 3.55 13.12
12/22/2021 3:00:00 PM 2.19 35.942 0.248 7.6 3.48 13.12
12/22/2021 3:15:00 PM 2.17 35.906 0.248 7.58 3.47 13.11
12/22/2021 3:30:00 PM 2.17 35.906 0.248 7.6 3.56 13.11
12/22/2021 3:45:00 PM 2.15 35.87 0.248 7.6 6.87 13.1
12/22/2021 4:00:00 PM 2.12 35.816 0.248 7.6 3.37 13.1
12/22/2021 4:15:00 PM 2.08 35.744 0.248 7.6 3.51 13.11
12/22/2021 4:30:00 PM 2.06 35.708 0.249 7.59 3.33 13.1
12/22/2021 4:45:00 PM 2.03 35.654 0.249 7.59 3.48 13.09
12/22/2021 5:00:00 PM 2.01 35.618 0.249 7.59 3.42 13.08
12/22/2021 5:15:00 PM 1.98 35.564 0.249 7.6 3.61 13.08
12/22/2021 5:30:00 PM 1.95 35.51 0.249 7.59 3.53 13.08
12/22/2021 5:45:00 PM 1.94 35.492 0.249 7.58 3.43 13.08
12/22/2021 6:00:00 PM 1.91 35.438 0.25 7.59 4.05 13.07
12/22/2021 6:15:00 PM 1.89 35.402 0.25 7.59 4.05 13.08
12/22/2021 6:30:00 PM 1.87 35.366 0.25 7.59 3.46 13.09
12/22/2021 6:45:00 PM 1.85 35.33 0.25 7.59 3.82 13.09
12/22/2021 7:00:00 PM 1.83 35.294 0.251 7.58 3.74 13.09
12/22/2021 7:15:00 PM 1.8 35.24 0.251 7.58 3.45 13.1
12/22/2021 7:30:00 PM 1.78 35.204 0.251 7.58 3.43 13.11
12/22/2021 7:45:00 PM 1.74 35.132 0.251 7.58 3.88 13.11
12/22/2021 8:00:00 PM 1.71 35.078 0.251 7.58 4.12 13.12
12/22/2021 8:15:00 PM 1.67 35.006 0.251 7.58 3.77 13.12
12/22/2021 8:30:00 PM 1.65 34.97 0.252 7.58 3.77 13.13
12/22/2021 8:45:00 PM 1.63 34.934 0.252 7.58 4.1 13.14
12/22/2021 9:00:00 PM 1.6 34.88 0.252 7.58 3.87 13.15
12/22/2021 9:15:00 PM 1.58 34.844 0.252 7.58 3.98 13.15
12/22/2021 9:30:00 PM 1.56 34.808 0.252 7.57 3.74 13.15
12/22/2021 9:45:00 PM 1.53 34.754 0.252 7.58 3.71 13.17
12/22/2021 10:00:00 PM 1.5 34.7 0.253 7.58 3.65 13.17
12/22/2021 10:15:00 PM 1.48 34.664 0.253 7.57 3.54 13.19
12/22/2021 10:30:00 PM 1.45 34.61 0.253 7.58 3.68 13.19
12/22/2021 10:45:00 PM 1.43 34.574 0.253 7.58 3.34 13.21
12/22/2021 11:00:00 PM 1.41 34.538 0.253 7.57 3.61 13.21
12/22/2021 11:15:00 PM 1.38 34.484 0.253 7.57 3.24 13.22
12/22/2021 11:30:00 PM 1.36 34.448 0.253 7.58 3.54 13.23
12/22/2021 11:45:00 PM 1.35 34.43 0.254 7.56 3.31 13.24
12/23/2021 12:00:00 AM 1.33 34.394 0.254 7.58 3.45 13.25
12/23/2021 12:15:00 AM 1.32 34.376 0.254 7.57 3.68 13.25
12/23/2021 12:30:00 AM 1.31 34.358 0.254 7.57 3.45 13.27
12/23/2021 12:45:00 AM 1.29 34.322 0.254 7.57 3.46 13.28
12/23/2021 1:00:00 AM 1.28 34.304 0.254 7.58 3.46 13.29
12/23/2021 1:15:00 AM 1.27 34.286 0.254 7.57 3.34 13.3
12/23/2021 1:30:00 AM 1.26 34.268 0.255 7.58 3.39 13.3
12/23/2021 1:45:00 AM 1.25 34.25 0.255 7.58 3.33 13.31
12/23/2021 2:00:00 AM 1.23 34.214 0.255 7.56 3.43 13.32
12/23/2021 2:15:00 AM 1.22 34.196 0.255 7.57 3.56 13.33
12/23/2021 2:30:00 AM 1.21 34.178 0.255 7.58 3.36 13.33
12/23/2021 2:45:00 AM 1.2 34.16 0.255 7.58 3.93 13.35
12/23/2021 3:00:00 AM 1.19 34.142 0.256 7.57 3.57 13.35
12/23/2021 3:15:00 AM 1.18 34.124 0.256 7.57 3.33 13.36
12/23/2021 3:30:00 AM 1.17 34.106 0.256 7.57 3.4 13.37
12/23/2021 3:45:00 AM 1.16 34.088 0.256 7.58 3.31 13.38
12/23/2021 4:00:00 AM 1.15 34.07 0.256 7.57 3.31 13.39
12/23/2021 4:15:00 AM 1.14 34.052 0.256 7.58 3.47 13.39
12/23/2021 4:30:00 AM 1.12 34.016 0.256 7.57 3.71 13.4
12/23/2021 4:45:00 AM 1.11 33.998 0.257 7.57 3.45 13.41
12/23/2021 5:00:00 AM 1.09 33.962 0.257 7.57 3.51 13.42
12/23/2021 5:15:00 AM 1.08 33.944 0.257 7.58 3.39 13.42
12/23/2021 5:30:00 AM 1.06 33.908 0.257 7.56 3.27 13.43
12/23/2021 5:45:00 AM 1.05 33.89 0.257 7.57 3.33 13.44
12/23/2021 6:00:00 AM 1.03 33.854 0.257 7.58 3.46 13.45
12/23/2021 6:15:00 AM 1.02 33.836 0.258 7.56 3.12 13.46
12/23/2021 6:30:00 AM 1.02 33.836 0.258 7.57 3.16 13.46
12/23/2021 6:45:00 AM 1 33.8 0.258 7.57 3.25 13.47
12/23/2021 7:00:00 AM 1 33.8 0.258 7.57 3.37 13.48
12/23/2021 7:15:00 AM 0.99 33.782 0.258 7.58 3.25 13.48
12/23/2021 7:30:00 AM 0.98 33.764 0.258 7.58 3.22 13.49
12/23/2021 7:45:00 AM 0.98 33.764 0.259 7.57 3.49 13.5
12/23/2021 8:00:00 AM 0.97 33.746 0.259 7.57 3.25 13.5
12/23/2021 8:15:00 AM 0.97 33.746 0.259 7.58 3.07 13.51
12/23/2021 8:30:00 AM 0.98 33.764 0.259 7.58 3.1 13.53
12/23/2021 8:45:00 AM 0.99 33.782 0.259 7.58 3.1 13.54
12/23/2021 9:00:00 AM 1 33.8 0.259 7.58 3.01 13.55
12/23/2021 9:15:00 AM 1.02 33.836 0.259 7.59 3.12 13.56
12/23/2021 9:30:00 AM 1.04 33.872 0.26 7.59 3.34 13.57
12/23/2021 9:45:00 AM 1.06 33.908 0.26 7.59 3.82 13.58
12/23/2021 10:00:00 AM 1.08 33.944 0.26 7.6 3.14 13.59
12/23/2021 10:15:00 AM 1.11 33.998 0.26 7.59 3.15 13.6
12/23/2021 10:30:00 AM 1.16 34.088 0.26 7.6 3.11 13.6
12/23/2021 10:45:00 AM 1.2 34.16 0.26 7.6 3.04 13.61
12/23/2021 11:00:00 AM 1.23 34.214 0.26 7.6 3.11 13.61
12/23/2021 11:15:00 AM 1.25 34.25 0.26 7.61 3.14 13.6
12/23/2021 11:30:00 AM 1.3 34.34 0.261 7.61 3.12 13.6
12/23/2021 11:45:00 AM 1.33 34.394 0.261 7.61 3.02 13.6
12/23/2021 12:00:00 PM 1.37 34.466 0.262 7.61 3.26 13.59
12/23/2021 12:15:00 PM 1.41 34.538 0.263 7.61 3.2 13.59
12/23/2021 12:30:00 PM 1.48 34.664 0.263 7.62 3.04 13.58
12/23/2021 12:45:00 PM 1.53 34.754 0.262 7.61 2.92 13.57
12/23/2021 1:00:00 PM 1.6 34.88 0.261 7.62 3.16 13.56
12/23/2021 1:15:00 PM 1.65 34.97 0.261 7.61 3.07 13.54
12/23/2021 1:30:00 PM 1.7 35.06 0.261 7.61 2.86 13.53
12/23/2021 1:45:00 PM 1.74 35.132 0.261 7.62 2.98 13.52
12/23/2021 2:00:00 PM 1.77 35.186 0.261 7.62 3.01 13.51
12/23/2021 2:15:00 PM 1.79 35.222 0.261 7.63 3.46 13.5
12/23/2021 2:30:00 PM 1.81 35.258 0.262 7.63 3.08 13.49
12/23/2021 2:45:00 PM 1.83 35.294 0.262 7.62 3.04 13.48
12/23/2021 3:00:00 PM 1.84 35.312 0.262 7.63 3.32 13.47
12/23/2021 3:15:00 PM 1.84 35.312 0.262 7.62 3.1 13.45
12/23/2021 3:30:00 PM 1.87 35.366 0.262 7.62 3 13.44
12/23/2021 3:45:00 PM 1.89 35.402 0.262 7.63 3.12 13.42
12/23/2021 4:00:00 PM 1.89 35.402 0.263 7.62 3.05 13.4
12/23/2021 4:15:00 PM 1.88 35.384 0.263 7.62 3.11 13.37
12/23/2021 4:30:00 PM 1.87 35.366 0.263 7.62 2.95 13.35
12/23/2021 4:45:00 PM 1.86 35.348 0.263 7.62 3.52 13.34
12/23/2021 5:00:00 PM 1.85 35.33 0.263 7.62 3.57 13.32
12/23/2021 5:15:00 PM 1.83 35.294 0.264 7.62 2.98 13.31
12/23/2021 5:30:00 PM 1.81 35.258 0.264 7.61 2.94 13.29
12/23/2021 5:45:00 PM 1.8 35.24 0.264 7.62 3.44 13.28
12/23/2021 6:00:00 PM 1.8 35.24 0.264 7.61 3.04 13.28
12/23/2021 6:15:00 PM 1.8 35.24 0.264 7.61 2.91 13.26
12/23/2021 6:30:00 PM 1.79 35.222 0.265 7.61 3.29 13.26
12/23/2021 6:45:00 PM 1.78 35.204 0.265 7.61 3.21 13.25
12/23/2021 7:00:00 PM 1.77 35.186 0.265 7.61 3.18 13.24
12/23/2021 7:15:00 PM 1.76 35.168 0.265 7.6 3.11 13.24
12/23/2021 7:30:00 PM 1.76 35.168 0.265 7.61 3.97 13.22
12/23/2021 7:45:00 PM 1.76 35.168 0.265 7.61 13.53 13.22
12/23/2021 8:00:00 PM 1.76 35.168 0.266 7.61 3.93 13.22
12/23/2021 8:15:00 PM 1.76 35.168 0.266 7.6 3.49 13.21
12/23/2021 8:30:00 PM 1.77 35.186 0.266 7.6 3.49 13.2
12/23/2021 8:45:00 PM 1.77 35.186 0.266 7.6 3.28 13.2
12/23/2021 9:00:00 PM 1.77 35.186 0.266 7.6 3.21 13.18
12/23/2021 9:15:00 PM 1.77 35.186 0.266 7.6 3.32 13.19
12/23/2021 9:30:00 PM 1.78 35.204 0.267 7.59 3.18 13.18
12/23/2021 9:45:00 PM 1.78 35.204 0.267 7.6 3.21 13.17
12/23/2021 10:00:00 PM 1.77 35.186 0.267 7.6 3.19 13.17
12/23/2021 10:15:00 PM 1.77 35.186 0.267 7.6 3.28 13.16
12/23/2021 10:30:00 PM 1.75 35.15 0.267 7.6 3.41 13.16
12/23/2021 10:45:00 PM 1.73 35.114 0.267 7.6 3.2 13.15
12/23/2021 11:00:00 PM 1.7 35.06 0.267 7.6 3.28 13.16
12/23/2021 11:15:00 PM 1.66 34.988 0.267 7.59 3.57 13.15
12/23/2021 11:30:00 PM 1.65 34.97 0.268 7.6 3.57 13.15
12/23/2021 11:45:00 PM 1.62 34.916 0.268 7.59 3.26 13.15
12/24/2021 12:00:00 AM 1.59 34.862 0.268 7.6 3.29 13.16
12/24/2021 12:15:00 AM 1.6 34.88 0.268 7.6 3.25 13.16
12/24/2021 12:30:00 AM 1.61 34.898 0.268 7.6 3.43 13.16
12/24/2021 12:45:00 AM 1.62 34.916 0.268 7.6 3.46 13.16
12/24/2021 1:00:00 AM 1.63 34.934 0.269 7.6 3.29 13.16
12/24/2021 1:15:00 AM 1.64 34.952 0.269 7.6 3.39 13.16
12/24/2021 1:30:00 AM 1.64 34.952 0.269 7.61 3.22 13.17
12/24/2021 1:45:00 AM 1.64 34.952 0.269 7.59 3.27 13.17
12/24/2021 2:00:00 AM 1.64 34.952 0.269 7.6 3.37 13.17
12/24/2021 2:15:00 AM 1.64 34.952 0.269 7.6 3.55 13.18
12/24/2021 2:30:00 AM 1.65 34.97 0.269 7.6 3.9 13.18
12/24/2021 2:45:00 AM 1.65 34.97 0.27 7.6 3.53 13.18
12/24/2021 3:00:00 AM 1.66 34.988 0.27 7.6 3.07 13.18
12/24/2021 3:15:00 AM 1.67 35.006 0.27 7.6 3.07 13.18
12/24/2021 3:30:00 AM 1.67 35.006 0.27 7.6 3.57 13.17
12/24/2021 3:45:00 AM 1.68 35.024 0.27 7.61 3.55 13.18
12/24/2021 4:00:00 AM 1.68 35.024 0.27 7.6 3.93 13.18
12/24/2021 4:15:00 AM 1.69 35.042 0.271 7.6 3.47 13.17
12/24/2021 4:30:00 AM 1.7 35.06 0.271 7.6 3.31 13.17
12/24/2021 4:45:00 AM 1.71 35.078 0.271 7.6 3.17 13.18
12/24/2021 5:00:00 AM 1.71 35.078 0.271 7.61 3.18 13.17
12/24/2021 5:15:00 AM 1.72 35.096 0.271 7.6 3.11 13.18
12/24/2021 5:30:00 AM 1.72 35.096 0.272 7.61 3.22 13.17
12/24/2021 5:45:00 AM 1.73 35.114 0.272 7.61 3.07 13.17
12/24/2021 6:00:00 AM 1.74 35.132 0.272 7.6 3.25 13.17
12/24/2021 6:15:00 AM 1.74 35.132 0.272 7.61 3.62 13.17
12/24/2021 6:30:00 AM 1.74 35.132 0.272 7.6 3.13 13.17
12/24/2021 6:45:00 AM 1.75 35.15 0.272 7.61 3.15 13.17
12/24/2021 7:00:00 AM 1.75 35.15 0.273 7.6 3.29 13.16
12/24/2021 7:15:00 AM 1.75 35.15 0.273 7.6 3.32 13.16
12/24/2021 7:30:00 AM 1.75 35.15 0.273 7.61 3.31 13.16
12/24/2021 7:45:00 AM 1.75 35.15 0.273 7.61 3.07 13.17
12/24/2021 8:00:00 AM 1.76 35.168 0.273 7.61 3.13 13.17
12/24/2021 8:15:00 AM 1.76 35.168 0.273 7.61 3.03 13.18
12/24/2021 8:30:00 AM 1.76 35.168 0.274 7.61 3.07 13.2
12/24/2021 8:45:00 AM 1.75 35.15 0.274 7.61 3.05 13.2
12/24/2021 9:00:00 AM 1.74 35.132 0.274 7.62 3 13.22
12/24/2021 9:15:00 AM 1.75 35.15 0.274 7.62 3.03 13.23
12/24/2021 9:30:00 AM 1.75 35.15 0.274 7.61 3.02 13.24
12/24/2021 9:45:00 AM 1.75 35.15 0.275 7.62 3.05 13.25
12/24/2021 10:00:00 AM 1.76 35.168 0.275 7.63 3.17 13.25
12/24/2021 10:15:00 AM 1.77 35.186 0.275 7.62 3.03 13.26
12/24/2021 10:30:00 AM 1.79 35.222 0.275 7.63 3.13 13.26
12/24/2021 10:45:00 AM 1.81 35.258 0.275 7.63 2.97 13.26
12/24/2021 11:00:00 AM 1.86 35.348 0.275 7.63 3.01 13.26
12/24/2021 11:15:00 AM 1.91 35.438 0.275 7.63 3 13.27
12/24/2021 11:30:00 AM 1.97 35.546 0.276 7.63 3.05 13.26
12/24/2021 11:45:00 AM 2.03 35.654 0.276 7.64 3.12 13.26
12/24/2021 12:00:00 PM 2.08 35.744 0.276 7.63 2.88 13.25
12/24/2021 12:15:00 PM 2.13 35.834 0.276 7.64 3.01 13.24
12/24/2021 12:30:00 PM 2.19 35.942 0.276 7.64 2.93 13.21
12/24/2021 12:45:00 PM 2.27 36.086 0.276 7.64 2.95 13.2
12/24/2021 1:00:00 PM 2.36 36.248 0.276 7.65 2.94 13.18
12/24/2021 1:15:00 PM 2.44 36.392 0.276 7.64 3.04 13.16
12/24/2021 1:30:00 PM 2.52 36.536 0.276 7.65 3.1 13.14
12/24/2021 1:45:00 PM 2.64 36.752 0.277 7.65 3.13 13.12
12/24/2021 2:00:00 PM 2.75 36.95 0.278 7.65 5.57 13.1
12/24/2021 2:15:00 PM 2.86 37.148 0.277 7.65 3.08 13.08
12/24/2021 2:30:00 PM 2.94 37.292 0.277 7.65 3.01 13.06
12/24/2021 2:45:00 PM 2.99 37.382 0.277 7.66 2.98 13.04
12/24/2021 3:00:00 PM 3.02 37.436 0.277 7.66 3.04 13.02
12/24/2021 3:15:00 PM 3.07 37.526 0.277 7.66 3.02 12.99
12/24/2021 3:30:00 PM 3.1 37.58 0.277 7.66 3.26 12.97
12/24/2021 3:45:00 PM 3.11 37.598 0.278 7.66 3.03 12.95
12/24/2021 4:00:00 PM 3.13 37.634 0.278 7.66 3.04 12.92
12/24/2021 4:15:00 PM 3.13 37.634 0.278 7.66 3.04 12.89
12/24/2021 4:30:00 PM 3.13 37.634 0.278 7.66 2.95 12.87
12/24/2021 4:45:00 PM 3.14 37.652 0.278 7.64 3.03 12.84
12/24/2021 5:00:00 PM 3.15 37.67 0.279 7.65 3.09 12.82
12/24/2021 5:15:00 PM 3.15 37.67 0.279 7.65 3.24 12.8
12/24/2021 5:30:00 PM 3.15 37.67 0.279 7.65 3.12 12.78
12/24/2021 5:45:00 PM 3.15 37.67 0.279 7.64 3.29 12.76
12/24/2021 6:00:00 PM 3.16 37.688 0.28 7.64 3.37 12.75
12/24/2021 6:15:00 PM 3.16 37.688 0.28 7.64 3.1 12.73
12/24/2021 6:30:00 PM 3.15 37.67 0.28 7.64 3.24 12.73
12/24/2021 6:45:00 PM 3.15 37.67 0.28 7.64 3.33 12.71
12/24/2021 7:00:00 PM 3.16 37.688 0.281 7.64 3.36 12.7
12/24/2021 7:15:00 PM 3.16 37.688 0.281 7.64 2.98 12.69
12/24/2021 7:30:00 PM 3.17 37.706 0.281 7.64 3.16 12.68
12/24/2021 7:45:00 PM 3.18 37.724 0.281 7.64 3.16 12.67
12/24/2021 8:00:00 PM 3.18 37.724 0.281 7.64 3.43 12.66
12/24/2021 8:15:00 PM 3.2 37.76 0.282 7.63 3.22 12.64
12/24/2021 8:30:00 PM 3.21 37.778 0.282 7.63 3.48 12.63
12/24/2021 8:45:00 PM 3.22 37.796 0.282 7.64 3.19 12.63
12/24/2021 9:00:00 PM 3.23 37.814 0.282 7.63 3.46 12.61
12/24/2021 9:15:00 PM 3.25 37.85 0.283 7.63 3.1 12.6
12/24/2021 9:30:00 PM 3.26 37.868 0.283 7.63 3.28 12.59
12/24/2021 9:45:00 PM 3.27 37.886 0.283 7.63 3.16 12.58
12/24/2021 10:00:00 PM 3.29 37.922 0.283 7.63 3.28 12.57
12/24/2021 10:15:00 PM 3.3 37.94 0.283 7.63 3.25 12.56
12/24/2021 10:30:00 PM 3.31 37.958 0.284 7.63 3.33 12.55
12/24/2021 10:45:00 PM 3.32 37.976 0.284 7.63 3.43 12.55
12/24/2021 11:00:00 PM 3.34 38.012 0.284 7.62 4.05 12.54
12/24/2021 11:15:00 PM 3.35 38.03 0.284 7.63 3.18 12.53
12/24/2021 11:30:00 PM 3.36 38.048 0.284 7.63 3.43 12.53
12/24/2021 11:45:00 PM 3.37 38.066 0.284 7.63 3.22 12.53
12/25/2021 12:00:00 AM 3.37 38.066 0.284 7.63 3.23 12.52
12/25/2021 12:15:00 AM 3.38 38.084 0.285 7.63 3.28 12.52
12/25/2021 12:30:00 AM 3.38 38.084 0.285 7.63 3.32 12.52
12/25/2021 12:45:00 AM 3.39 38.102 0.285 7.63 3.42 12.51
12/25/2021 1:00:00 AM 3.39 38.102 0.285 7.63 3.39 12.5
12/25/2021 1:15:00 AM 3.4 38.12 0.285 7.63 3.26 12.49
12/25/2021 1:30:00 AM 3.41 38.138 0.285 7.63 3.31 12.5
12/25/2021 1:45:00 AM 3.42 38.156 0.285 7.63 3.22 12.48
12/25/2021 2:00:00 AM 3.43 38.174 0.286 7.63 3.33 12.48
12/25/2021 2:15:00 AM 3.44 38.192 0.286 7.63 3.3 12.47
12/25/2021 2:30:00 AM 3.45 38.21 0.286 7.63 3.4 12.47
12/25/2021 2:45:00 AM 3.47 38.246 0.286 7.62 3.33 12.46
12/25/2021 3:00:00 AM 3.47 38.246 0.286 7.63 3.24 12.45
12/25/2021 3:15:00 AM 3.48 38.264 0.286 7.63 3.48 12.45
12/25/2021 3:30:00 AM 3.5 38.3 0.286 7.63 4.01 12.44
12/25/2021 3:45:00 AM 3.51 38.318 0.286 7.63 3.98 12.43
12/25/2021 4:00:00 AM 3.53 38.354 0.286 7.62 5.57 12.42
12/25/2021 4:15:00 AM 3.54 38.372 0.286 7.63 3.44 12.41
12/25/2021 4:30:00 AM 3.56 38.408 0.287 7.63 3.4 12.41
12/25/2021 4:45:00 AM 3.57 38.426 0.287 7.63 3.28 12.4
12/25/2021 5:00:00 AM 3.58 38.444 0.287 7.63 3.44 12.4
12/25/2021 5:15:00 AM 3.6 38.48 0.287 7.63 3.24 12.39
12/25/2021 5:30:00 AM 3.61 38.498 0.287 7.63 3.39 12.38
12/25/2021 5:45:00 AM 3.62 38.516 0.286 7.63 3.47 12.38
12/25/2021 6:00:00 AM 3.63 38.534 0.286 7.63 3.27 12.38
12/25/2021 6:15:00 AM 3.63 38.534 0.286 7.63 3.59 12.37
12/25/2021 6:30:00 AM 3.64 38.552 0.285 7.63 3.46 12.37
12/25/2021 6:45:00 AM 3.65 38.57 0.285 7.62 3.84 12.35
12/25/2021 7:00:00 AM 3.66 38.588 0.285 7.62 3.37 12.35
12/25/2021 7:15:00 AM 3.67 38.606 0.285 7.62 3.46 12.34
12/25/2021 7:30:00 AM 3.68 38.624 0.285 7.62 3.5 12.34
12/25/2021 7:45:00 AM 3.7 38.66 0.285 7.62 3.55 12.33
12/25/2021 8:00:00 AM 3.71 38.678 0.285 7.61 3.72 12.33
12/25/2021 8:15:00 AM 3.72 38.696 0.285 7.62 3.65 12.32
12/25/2021 8:30:00 AM 3.74 38.732 0.285 7.62 3.56 12.33
12/25/2021 8:45:00 AM 3.76 38.768 0.285 7.62 3.84 12.33
12/25/2021 9:00:00 AM 3.79 38.822 0.285 7.62 3.54 12.32
12/25/2021 9:15:00 AM 3.83 38.894 0.285 7.63 3.51 12.33
12/25/2021 9:30:00 AM 3.87 38.966 0.285 7.63 3.53 12.33
12/25/2021 9:45:00 AM 3.92 39.056 0.285 7.63 3.68 12.33
12/25/2021 10:00:00 AM 3.98 39.164 0.285 7.63 3.66 12.33
12/25/2021 10:15:00 AM 4.03 39.254 0.285 7.63 3.97 12.32
12/25/2021 10:30:00 AM 4.08 39.344 0.285 7.64 6.25 12.32
12/25/2021 10:45:00 AM 4.14 39.452 0.285 7.64 3.72 12.3
12/25/2021 11:00:00 AM 4.2 39.56 0.285 7.64 3.74 12.31
12/25/2021 11:15:00 AM 4.27 39.686 0.285 7.64 4.03 12.3
12/25/2021 11:30:00 AM 4.35 39.83 0.284 7.64 5.04 12.29
12/25/2021 11:45:00 AM 4.45 40.01 0.285 7.65 4.05 12.29
12/25/2021 12:00:00 PM 4.54 40.172 0.285 7.65 3.96 12.28
12/25/2021 12:15:00 PM 4.62 40.316 0.285 7.66 3.95 12.26
12/25/2021 12:30:00 PM 4.73 40.514 0.285 7.66 4.02 12.24
12/25/2021 12:45:00 PM 4.83 40.694 0.286 7.66 4.04 12.23
12/25/2021 1:00:00 PM 4.89 40.802 0.286 7.66 4.15 12.2
12/25/2021 1:15:00 PM 4.99 40.982 0.286 7.67 4.01 12.19
12/25/2021 1:30:00 PM 5.08 41.144 0.286 7.67 4.15 12.17
12/25/2021 1:45:00 PM 5.14 41.252 0.286 7.67 4.25 12.14
12/25/2021 2:00:00 PM 5.2 41.36 0.286 7.67 4.25 12.12
12/25/2021 2:15:00 PM 5.24 41.432 0.287 7.67 4.31 12.09
12/25/2021 2:30:00 PM 5.28 41.504 0.287 7.67 4.33 12.07
12/25/2021 2:45:00 PM 5.32 41.576 0.287 7.67 4.63 12.04
12/25/2021 3:00:00 PM 5.38 41.684 0.287 7.67 4.71 12.04
12/25/2021 3:15:00 PM 5.43 41.774 0.287 7.67 4.39 12.02
12/25/2021 3:30:00 PM 5.45 41.81 0.287 7.67 4.65 11.99
12/25/2021 3:45:00 PM 5.48 41.864 0.287 7.66 4.39 11.96
12/25/2021 4:00:00 PM 5.52 41.936 0.287 7.66 4.59 11.93
12/25/2021 4:15:00 PM 5.54 41.972 0.287 7.65 4.33 11.9
12/25/2021 4:30:00 PM 5.56 42.008 0.287 7.66 4.51 11.87
12/25/2021 4:45:00 PM 5.58 42.044 0.287 7.65 4.53 11.85
12/25/2021 5:00:00 PM 5.61 42.098 0.287 7.65 4.83 11.83
12/25/2021 5:15:00 PM 5.63 42.134 0.287 7.65 4.88 11.81
12/25/2021 5:30:00 PM 5.65 42.17 0.286 7.65 4.43 11.79
12/25/2021 5:45:00 PM 5.67 42.206 0.286 7.64 4.34 11.77
12/25/2021 6:00:00 PM 5.68 42.224 0.286 7.64 5.05 11.74
12/25/2021 6:15:00 PM 5.7 42.26 0.286 7.64 4.85 11.74
12/25/2021 6:30:00 PM 5.72 42.296 0.286 7.63 4.77 11.73
12/25/2021 6:45:00 PM 5.73 42.314 0.286 7.64 4.38 11.72
12/25/2021 7:00:00 PM 5.75 42.35 0.286 7.64 4.51 11.71
12/25/2021 7:15:00 PM 5.76 42.368 0.286 7.63 4.55 11.69
12/25/2021 7:30:00 PM 5.77 42.386 0.286 7.63 4.87 11.69
12/25/2021 7:45:00 PM 5.79 42.422 0.286 7.62 4.81 11.68
12/25/2021 8:00:00 PM 5.81 42.458 0.286 7.63 5.14 11.68
12/25/2021 8:15:00 PM 5.83 42.494 0.286 7.63 4.75 11.67
12/25/2021 8:30:00 PM 5.85 42.53 0.286 7.63 5.21 11.66
12/25/2021 8:45:00 PM 5.88 42.584 0.287 7.63 4.9 11.66
12/25/2021 9:00:00 PM 5.9 42.62 0.287 7.64 5.1 11.65
12/25/2021 9:15:00 PM 5.91 42.638 0.287 7.64 5.45 11.65
12/25/2021 9:30:00 PM 5.94 42.692 0.287 7.64 5.3 11.64
12/25/2021 9:45:00 PM 5.96 42.728 0.287 7.64 5.41 11.64
12/25/2021 10:00:00 PM 5.97 42.746 0.288 7.64 5.42 11.64
12/25/2021 10:15:00 PM 5.98 42.764 0.288 7.65 5.19 11.63
12/25/2021 10:30:00 PM 5.99 42.782 0.288 7.65 5.48 11.63
12/25/2021 10:45:00 PM 5.99 42.782 0.288 7.65 5.52 11.63
12/25/2021 11:00:00 PM 6 42.8 0.288 7.65 5.41 11.63
12/25/2021 11:15:00 PM 6.01 42.818 0.288 7.65 5.52 11.63
12/25/2021 11:30:00 PM 6 42.8 0.288 7.65 21.22 11.63
12/25/2021 11:45:00 PM 5.99 42.782 0.288 7.65 5.64 11.63
12/26/2021 12:00:00 AM 6 42.8 0.288 7.66 5.55 11.63
12/26/2021 12:15:00 AM 6 42.8 0.288 7.65 5.42 11.63
12/26/2021 12:30:00 AM 5.98 42.764 0.288 7.66 5.33 11.63
12/26/2021 12:45:00 AM 5.99 42.782 0.288 7.65 5.95 11.63
12/26/2021 1:00:00 AM 5.99 42.782 0.289 7.66 6 11.63
12/26/2021 1:15:00 AM 5.97 42.746 0.289 7.65 5.44 11.64
12/26/2021 1:30:00 AM 5.95 42.71 0.289 7.66 5.4 11.65
12/26/2021 1:45:00 AM 5.93 42.674 0.289 7.66 4.84 11.64
12/26/2021 2:00:00 AM 5.91 42.638 0.29 7.66 5.04 11.65
12/26/2021 2:15:00 AM 5.9 42.62 0.29 7.66 5.05 11.65
12/26/2021 2:30:00 AM 5.89 42.602 0.29 7.66 4.96 11.66
12/26/2021 2:45:00 AM 5.87 42.566 0.291 7.66 4.99 11.67
12/26/2021 3:00:00 AM 5.84 42.512 0.291 7.66 5.79 11.68
12/26/2021 3:15:00 AM 5.82 42.476 0.291 7.66 4.78 11.68
12/26/2021 3:30:00 AM 5.81 42.458 0.292 7.67 4.82 11.69
12/26/2021 3:45:00 AM 5.79 42.422 0.292 7.66 5.31 11.7
12/26/2021 4:00:00 AM 5.77 42.386 0.292 7.66 5.08 11.71
12/26/2021 4:15:00 AM 5.75 42.35 0.293 7.67 5.24 11.72
12/26/2021 4:30:00 AM 5.72 42.296 0.293 7.67 4.65 11.73
12/26/2021 4:45:00 AM 5.69 42.242 0.293 7.67 4.84 11.74
12/26/2021 5:00:00 AM 5.65 42.17 0.293 7.67 5.01 11.75
12/26/2021 5:15:00 AM 5.62 42.116 0.293 7.67 4.86 11.76
12/26/2021 5:30:00 AM 5.61 42.098 0.293 7.67 4.72 11.77
12/26/2021 5:45:00 AM 5.6 42.08 0.293 7.67 4.67 11.77
12/26/2021 6:00:00 AM 5.59 42.062 0.293 7.67 4.57 11.78
12/26/2021 6:15:00 AM 5.58 42.044 0.293 7.67 4.66 11.79
12/26/2021 6:30:00 AM 5.57 42.026 0.293 7.67 4.34 11.8
12/26/2021 6:45:00 AM 5.55 41.99 0.293 7.66 4.71 11.8
12/26/2021 7:00:00 AM 5.54 41.972 0.293 7.67 4.68 11.81
12/26/2021 7:15:00 AM 5.53 41.954 0.293 7.67 4.35 11.81
12/26/2021 7:30:00 AM 5.51 41.918 0.293 7.67 4.92 11.82
12/26/2021 7:45:00 AM 5.5 41.9 0.293 7.67 4.82 11.83
12/26/2021 8:00:00 AM 5.47 41.846 0.293 7.68 4.91 11.85
12/26/2021 8:15:00 AM 5.46 41.828 0.293 7.67 4.59 11.87
12/26/2021 8:30:00 AM 5.46 41.828 0.293 7.67 4.48 11.89
12/26/2021 8:45:00 AM 5.44 41.792 0.293 7.68 4.27 11.9
12/26/2021 9:00:00 AM 5.43 41.774 0.292 7.68 4.87 11.93
12/26/2021 9:15:00 AM 5.43 41.774 0.292 7.69 4.42 11.95
12/26/2021 9:30:00 AM 5.44 41.792 0.292 7.69 4.26 11.96
12/26/2021 9:45:00 AM 5.45 41.81 0.292 7.69 4.41 11.99
12/26/2021 10:00:00 AM 5.45 41.81 0.292 7.69 4.41 12
12/26/2021 10:15:00 AM 5.47 41.846 0.292 7.7 4.7 12.03
12/26/2021 10:30:00 AM 5.47 41.846 0.291 7.7 4.36 12.04
12/26/2021 10:45:00 AM 5.46 41.828 0.291 7.7 4.75 12.05
12/26/2021 11:00:00 AM 5.45 41.81 0.291 7.7 4.62 12.06
12/26/2021 11:15:00 AM 5.45 41.81 0.291 7.71 4.46 12.07
12/26/2021 11:30:00 AM 5.48 41.864 0.291 7.71 4.58 12.08
12/26/2021 11:45:00 AM 5.54 41.972 0.29 7.7 4.75 12.09
12/26/2021 12:00:00 PM 5.6 42.08 0.29 7.72 4.51 12.11
12/26/2021 12:15:00 PM 5.61 42.098 0.29 7.71 4.69 12.1
12/26/2021 12:30:00 PM 5.67 42.206 0.29 7.72 4.64 12.11
12/26/2021 12:45:00 PM 5.73 42.314 0.29 7.72 4.47 12.11
12/26/2021 1:00:00 PM 5.77 42.386 0.289 7.72 4.6 12.11
12/26/2021 1:15:00 PM 5.78 42.404 0.289 7.72 4.47 12.1
12/26/2021 1:30:00 PM 5.79 42.422 0.289 7.72 4.38 12.11
12/26/2021 1:45:00 PM 5.81 42.458 0.289 7.72 4.51 12.1
12/26/2021 2:00:00 PM 5.83 42.494 0.289 7.72 4.64 12.11
12/26/2021 2:15:00 PM 5.85 42.53 0.289 7.73 4.21 12.11
12/26/2021 2:30:00 PM 5.86 42.548 0.288 7.73 4.31 12.1
12/26/2021 2:45:00 PM 5.84 42.512 0.288 7.72 4.24 12.09
12/26/2021 3:00:00 PM 5.81 42.458 0.288 7.73 4.19 12.08
12/26/2021 3:15:00 PM 5.8 42.44 0.288 7.72 3.94 12.07
12/26/2021 3:30:00 PM 5.76 42.368 0.287 7.71 4.36 12.06
12/26/2021 3:45:00 PM 5.76 42.368 0.287 7.72 4.21 12.06
12/26/2021 4:00:00 PM 5.75 42.35 0.287 7.72 4.02 12.06
12/26/2021 4:15:00 PM 5.71 42.278 0.287 7.72 4.44 12.06
12/26/2021 4:30:00 PM 5.68 42.224 0.286 7.71 4.11 12.06
12/26/2021 4:45:00 PM 5.64 42.152 0.286 7.71 4.12 12.04
12/26/2021 5:00:00 PM 5.59 42.062 0.286 7.71 4.14 12.03
12/26/2021 5:15:00 PM 5.53 41.954 0.285 7.7 4.12 12.01
12/26/2021 5:30:00 PM 5.46 41.828 0.285 7.69 4.01 12
12/26/2021 5:45:00 PM 5.4 41.72 0.285 7.69 4.45 12.01
12/26/2021 6:00:00 PM 5.33 41.594 0.285 7.68 4.33 12
12/26/2021 6:15:00 PM 5.27 41.486 0.285 7.67 4.24 12.02
12/26/2021 6:30:00 PM 5.2 41.36 0.284 7.67 4.26 12.01
12/26/2021 6:45:00 PM 5.14 41.252 0.284 7.67 4.32 12.03
12/26/2021 7:00:00 PM 5.08 41.144 0.284 7.67 4.27 12.04
12/26/2021 7:15:00 PM 5.03 41.054 0.284 7.66 4.1 12.04
12/26/2021 7:30:00 PM 4.97 40.946 0.284 7.67 4.2 12.05
12/26/2021 7:45:00 PM 4.93 40.874 0.284 7.66 4.46 12.06
12/26/2021 8:00:00 PM 4.88 40.784 0.284 7.66 4.49 12.07
12/26/2021 8:15:00 PM 4.84 40.712 0.284 7.66 4.72 12.08
12/26/2021 8:30:00 PM 4.79 40.622 0.284 7.66 4.17 12.09
12/26/2021 8:45:00 PM 4.75 40.55 0.284 7.66 4.28 12.09
12/26/2021 9:00:00 PM 4.71 40.478 0.284 7.65 4.3 12.1
12/26/2021 9:15:00 PM 4.67 40.406 0.284 7.66 4.55 12.11
12/26/2021 9:30:00 PM 4.62 40.316 0.284 7.66 4.14 12.12
12/26/2021 9:45:00 PM 4.58 40.244 0.284 7.66 4.22 12.13
12/26/2021 10:00:00 PM 4.53 40.154 0.284 7.65 4.45 12.15
12/26/2021 10:15:00 PM 4.49 40.082 0.284 7.65 4.13 12.15
12/26/2021 10:30:00 PM 4.44 39.992 0.284 7.65 4.32 12.16
12/26/2021 10:45:00 PM 4.39 39.902 0.284 7.64 4.89 12.16
12/26/2021 11:00:00 PM 4.34 39.812 0.284 7.65 3.99 12.18
12/26/2021 11:15:00 PM 4.29 39.722 0.284 7.65 4.07 12.21
12/26/2021 11:30:00 PM 4.23 39.614 0.284 7.65 4.3 12.22
12/26/2021 11:45:00 PM 4.18 39.524 0.284 7.64 4.21 12.23
12/27/2021 12:00:00 AM 4.14 39.452 0.284 7.65 4.43 12.26
12/27/2021 12:15:00 AM 4.08 39.344 0.284 7.64 4.23 12.27
12/27/2021 12:30:00 AM 4.04 39.272 0.285 7.65 4.12 12.3
12/27/2021 12:45:00 AM 4 39.2 0.285 7.65 4.25 12.31
12/27/2021 1:00:00 AM 3.96 39.128 0.285 7.65 4.69 12.32
12/27/2021 1:15:00 AM 3.92 39.056 0.285 7.65 3.99 12.34
12/27/2021 1:30:00 AM 3.88 38.984 0.285 7.64 4.23 12.35
12/27/2021 1:45:00 AM 3.85 38.93 0.285 7.65 4.21 12.36
12/27/2021 2:00:00 AM 3.81 38.858 0.285 7.64 4.1 12.38
12/27/2021 2:15:00 AM 3.79 38.822 0.286 7.65 4.32 12.39
12/27/2021 2:30:00 AM 3.75 38.75 0.286 7.65 4.16 12.4
12/27/2021 2:45:00 AM 3.72 38.696 0.286 7.65 4.12 12.41
12/27/2021 3:00:00 AM 3.69 38.642 0.286 7.65 4.06 12.42
12/27/2021 3:15:00 AM 3.66 38.588 0.286 7.65 4.13 12.43
12/27/2021 3:30:00 AM 3.64 38.552 0.286 7.64 4.17 12.45
12/27/2021 3:45:00 AM 3.62 38.516 0.287 7.64 4.19 12.46
12/27/2021 4:00:00 AM 3.6 38.48 0.287 7.65 4.11 12.47
12/27/2021 4:15:00 AM 3.57 38.426 0.287 7.65 4.24 12.48
12/27/2021 4:30:00 AM 3.56 38.408 0.287 7.64 4.05 12.49
12/27/2021 4:45:00 AM 3.54 38.372 0.287 7.64 4.41 12.5
12/27/2021 5:00:00 AM 3.52 38.336 0.287 7.65 4.36 12.51
12/27/2021 5:15:00 AM 3.5 38.3 0.288 7.65 4.14 12.51
12/27/2021 5:30:00 AM 3.48 38.264 0.288 7.64 4.25 12.52
12/27/2021 5:45:00 AM 3.47 38.246 0.288 7.65 4.33 12.52
12/27/2021 6:00:00 AM 3.45 38.21 0.288 7.64 4.17 12.53
12/27/2021 6:15:00 AM 3.43 38.174 0.288 7.65 4.22 12.53
12/27/2021 6:30:00 AM 3.42 38.156 0.289 7.65 4 12.54
12/27/2021 6:45:00 AM 3.4 38.12 0.289 7.65 4.27 12.54
12/27/2021 7:00:00 AM 3.39 38.102 0.289 7.65 3.99 12.55
12/27/2021 7:15:00 AM 3.38 38.084 0.289 7.65 4.41 12.55
12/27/2021 7:30:00 AM 3.38 38.084 0.289 7.65 3.99 12.56
12/27/2021 7:45:00 AM 3.37 38.066 0.289 7.65 3.82 12.55
12/27/2021 8:00:00 AM 3.34 38.012 0.29 7.65 4.07 12.56
12/27/2021 8:15:00 AM 3.33 37.994 0.29 7.64 3.96 12.57
12/27/2021 8:30:00 AM 3.3 37.94 0.29 7.65 3.96 12.58
12/27/2021 8:45:00 AM 3.21 37.778 0.29 7.65 3.84 12.58
12/27/2021 9:00:00 AM 2.93 37.274 0.29 7.65 3.82 12.57
12/27/2021 9:15:00 AM 2.66 36.788 0.289 7.66 3.86 12.6
12/27/2021 9:30:00 AM 2.61 36.698 0.289 7.63 3.97 12.65
12/27/2021 9:45:00 AM 2.6 36.68 0.289 7.64 3.76 12.68
12/27/2021 10:00:00 AM 2.51 36.518 0.289 7.65 3.83 12.73
12/27/2021 10:15:00 AM 2.53 36.554 0.289 7.66 3.97 12.76
12/27/2021 10:30:00 AM 2.51 36.518 0.289 7.66 3.6 12.79
12/27/2021 10:45:00 AM 2.55 36.59 0.289 7.67 3.73 12.81
12/27/2021 11:00:00 AM 2.57 36.626 0.289 7.67 3.59 12.81
12/27/2021 11:15:00 AM 2.62 36.716 0.289 7.68 3.75 12.85
12/27/2021 11:30:00 AM 2.67 36.806 0.289 7.68 3.53 12.86
12/27/2021 11:45:00 AM 2.67 36.806 0.289 7.68 3.75 12.87
12/27/2021 12:00:00 PM 2.7 36.86 0.289 7.69 3.87 12.88
12/27/2021 12:15:00 PM 2.71 36.878 0.29 7.69 3.68 12.89
12/27/2021 12:30:00 PM 2.73 36.914 0.29 7.69 3.7 12.9
12/27/2021 12:45:00 PM 2.74 36.932 0.29 7.69 3.54 12.91
12/27/2021 1:00:00 PM 2.76 36.968 0.29 7.7 3.61 12.92
12/27/2021 1:15:00 PM 2.76 36.968 0.29 7.69 3.87 12.92
12/27/2021 1:30:00 PM 2.77 36.986 0.289 7.69 3.4 12.92
12/27/2021 1:45:00 PM 2.77 36.986 0.289 7.69 3.5 12.91
12/27/2021 2:00:00 PM 2.77 36.986 0.289 7.69 3.41 12.9
12/27/2021 2:15:00 PM 2.77 36.986 0.289 7.69 3.47 12.9
12/27/2021 2:30:00 PM 2.76 36.968 0.289 7.69 3.46 12.89
12/27/2021 2:45:00 PM 2.76 36.968 0.289 7.69 3.57 12.89
12/27/2021 3:00:00 PM 2.77 36.986 0.29 7.68 3.4 12.89
12/27/2021 3:15:00 PM 2.77 36.986 0.29 7.69 3.65 12.88
12/27/2021 3:30:00 PM 2.78 37.004 0.29 7.68 3.41 12.87
12/27/2021 3:45:00 PM 2.78 37.004 0.289 7.69 3.74 12.86
12/27/2021 4:00:00 PM 2.79 37.022 0.289 7.68 3.42 12.85
12/27/2021 4:15:00 PM 2.79 37.022 0.29 7.69 3.46 12.83
12/27/2021 4:30:00 PM 2.79 37.022 0.29 7.68 3.4 12.82
12/27/2021 4:45:00 PM 2.79 37.022 0.289 7.68 3.43 12.81
12/27/2021 5:00:00 PM 2.79 37.022 0.29 7.68 3.61 12.79
12/27/2021 5:15:00 PM 2.79 37.022 0.29 7.67 3.64 12.78
12/27/2021 5:30:00 PM 2.8 37.04 0.29 7.68 3.48 12.77
12/27/2021 5:45:00 PM 2.8 37.04 0.29 7.67 3.45 12.76
12/27/2021 6:00:00 PM 2.8 37.04 0.29 7.67 3.62 12.75
12/27/2021 6:15:00 PM 2.8 37.04 0.29 7.67 4.08 12.74
12/27/2021 6:30:00 PM 2.81 37.058 0.29 7.66 3.53 12.74
12/27/2021 6:45:00 PM 2.81 37.058 0.29 7.67 3.62 12.73
12/27/2021 7:00:00 PM 2.8 37.04 0.289 7.66 4.48 12.73
12/27/2021 7:15:00 PM 2.81 37.058 0.289 7.66 3.86 12.72
12/27/2021 7:30:00 PM 2.81 37.058 0.289 7.66 3.79 12.72
12/27/2021 7:45:00 PM 2.81 37.058 0.289 7.66 3.61 12.72
12/27/2021 8:00:00 PM 2.81 37.058 0.289 7.65 3.56 12.71
12/27/2021 8:15:00 PM 2.82 37.076 0.289 7.65 3.87 12.7
12/27/2021 8:30:00 PM 2.82 37.076 0.289 7.65 3.84 12.7
12/27/2021 8:45:00 PM 2.82 37.076 0.289 7.65 3.76 12.69
12/27/2021 9:00:00 PM 2.83 37.094 0.289 7.65 6.7 12.68
12/27/2021 9:15:00 PM 2.83 37.094 0.289 7.64 4.46 12.68
12/27/2021 9:30:00 PM 2.84 37.112 0.289 7.65 3.92 12.68
12/27/2021 9:45:00 PM 2.85 37.13 0.289 7.64 3.97 12.67
12/27/2021 10:00:00 PM 2.86 37.148 0.289 7.65 3.9 12.67
12/27/2021 10:15:00 PM 2.86 37.148 0.289 7.64 4.59 12.66
12/27/2021 10:30:00 PM 2.87 37.166 0.289 7.65 3.78 12.66
12/27/2021 10:45:00 PM 2.88 37.184 0.289 7.64 4.03 12.66
12/27/2021 11:00:00 PM 2.88 37.184 0.289 7.64 3.95 12.65
12/27/2021 11:15:00 PM 2.89 37.202 0.29 7.64 4.34 12.65
12/27/2021 11:30:00 PM 2.89 37.202 0.29 7.64 4.19 12.65
12/27/2021 11:45:00 PM 2.89 37.202 0.29 7.65 3.95 12.65
12/28/2021 12:00:00 AM 2.89 37.202 0.29 7.64 3.91 12.65
12/28/2021 12:15:00 AM 2.9 37.22 0.29 7.64 4.04 12.65
12/28/2021 12:30:00 AM 2.9 37.22 0.29 7.64 3.98 12.65
12/28/2021 12:45:00 AM 2.9 37.22 0.29 7.64 3.9 12.65
12/28/2021 1:00:00 AM 2.91 37.238 0.291 7.64 4.11 12.64
12/28/2021 1:15:00 AM 2.91 37.238 0.291 7.64 4.84 12.65
12/28/2021 1:30:00 AM 2.92 37.256 0.291 7.64 4.37 12.65
12/28/2021 1:45:00 AM 2.92 37.256 0.291 7.64 4.04 12.65
12/28/2021 2:00:00 AM 2.9 37.22 0.292 7.64 4.08 12.65
12/28/2021 2:15:00 AM 2.88 37.184 0.292 7.64 4.06 12.65
12/28/2021 2:30:00 AM 2.88 37.184 0.292 7.64 4.37 12.65
12/28/2021 2:45:00 AM 2.87 37.166 0.292 7.64 4.15 12.66
12/28/2021 3:00:00 AM 2.85 37.13 0.293 7.64 4.06 12.66
12/28/2021 3:15:00 AM 2.84 37.112 0.293 7.63 4.28 12.67
12/28/2021 3:30:00 AM 2.83 37.094 0.293 7.64 4.05 12.67
12/28/2021 3:45:00 AM 2.83 37.094 0.293 7.64 4.22 12.67
12/28/2021 4:00:00 AM 2.83 37.094 0.294 7.64 4.31 12.68
12/28/2021 4:15:00 AM 2.83 37.094 0.294 7.64 4.3 12.68
12/28/2021 4:30:00 AM 2.84 37.112 0.294 7.64 4.31 12.68
12/28/2021 4:45:00 AM 2.84 37.112 0.294 7.64 4.24 12.68
12/28/2021 5:00:00 AM 2.83 37.094 0.294 7.64 4.5 12.69
12/28/2021 5:15:00 AM 2.82 37.076 0.294 7.64 4.51 12.69
12/28/2021 5:30:00 AM 2.8 37.04 0.293 7.64 4.19 12.69
12/28/2021 5:45:00 AM 2.79 37.022 0.293 7.64 4.32 12.7
12/28/2021 6:00:00 AM 2.77 36.986 0.293 7.64 4.56 12.7
12/28/2021 6:15:00 AM 2.76 36.968 0.293 7.63 4.36 12.71
12/28/2021 6:30:00 AM 2.74 36.932 0.293 7.64 5.01 12.72
12/28/2021 6:45:00 AM 2.73 36.914 0.293 7.63 4.35 12.73
12/28/2021 7:00:00 AM 2.72 36.896 0.293 7.65 4.36 12.74
12/28/2021 7:15:00 AM 2.7 36.86 0.293 7.64 4.36 12.75
12/28/2021 7:30:00 AM 2.67 36.806 0.293 7.64 4.63 12.76
12/28/2021 7:45:00 AM 2.66 36.788 0.293 7.64 4.61 12.76
12/28/2021 8:00:00 AM 2.66 36.788 0.293 7.64 4.6 12.78
12/28/2021 8:15:00 AM 2.66 36.788 0.293 7.65 4.7 12.8
12/28/2021 8:30:00 AM 2.66 36.788 0.293 7.65 4.49 12.82
12/28/2021 8:45:00 AM 2.65 36.77 0.293 7.66 5.77 12.83
12/28/2021 9:00:00 AM 2.65 36.77 0.293 7.65 4.98 12.85
12/28/2021 9:15:00 AM 2.65 36.77 0.293 7.66 7.53 12.87
12/28/2021 9:30:00 AM 2.65 36.77 0.293 7.66 5.08 12.87
12/28/2021 9:45:00 AM 2.66 36.788 0.293 7.67 5.2 12.88
12/28/2021 10:00:00 AM 2.67 36.806 0.293 7.67 4.94 12.89
12/28/2021 10:15:00 AM 2.66 36.788 0.293 7.67 5.34 12.89
12/28/2021 10:30:00 AM 2.68 36.824 0.293 7.67 4.85 12.9
12/28/2021 10:45:00 AM 2.7 36.86 0.293 7.68 4.77 12.9
12/28/2021 11:00:00 AM 2.75 36.95 0.294 7.68 6.04 12.91
12/28/2021 11:15:00 AM 2.82 37.076 0.294 7.69 4.59 12.92
12/28/2021 11:30:00 AM 2.89 37.202 0.293 7.69 7.9 12.92
12/28/2021 11:45:00 AM 2.95 37.31 0.293 7.69 6.77 12.91
12/28/2021 12:00:00 PM 3 37.4 0.293 7.7 5.17 12.92
12/28/2021 12:15:00 PM 3.04 37.472 0.293 7.7 5.24 12.91
12/28/2021 12:30:00 PM 3.07 37.526 0.293 7.7 5.08 12.9
12/28/2021 12:45:00 PM 3.1 37.58 0.293 7.7 5.39 12.89
12/28/2021 1:00:00 PM 3.12 37.616 0.293 7.7 5.27 12.88
12/28/2021 1:15:00 PM 3.15 37.67 0.293 7.71 5.65 12.87
12/28/2021 1:30:00 PM 3.16 37.688 0.293 7.7 5.29 12.86
12/28/2021 1:45:00 PM 3.18 37.724 0.293 7.71 5.35 12.85
12/28/2021 2:00:00 PM 3.2 37.76 0.293 7.71 5.09 12.84
12/28/2021 2:15:00 PM 3.22 37.796 0.293 7.71 5.03 12.83
12/28/2021 2:30:00 PM 3.24 37.832 0.293 7.71 5.44 12.81
12/28/2021 2:45:00 PM 3.25 37.85 0.293 7.71 5.62 12.8
12/28/2021 3:00:00 PM 3.25 37.85 0.293 7.71 5.33 12.78
12/28/2021 3:15:00 PM 3.25 37.85 0.293 7.71 4.86 12.76
12/28/2021 3:30:00 PM 3.25 37.85 0.294 7.7 5.07 12.75
12/28/2021 3:45:00 PM 3.25 37.85 0.293 7.7 5.04 12.75
12/28/2021 4:00:00 PM 3.26 37.868 0.294 7.69 5.14 12.74
12/28/2021 4:15:00 PM 3.26 37.868 0.294 7.7 5.12 12.72
12/28/2021 4:30:00 PM 3.26 37.868 0.294 7.7 4.85 12.71
12/28/2021 4:45:00 PM 3.27 37.886 0.294 7.69 5.58 12.69
12/28/2021 5:00:00 PM 3.27 37.886 0.294 7.69 4.9 12.68
12/28/2021 5:15:00 PM 3.28 37.904 0.294 7.69 4.59 12.66
12/28/2021 5:30:00 PM 3.29 37.922 0.295 7.68 4.91 12.65
12/28/2021 5:45:00 PM 3.29 37.922 0.295 7.68 5.07 12.63
12/28/2021 6:00:00 PM 3.3 37.94 0.295 7.68 4.63 12.62
12/28/2021 6:15:00 PM 3.3 37.94 0.295 7.69 5.13 12.61
12/28/2021 6:30:00 PM 3.31 37.958 0.294 7.68 5.11 12.59
12/28/2021 6:45:00 PM 3.32 37.976 0.294 7.68 4.98 12.58
12/28/2021 7:00:00 PM 3.32 37.976 0.294 7.67 4.84 12.58
12/28/2021 7:15:00 PM 3.33 37.994 0.294 7.67 5.1 12.57
12/28/2021 7:30:00 PM 3.33 37.994 0.293 7.67 5.12 12.56
12/28/2021 7:45:00 PM 3.17 37.706 0.292 7.68 5.25 12.55
12/28/2021 8:00:00 PM 3.1 37.58 0.291 7.67 5.07 12.56
12/28/2021 8:15:00 PM 3.09 37.562 0.29 7.66 5.63 12.56
12/28/2021 8:30:00 PM 3.11 37.598 0.289 7.67 5.47 12.57
12/28/2021 8:45:00 PM 3.13 37.634 0.288 7.65 5.49 12.57
12/28/2021 9:00:00 PM 3.15 37.67 0.287 7.65 5.77 12.56
12/28/2021 9:15:00 PM 3.17 37.706 0.285 7.65 5.9 12.56
12/28/2021 9:30:00 PM 3.18 37.724 0.284 7.65 6.19 12.55
12/28/2021 9:45:00 PM 3.19 37.742 0.282 7.64 6.67 12.55
12/28/2021 10:00:00 PM 3.2 37.76 0.28 7.64 7.49 12.54
12/28/2021 10:15:00 PM 3.21 37.778 0.278 7.63 7.61 12.53
12/28/2021 10:30:00 PM 3.23 37.814 0.276 7.61 9.14 12.52
12/28/2021 10:45:00 PM 3.26 37.868 0.274 7.61 9.72 12.51
12/28/2021 11:00:00 PM 3.28 37.904 0.271 7.59 14.73 12.49
12/28/2021 11:15:00 PM 3.31 37.958 0.269 7.57 17.56 12.47
12/28/2021 11:30:00 PM 3.35 38.03 0.265 7.56 30.38 12.45
12/28/2021 11:45:00 PM 3.37 38.066 0.261 7.55 32.89 12.44
12/29/2021 12:00:00 AM 3.4 38.12 0.258 7.53 43.58 12.44
12/29/2021 12:15:00 AM 3.41 38.138 0.254 7.52 60.2 12.43
12/29/2021 12:30:00 AM 3.43 38.174 0.251 7.51 54.26 12.42
12/29/2021 12:45:00 AM 3.45 38.21 0.249 7.5 52.61 12.41
12/29/2021 1:00:00 AM 3.47 38.246 0.248 7.48 50.77 12.4
12/29/2021 1:15:00 AM 3.49 38.282 0.246 7.48 55.26 12.39
12/29/2021 1:30:00 AM 3.5 38.3 0.245 7.47 60.21 12.38
12/29/2021 1:45:00 AM 3.52 38.336 0.244 7.46 70.19 12.38
12/29/2021 2:00:00 AM 3.53 38.354 0.241 7.46 78.83 12.37
12/29/2021 2:15:00 AM 3.54 38.372 0.236 7.46 94.58 12.37
12/29/2021 2:30:00 AM 3.54 38.372 0.231 7.45 107.65 12.37
12/29/2021 2:45:00 AM 3.55 38.39 0.227 7.45 111.36 12.36
12/29/2021 3:00:00 AM 3.56 38.408 0.225 7.43 118.7 12.36
12/29/2021 3:15:00 AM 3.57 38.426 0.223 7.45 117.26 12.36
12/29/2021 3:30:00 AM 3.59 38.462 0.222 7.44 114.26 12.35
12/29/2021 3:45:00 AM 3.61 38.498 0.22 7.44 117.6 12.34
12/29/2021 4:00:00 AM 3.63 38.534 0.217 7.44 122.29 12.32
12/29/2021 4:15:00 AM 3.65 38.57 0.213 7.43 131.22 12.31
12/29/2021 4:30:00 AM 3.67 38.606 0.208 7.41 148.2 12.3
12/29/2021 4:45:00 AM 3.69 38.642 0.204 7.4 148.57 12.29
12/29/2021 5:00:00 AM 3.71 38.678 0.199 7.4 151.62 12.28
12/29/2021 5:15:00 AM 3.73 38.714 0.196 7.39 156.08 12.27
12/29/2021 5:30:00 AM 3.75 38.75 0.193 7.38 165.12 12.25
12/29/2021 5:45:00 AM 3.77 38.786 0.193 7.36 177.34 12.23
12/29/2021 6:00:00 AM 3.79 38.822 0.195 7.37 170.92 12.21
12/29/2021 6:15:00 AM 3.81 38.858 0.197 7.36 196.1 12.18
12/29/2021 6:30:00 AM 3.82 38.876 0.197 7.36 203.38 12.16
12/29/2021 6:45:00 AM 3.84 38.912 0.197 7.37 201.65 12.13
12/29/2021 7:00:00 AM 3.86 38.948 0.197 7.36 200.32 12.12
12/29/2021 7:15:00 AM 3.88 38.984 0.198 7.37 206.5 12.09
12/29/2021 7:30:00 AM 3.9 39.02 0.196 7.35 244.75 12.07
12/29/2021 7:45:00 AM 3.91 39.038 0.191 7.34 245.3 12.06
12/29/2021 8:00:00 AM 3.9 39.02 0.184 7.33 260.95 12.05
12/29/2021 8:15:00 AM 3.9 39.02 0.177 7.32 260.73 12.03
12/29/2021 8:30:00 AM 3.89 39.002 0.171 7.29 257.73 12.02
12/29/2021 8:45:00 AM 3.9 39.02 0.166 7.28 252.99 12.02
12/29/2021 9:00:00 AM 3.9 39.02 0.16 7.26 252.12 12
12/29/2021 9:15:00 AM 3.92 39.056 0.156 7.25 235.82 11.98
12/29/2021 9:30:00 AM 3.93 39.074 0.151 7.23 229.85 11.96
12/29/2021 9:45:00 AM 3.95 39.11 0.148 7.19 236.11 11.95
12/29/2021 10:00:00 AM 3.97 39.146 0.145 7.2 229.38 11.93
12/29/2021 10:15:00 AM 3.99 39.182 0.142 7.17 218.83 11.94
12/29/2021 10:30:00 AM 4.02 39.236 0.141 7.18 232.6 11.96
12/29/2021 10:45:00 AM 4.04 39.272 0.14 7.18 211.55 11.99
12/29/2021 11:00:00 AM 4.08 39.344 0.139 7.19 184.75 12.01
12/29/2021 11:15:00 AM 4.11 39.398 0.139 7.18 179.43 12.01
12/29/2021 11:30:00 AM 4.15 39.47 0.139 7.16 167.23 11.96
12/29/2021 11:45:00 AM 4.19 39.542 0.139 7.17 149.07 11.98
12/29/2021 12:00:00 PM 4.23 39.614 0.139 7.19 135.86 12.01
12/29/2021 12:15:00 PM 4.28 39.704 0.14 7.15 132.06 12.01
12/29/2021 12:30:00 PM 4.33 39.794 0.141 7.17 125.85 12.01
12/29/2021 12:45:00 PM 4.38 39.884 0.141 7.18 118.58 12
12/29/2021 1:00:00 PM 4.43 39.974 0.142 7.17 105.6 11.99
12/29/2021 1:15:00 PM 4.48 40.064 0.142 7.19 98.77 11.98
12/29/2021 1:30:00 PM 4.52 40.136 0.143 7.19 93.66 11.97
12/29/2021 1:45:00 PM 4.57 40.226 0.143 7.19 90.71 11.97
12/29/2021 2:00:00 PM 4.62 40.316 0.143 7.19 88.12 11.95
12/29/2021 2:15:00 PM 4.68 40.424 0.144 7.2 85.06 11.95
12/29/2021 2:30:00 PM 4.74 40.532 0.144 7.2 83.38 11.94
12/29/2021 2:45:00 PM 4.79 40.622 0.144 7.2 76.01 11.93
12/29/2021 3:00:00 PM 4.84 40.712 0.144 7.22 75.7 11.92
12/29/2021 3:15:00 PM 4.88 40.784 0.144 7.21 69.93 11.91
12/29/2021 3:30:00 PM 4.93 40.874 0.144 7.21 69.23 11.9
12/29/2021 3:45:00 PM 4.98 40.964 0.144 7.21 67.39 11.89
12/29/2021 4:00:00 PM 5.02 41.036 0.144 7.22 64.68 11.89
12/29/2021 4:15:00 PM 5.06 41.108 0.144 7.22 60.88 11.87
12/29/2021 4:30:00 PM 5.09 41.162 0.145 7.21 60.26 11.86
12/29/2021 4:45:00 PM 5.13 41.234 0.145 7.22 55.5 11.85
12/29/2021 5:00:00 PM 5.16 41.288 0.145 7.21 57.3 11.84
12/29/2021 5:15:00 PM 5.19 41.342 0.145 7.23 55.51 11.82
12/29/2021 5:30:00 PM 5.22 41.396 0.146 7.22 44.06 11.82
12/29/2021 5:45:00 PM 5.25 41.45 0.146 7.22 54.07 11.81
12/29/2021 6:00:00 PM 5.27 41.486 0.146 7.23 50.19 11.79
12/29/2021 6:15:00 PM 5.3 41.54 0.146 7.23 46.18 11.79
12/29/2021 6:30:00 PM 5.32 41.576 0.147 7.23 48.62 11.78
12/29/2021 6:45:00 PM 5.35 41.63 0.147 7.23 43.58 11.78
12/29/2021 7:00:00 PM 5.37 41.666 0.148 7.23 45.12 11.77
12/29/2021 7:15:00 PM 5.39 41.702 0.148 7.24 43.42 11.77
12/29/2021 7:30:00 PM 5.41 41.738 0.149 7.25 42.96 11.76
12/29/2021 7:45:00 PM 5.43 41.774 0.149 7.24 43.48 11.76
12/29/2021 8:00:00 PM 5.45 41.81 0.149 7.24 42.06 11.74
12/29/2021 8:15:00 PM 5.47 41.846 0.15 7.23 38.85 11.75
12/29/2021 8:30:00 PM 5.49 41.882 0.15 7.24 39.53 11.74
12/29/2021 8:45:00 PM 5.5 41.9 0.151 7.24 38.29 11.73
12/29/2021 9:00:00 PM 5.52 41.936 0.151 7.24 38.9 11.73
12/29/2021 9:15:00 PM 5.54 41.972 0.151 7.25 36.05 11.72
12/29/2021 9:30:00 PM 5.56 42.008 0.152 7.25 36.05 11.72
12/29/2021 9:45:00 PM 5.57 42.026 0.152 7.25 35.12 11.71
12/29/2021 10:00:00 PM 5.59 42.062 0.153 7.26 34.7 11.72
12/29/2021 10:15:00 PM 5.61 42.098 0.153 7.26 33.17 11.71
12/29/2021 10:30:00 PM 5.63 42.134 0.154 7.25 34.85 11.7
12/29/2021 10:45:00 PM 5.64 42.152 0.154 7.26 34.23 11.7
12/29/2021 11:00:00 PM 5.66 42.188 0.155 7.25 32 11.7
12/29/2021 11:15:00 PM 5.68 42.224 0.155 7.26 30.17 11.7
12/29/2021 11:30:00 PM 5.7 42.26 0.155 7.27 30.61 11.69
12/29/2021 11:45:00 PM 5.71 42.278 0.156 7.26 30.96 11.68
12/30/2021 12:00:00 AM 5.73 42.314 0.156 7.27 30.86 11.68
12/30/2021 12:15:00 AM 5.75 42.35 0.157 7.27 28.34 11.68
12/30/2021 12:30:00 AM 5.77 42.386 0.157 7.27 28.59 11.68
12/30/2021 12:45:00 AM 5.79 42.422 0.158 7.26 28.9 11.67
12/30/2021 1:00:00 AM 5.81 42.458 0.158 7.27 29.31 11.66
12/30/2021 1:15:00 AM 5.83 42.494 0.159 7.27 28.24 11.66
12/30/2021 1:30:00 AM 5.84 42.512 0.159 7.26 28.68 11.65
12/30/2021 1:45:00 AM 5.86 42.548 0.159 7.28 26.46 11.65
12/30/2021 2:00:00 AM 5.88 42.584 0.16 7.27 27.36 11.64
12/30/2021 2:15:00 AM 5.89 42.602 0.16 7.27 27.32 11.64
12/30/2021 2:30:00 AM 5.91 42.638 0.161 7.27 25.83 11.64
12/30/2021 2:45:00 AM 5.92 42.656 0.161 7.27 27.59 11.63
12/30/2021 3:00:00 AM 5.93 42.674 0.161 7.29 25.61 11.63
12/30/2021 3:15:00 AM 5.95 42.71 0.162 7.29 26.71 11.62
12/30/2021 3:30:00 AM 5.96 42.728 0.162 7.28 24.1 11.62
12/30/2021 3:45:00 AM 5.97 42.746 0.163 7.28 24.11 11.62
12/30/2021 4:00:00 AM 5.98 42.764 0.163 7.28 24.76 11.62
12/30/2021 4:15:00 AM 5.99 42.782 0.163 7.28 25.19 11.61
12/30/2021 4:30:00 AM 6 42.8 0.164 7.29 22.42 11.61
12/30/2021 4:45:00 AM 6.01 42.818 0.164 7.28 22.62 11.6
12/30/2021 5:00:00 AM 6.02 42.836 0.165 7.29 24.43 11.6
12/30/2021 5:15:00 AM 6.03 42.854 0.165 7.29 28.82 11.6
12/30/2021 5:30:00 AM 6.03 42.854 0.165 7.28 31.77 11.59
12/30/2021 5:45:00 AM 6.04 42.872 0.166 7.29 22.86 11.59
12/30/2021 6:00:00 AM 6.05 42.89 0.166 7.28 30.67 11.6
12/30/2021 6:15:00 AM 6.05 42.89 0.167 7.29 21.64 11.59
12/30/2021 6:30:00 AM 6.06 42.908 0.167 7.28 21 11.59
12/30/2021 6:45:00 AM 6.06 42.908 0.168 7.29 20.82 11.59
12/30/2021 7:00:00 AM 6.07 42.926 0.168 7.29 20.1 11.58
12/30/2021 7:15:00 AM 6.07 42.926 0.168 7.3 22.02 11.59
12/30/2021 7:30:00 AM 6.08 42.944 0.169 7.29 22.08 11.59
12/30/2021 7:45:00 AM 6.09 42.962 0.169 7.3 20.72 11.59
12/30/2021 8:00:00 AM 6.09 42.962 0.169 7.3 20.38 11.59
12/30/2021 8:15:00 AM 6.1 42.98 0.17 7.3 19.77 11.58
12/30/2021 8:30:00 AM 6.11 42.998 0.17 7.31 20.2 11.59
12/30/2021 8:45:00 AM 6.11 42.998 0.17 7.3 20.35 11.59
12/30/2021 9:00:00 AM 6.12 43.016 0.171 7.31 20.28 11.6
12/30/2021 9:15:00 AM 6.13 43.034 0.171 7.3 20.36 11.59
12/30/2021 9:30:00 AM 6.15 43.07 0.172 7.31 18.71 11.6
12/30/2021 9:45:00 AM 6.16 43.088 0.172 7.31 18.03 11.6
12/30/2021 10:00:00 AM 6.18 43.124 0.172 7.31 19.22 11.61
12/30/2021 10:15:00 AM 6.21 43.178 0.173 7.31 18.72 11.62
12/30/2021 10:30:00 AM 6.25 43.25 0.173 7.32 17.97 11.62
12/30/2021 10:45:00 AM 6.28 43.304 0.173 7.32 17.66 11.62
12/30/2021 11:00:00 AM 6.3 43.34 0.173 7.32 16.85 11.62
12/30/2021 11:15:00 AM 6.32 43.376 0.174 7.32 17.49 11.62
12/30/2021 11:30:00 AM 6.36 43.448 0.174 7.33 16.92 11.62
12/30/2021 11:45:00 AM 6.39 43.502 0.174 7.33 17.2 11.62
12/30/2021 12:00:00 PM 6.4 43.52 0.175 7.33 17.36 11.61
12/30/2021 12:15:00 PM 6.43 43.574 0.175 7.34 17.72 11.61
12/30/2021 12:30:00 PM 6.45 43.61 0.175 7.34 18.06 11.6
12/30/2021 12:45:00 PM 6.48 43.664 0.175 7.33 17.9 11.6
12/30/2021 1:00:00 PM 6.5 43.7 0.176 7.34 17.36 11.59
12/30/2021 1:15:00 PM 6.54 43.772 0.176 7.34 16.97 11.59
12/30/2021 1:30:00 PM 6.58 43.844 0.176 7.35 16.06 11.58
12/30/2021 1:45:00 PM 6.62 43.916 0.176 7.35 16.98 11.58
12/30/2021 2:00:00 PM 6.65 43.97 0.177 7.35 16.31 11.57
12/30/2021 2:15:00 PM 6.69 44.042 0.177 7.36 15.43 11.57
12/30/2021 2:30:00 PM 6.73 44.114 0.177 7.35 15.4 11.56
12/30/2021 2:45:00 PM 6.76 44.168 0.178 7.36 16.47 11.55
12/30/2021 3:00:00 PM 6.79 44.222 0.178 7.36 15.53 11.54
12/30/2021 3:15:00 PM 6.8 44.24 0.178 7.35 17.25 11.53
12/30/2021 3:30:00 PM 6.83 44.294 0.178 7.36 15.58 11.52
12/30/2021 3:45:00 PM 6.86 44.348 0.179 7.36 15.7 11.52
12/30/2021 4:00:00 PM 6.88 44.384 0.179 7.35 15.32 11.51
12/30/2021 4:15:00 PM 6.89 44.402 0.179 7.35 15.6 11.49
12/30/2021 4:30:00 PM 6.9 44.42 0.179 7.36 15.06 11.48
12/30/2021 4:45:00 PM 6.91 44.438 0.18 7.35 15.09 11.47
12/30/2021 5:00:00 PM 6.92 44.456 0.18 7.35 15.09 11.46
12/30/2021 5:15:00 PM 6.93 44.474 0.18 7.34 15.34 11.45
12/30/2021 5:30:00 PM 6.93 44.474 0.18 7.36 14.33 11.43
12/30/2021 5:45:00 PM 6.94 44.492 0.181 7.35 14.21 11.43
12/30/2021 6:00:00 PM 6.94 44.492 0.181 7.36 14.44 11.42
12/30/2021 6:15:00 PM 6.95 44.51 0.181 7.34 15.02 11.41
12/30/2021 6:30:00 PM 6.94 44.492 0.181 7.35 15.46 11.4
12/30/2021 6:45:00 PM 6.94 44.492 0.182 7.34 15.41 11.4
12/30/2021 7:00:00 PM 6.94 44.492 0.182 7.35 14.42 11.39
12/30/2021 7:15:00 PM 6.94 44.492 0.182 7.34 15.61 11.39
12/30/2021 7:30:00 PM 6.95 44.51 0.183 7.35 14.22 11.39
12/30/2021 7:45:00 PM 6.94 44.492 0.183 7.34 14.7 11.38
12/30/2021 8:00:00 PM 6.93 44.474 0.183 7.35 14.74 11.38
12/30/2021 8:15:00 PM 6.93 44.474 0.183 7.35 14.38 11.38
12/30/2021 8:30:00 PM 6.92 44.456 0.184 7.35 14.75 11.37
12/30/2021 8:45:00 PM 6.92 44.456 0.184 7.35 15.66 11.38
12/30/2021 9:00:00 PM 6.92 44.456 0.184 7.34 13.4 11.38
12/30/2021 9:15:00 PM 6.92 44.456 0.184 7.35 16.19 11.38
12/30/2021 9:30:00 PM 6.92 44.456 0.185 7.35 13.96 11.38
12/30/2021 9:45:00 PM 6.92 44.456 0.185 7.35 14.76 11.37
12/30/2021 10:00:00 PM 6.92 44.456 0.185 7.34 14.71 11.38
12/30/2021 10:15:00 PM 6.92 44.456 0.185 7.35 13.89 11.37
12/30/2021 10:30:00 PM 6.92 44.456 0.186 7.35 13.9 11.38
12/30/2021 10:45:00 PM 6.92 44.456 0.186 7.35 14.85 11.37
12/30/2021 11:00:00 PM 6.93 44.474 0.186 7.35 14.58 11.38
12/30/2021 11:15:00 PM 6.93 44.474 0.186 7.35 14.87 11.37
12/30/2021 11:30:00 PM 6.93 44.474 0.187 7.35 13.31 11.38
12/30/2021 11:45:00 PM 6.93 44.474 0.187 7.35 13.6 11.38
12/31/2021 12:00:00 AM 6.93 44.474 0.187 7.33 13.27 11.37
12/31/2021 12:15:00 AM 6.93 44.474 0.187 7.35 12.41 11.37
12/31/2021 12:30:00 AM 6.93 44.474 0.188 7.35 14.34 11.37
12/31/2021 12:45:00 AM 6.93 44.474 0.188 7.35 12.77 11.37
12/31/2021 1:00:00 AM 6.93 44.474 0.188 7.35 12.86 11.37
12/31/2021 1:15:00 AM 6.93 44.474 0.188 7.36 13.11 11.37
12/31/2021 1:30:00 AM 6.93 44.474 0.189 7.35 12.51 11.37
12/31/2021 1:45:00 AM 6.93 44.474 0.189 7.35 14.84 11.36
12/31/2021 2:00:00 AM 6.93 44.474 0.189 7.35 12.96 11.36
12/31/2021 2:15:00 AM 6.93 44.474 0.189 7.35 11.98 11.36
12/31/2021 2:30:00 AM 6.93 44.474 0.19 7.35 11.31 11.37
12/31/2021 2:45:00 AM 6.92 44.456 0.19 7.35 12.2 11.36
12/31/2021 3:00:00 AM 6.92 44.456 0.19 7.35 12.4 11.37
12/31/2021 3:15:00 AM 6.92 44.456 0.191 7.36 11.93 11.36
12/31/2021 3:30:00 AM 6.92 44.456 0.191 7.35 11.99 11.36
12/31/2021 3:45:00 AM 6.92 44.456 0.191 7.36 12.85 11.36
12/31/2021 4:00:00 AM 6.93 44.474 0.192 7.35 12.05 11.37
12/31/2021 4:15:00 AM 6.93 44.474 0.192 7.36 11.81 11.36
12/31/2021 4:30:00 AM 6.93 44.474 0.192 7.36 12.5 11.35
12/31/2021 4:45:00 AM 6.93 44.474 0.192 7.36 11.62 11.34
12/31/2021 5:00:00 AM 6.93 44.474 0.192 7.35 12.25 11.36
12/31/2021 5:15:00 AM 6.93 44.474 0.193 7.37 11.63 11.36
12/31/2021 5:30:00 AM 6.93 44.474 0.193 7.36 11.41 11.36
12/31/2021 5:45:00 AM 6.93 44.474 0.193 7.37 11.85 11.35
12/31/2021 6:00:00 AM 6.93 44.474 0.193 7.36 10.88 11.36
12/31/2021 6:15:00 AM 6.92 44.456 0.194 7.36 11.69 11.35
12/31/2021 6:30:00 AM 6.9 44.42 0.194 7.36 10.86 11.35
12/31/2021 6:45:00 AM 6.9 44.42 0.194 7.36 10.79 11.36
12/31/2021 7:00:00 AM 6.88 44.384 0.194 7.37 11.42 11.36
12/31/2021 7:15:00 AM 6.87 44.366 0.195 7.36 10.8 11.37
12/31/2021 7:30:00 AM 6.85 44.33 0.195 7.37 10.95 11.37
12/31/2021 7:45:00 AM 6.84 44.312 0.195 7.37 10.6 11.37
12/31/2021 8:00:00 AM 6.83 44.294 0.195 7.36 11.06 11.37
12/31/2021 8:15:00 AM 6.81 44.258 0.196 7.37 11.41 11.39
12/31/2021 8:30:00 AM 6.81 44.258 0.196 7.37 10.9 11.39
12/31/2021 8:45:00 AM 6.81 44.258 0.196 7.37 11.83 11.4
12/31/2021 9:00:00 AM 6.8 44.24 0.196 7.38 10.49 11.42
12/31/2021 9:15:00 AM 6.8 44.24 0.197 7.38 10.41 11.42
12/31/2021 9:30:00 AM 6.79 44.222 0.197 7.37 10.45 11.43
12/31/2021 9:45:00 AM 6.78 44.204 0.197 7.38 10.61 11.44
12/31/2021 10:00:00 AM 6.79 44.222 0.198 7.39 11.13 11.46
12/31/2021 10:15:00 AM 6.82 44.276 0.198 7.39 10.17 11.47
12/31/2021 10:30:00 AM 6.85 44.33 0.198 7.4 11.19 11.47
12/31/2021 10:45:00 AM 6.87 44.366 0.199 7.39 10.19 11.48
12/31/2021 11:00:00 AM 6.9 44.42 0.199 7.4 10.1 11.48
12/31/2021 11:15:00 AM 6.92 44.456 0.199 7.41 9.9 11.49
12/31/2021 11:30:00 AM 6.94 44.492 0.199 7.42 9.62 11.49
12/31/2021 11:45:00 AM 6.98 44.564 0.199 7.42 10.89 11.5
12/31/2021 12:00:00 PM 7.03 44.654 0.2 7.42 9.86 11.5
12/31/2021 12:15:00 PM 7.07 44.726 0.2 7.43 9.63 11.5
12/31/2021 12:30:00 PM 7.09 44.762 0.2 7.43 10.74 11.5
12/31/2021 12:45:00 PM 7.12 44.816 0.2 7.43 9.86 11.49
12/31/2021 1:00:00 PM 7.15 44.87 0.201 7.42 9.82 11.49
12/31/2021 1:15:00 PM 7.18 44.924 0.201 7.43 9.38 11.49
12/31/2021 1:30:00 PM 7.19 44.942 0.201 7.42 9.93 11.48
12/31/2021 1:45:00 PM 7.19 44.942 0.201 7.43 9.69 11.48
12/31/2021 2:00:00 PM 7.21 44.978 0.202 7.43 9.76 11.47
12/31/2021 2:15:00 PM 7.23 45.014 0.202 7.44 10.15 11.47
12/31/2021 2:30:00 PM 7.24 45.032 0.202 7.44 9.36 11.47
12/31/2021 2:45:00 PM 7.27 45.086 0.202 7.44 9.66 11.46
12/31/2021 3:00:00 PM 7.28 45.104 0.203 7.44 8.66 11.45
12/31/2021 3:15:00 PM 7.3 45.14 0.203 7.45 9.77 11.45
12/31/2021 3:30:00 PM 7.32 45.176 0.203 7.44 9.62 11.45
12/31/2021 3:45:00 PM 7.33 45.194 0.203 7.43 9.28 11.42
12/31/2021 4:00:00 PM 7.33 45.194 0.204 7.43 9.54 11.42
12/31/2021 4:15:00 PM 7.34 45.212 0.204 7.44 9.02 11.42
12/31/2021 4:30:00 PM 7.34 45.212 0.204 7.43 9.16 11.4
12/31/2021 4:45:00 PM 7.35 45.23 0.204 7.44 9.34 11.38
12/31/2021 5:00:00 PM 7.35 45.23 0.205 7.43 8.93 11.36
12/31/2021 5:15:00 PM 7.35 45.23 0.205 7.43 9.8 11.35
12/31/2021 5:30:00 PM 7.35 45.23 0.205 7.43 9.57 11.34
12/31/2021 5:45:00 PM 7.34 45.212 0.205 7.43 9.42 11.34
12/31/2021 6:00:00 PM 7.34 45.212 0.206 7.42 9.64 11.33
12/31/2021 6:15:00 PM 7.33 45.194 0.206 7.43 9.26 11.31
12/31/2021 6:30:00 PM 7.32 45.176 0.206 7.43 9.63 11.31
12/31/2021 6:45:00 PM 7.31 45.158 0.206 7.43 10.16 11.31
12/31/2021 7:00:00 PM 7.3 45.14 0.207 7.42 9.63 11.3
12/31/2021 7:15:00 PM 7.3 45.14 0.207 7.42 10.21 11.29
12/31/2021 7:30:00 PM 7.29 45.122 0.207 7.42 9.6 11.29
12/31/2021 7:45:00 PM 7.27 45.086 0.208 7.43 9.85 11.29
12/31/2021 8:00:00 PM 7.26 45.068 0.208 7.42 9.61 11.28
12/31/2021 8:15:00 PM 7.24 45.032 0.208 7.42 9.39 11.28
12/31/2021 8:30:00 PM 7.22 44.996 0.208 7.42 11.02 11.27
12/31/2021 8:45:00 PM 7.2 44.96 0.209 7.41 10.07 11.26
12/31/2021 9:00:00 PM 7.17 44.906 0.209 7.42 9.95 11.27
12/31/2021 9:15:00 PM 7.15 44.87 0.209 7.42 10.16 11.27
12/31/2021 9:30:00 PM 7.13 44.834 0.209 7.42 9.24 11.28
12/31/2021 9:45:00 PM 7.11 44.798 0.21 7.42 9.59 11.29
12/31/2021 10:00:00 PM 7.09 44.762 0.21 7.42 9.64 11.29
12/31/2021 10:15:00 PM 7.08 44.744 0.21 7.42 10.25 11.29
12/31/2021 10:30:00 PM 7.07 44.726 0.21 7.42 10.55 11.29
12/31/2021 10:45:00 PM 7.05 44.69 0.211 7.42 9.99 11.29
12/31/2021 11:00:00 PM 7.04 44.672 0.211 7.43 9.54 11.31
12/31/2021 11:15:00 PM 7.02 44.636 0.211 7.43 9.27 11.3
12/31/2021 11:30:00 PM 7.01 44.618 0.211 7.42 9.9 11.31
12/31/2021 11:45:00 PM 7 44.6 0.212 7.42 9.01 11.31
1/1/2022 12:00:00 AM 6.99 44.582 0.212 7.43 9.83 11.3
1/1/2022 12:15:00 AM 6.99 44.582 0.212 7.43 8.92 11.31
1/1/2022 12:30:00 AM 6.98 44.564 0.213 7.44 9.07 11.31
1/1/2022 12:45:00 AM 6.97 44.546 0.213 7.43 8.46 11.31
1/1/2022 1:00:00 AM 6.96 44.528 0.213 7.44 8.68 11.32
1/1/2022 1:15:00 AM 6.95 44.51 0.213 7.45 9.32 11.31
1/1/2022 1:30:00 AM 6.95 44.51 0.214 7.45 8.88 11.31
1/1/2022 1:45:00 AM 6.95 44.51 0.214 7.44 8.11 11.31
1/1/2022 2:00:00 AM 6.94 44.492 0.214 7.45 8.26 11.32
1/1/2022 2:15:00 AM 6.94 44.492 0.214 7.44 8.78 11.32
1/1/2022 2:30:00 AM 6.94 44.492 0.214 7.44 8.79 11.31
1/1/2022 2:45:00 AM 6.94 44.492 0.215 7.44 8.83 11.32
1/1/2022 3:00:00 AM 6.94 44.492 0.215 7.44 8.57 11.32
1/1/2022 3:15:00 AM 6.94 44.492 0.215 7.45 9.09 11.32
1/1/2022 3:30:00 AM 6.94 44.492 0.216 7.44 8.57 11.32
1/1/2022 3:45:00 AM 6.94 44.492 0.216 7.45 8.44 11.32
1/1/2022 4:00:00 AM 6.94 44.492 0.216 7.44 7.95 11.32
1/1/2022 4:15:00 AM 6.93 44.474 0.217 7.44 8.08 11.32
1/1/2022 4:30:00 AM 6.94 44.492 0.217 7.44 7.85 11.32
1/1/2022 4:45:00 AM 6.93 44.474 0.217 7.45 8.48 11.32
1/1/2022 5:00:00 AM 6.93 44.474 0.217 7.44 9.11 11.32
1/1/2022 5:15:00 AM 6.92 44.456 0.218 7.43 8.32 11.31
1/1/2022 5:30:00 AM 6.92 44.456 0.218 7.44 8.16 11.32
1/1/2022 5:45:00 AM 6.92 44.456 0.218 7.44 9.54 11.32
1/1/2022 6:00:00 AM 6.91 44.438 0.218 7.45 8.2 11.32
1/1/2022 6:15:00 AM 6.91 44.438 0.219 7.44 8.06 11.33
1/1/2022 6:30:00 AM 6.91 44.438 0.219 7.44 8.77 11.32
1/1/2022 6:45:00 AM 6.91 44.438 0.219 7.44 8.17 11.32
1/1/2022 7:00:00 AM 6.91 44.438 0.219 7.44 8.03 11.33
1/1/2022 7:15:00 AM 6.91 44.438 0.22 7.45 7.95 11.32
1/1/2022 7:30:00 AM 6.91 44.438 0.22 7.44 8.02 11.32
1/1/2022 7:45:00 AM 6.92 44.456 0.22 7.45 7.72 11.32
1/1/2022 8:00:00 AM 6.92 44.456 0.221 7.43 8.32 11.33
1/1/2022 8:15:00 AM 6.92 44.456 0.221 7.42 8.94 11.33
1/1/2022 8:30:00 AM 6.92 44.456 0.221 7.43 7.91 11.33
1/1/2022 8:45:00 AM 6.93 44.474 0.221 7.42 7.98 11.34
1/1/2022 9:00:00 AM 6.93 44.474 0.221 7.42 8.27 11.34
1/1/2022 9:15:00 AM 6.94 44.492 0.222 7.43 10.43 11.34
1/1/2022 9:30:00 AM 6.95 44.51 0.222 7.43 7.33 11.35
1/1/2022 9:45:00 AM 6.96 44.528 0.222 7.43 7.89 11.36
1/1/2022 10:00:00 AM 6.98 44.564 0.223 7.45 7.4 11.37
1/1/2022 10:15:00 AM 6.99 44.582 0.223 7.45 7.22 11.38
1/1/2022 10:30:00 AM 7.01 44.618 0.223 7.45 7.73 11.38
1/1/2022 10:45:00 AM 7.03 44.654 0.223 7.45 7.23 11.38
1/1/2022 11:00:00 AM 7.05 44.69 0.224 7.44 7.46 11.4
1/1/2022 11:15:00 AM 7.07 44.726 0.224 7.45 7.37 11.39
1/1/2022 11:30:00 AM 7.09 44.762 0.224 7.45 7.39 11.41
1/1/2022 11:45:00 AM 7.12 44.816 0.224 7.45 7.09 11.41
1/1/2022 12:00:00 PM 7.15 44.87 0.224 7.46 8.31 11.41
1/1/2022 12:15:00 PM 7.19 44.942 0.225 7.46 7.16 11.41
1/1/2022 12:30:00 PM 7.22 44.996 0.225 7.47 7.03 11.41
1/1/2022 12:45:00 PM 7.25 45.05 0.225 7.47 7.22 11.4
1/1/2022 1:00:00 PM 7.29 45.122 0.226 7.48 7.21 11.4
1/1/2022 1:15:00 PM 7.32 45.176 0.226 7.48 6.95 11.39
1/1/2022 1:30:00 PM 7.35 45.23 0.226 7.46 6.74 11.39
1/1/2022 1:45:00 PM 7.38 45.284 0.226 7.47 7.04 11.38
1/1/2022 2:00:00 PM 7.41 45.338 0.227 7.48 6.77 11.37
1/1/2022 2:15:00 PM 7.44 45.392 0.227 7.48 7.09 11.36
1/1/2022 2:30:00 PM 7.46 45.428 0.227 7.47 6.88 11.36
1/1/2022 2:45:00 PM 7.48 45.464 0.227 7.48 7.16 11.34
1/1/2022 3:00:00 PM 7.49 45.482 0.228 7.48 7.09 11.32
1/1/2022 3:15:00 PM 7.51 45.518 0.228 7.48 7.17 11.32
1/1/2022 3:30:00 PM 7.52 45.536 0.228 7.47 7.56 11.3
1/1/2022 3:45:00 PM 7.53 45.554 0.228 7.48 6.88 11.29
1/1/2022 4:00:00 PM 7.54 45.572 0.228 7.47 6.64 11.27
1/1/2022 4:15:00 PM 7.55 45.59 0.228 7.47 7.01 11.27
1/1/2022 4:30:00 PM 7.56 45.608 0.229 7.47 7.15 11.25
1/1/2022 4:45:00 PM 7.57 45.626 0.229 7.47 6.99 11.24
1/1/2022 5:00:00 PM 7.57 45.626 0.229 7.47 6.83 11.23
1/1/2022 5:15:00 PM 7.58 45.644 0.229 7.47 6.74 11.2
1/1/2022 5:30:00 PM 7.59 45.662 0.229 7.47 7.01 11.2
1/1/2022 5:45:00 PM 7.6 45.68 0.229 7.47 7.38 11.19
1/1/2022 6:00:00 PM 7.61 45.698 0.229 7.47 7.08 11.18
1/1/2022 6:15:00 PM 7.61 45.698 0.229 7.47 7.3 11.17
1/1/2022 6:30:00 PM 7.62 45.716 0.229 7.46 7.79 11.15
1/1/2022 6:45:00 PM 7.63 45.734 0.229 7.46 6.84 11.14
1/1/2022 7:00:00 PM 7.63 45.734 0.229 7.45 7.72 11.13
1/1/2022 7:15:00 PM 7.64 45.752 0.229 7.45 7.34 11.14
1/1/2022 7:30:00 PM 7.64 45.752 0.229 7.44 8.31 11.12
1/1/2022 7:45:00 PM 7.64 45.752 0.23 7.44 7.93 11.11
1/1/2022 8:00:00 PM 7.65 45.77 0.23 7.44 7.86 11.11
1/1/2022 8:15:00 PM 7.65 45.77 0.23 7.42 8.08 11.1
1/1/2022 8:30:00 PM 7.66 45.788 0.23 7.44 8 11.1
1/1/2022 8:45:00 PM 7.67 45.806 0.23 7.44 8.54 11.11
1/1/2022 9:00:00 PM 7.67 45.806 0.23 7.43 8.69 11.1
1/1/2022 9:15:00 PM 7.68 45.824 0.23 7.44 8.27 11.09
1/1/2022 9:30:00 PM 7.68 45.824 0.231 7.44 8.54 11.08
1/1/2022 9:45:00 PM 7.69 45.842 0.231 7.44 9.01 11.07
1/1/2022 10:00:00 PM 7.69 45.842 0.232 7.44 8.91 11.08
1/1/2022 10:15:00 PM 7.7 45.86 0.232 7.43 8.29 11.07
1/1/2022 10:30:00 PM 7.7 45.86 0.232 7.44 8.37 11.07
1/1/2022 10:45:00 PM 7.7 45.86 0.232 7.45 8.42 11.07
1/1/2022 11:00:00 PM 7.71 45.878 0.233 7.44 8.05 11.06
1/1/2022 11:15:00 PM 7.71 45.878 0.233 7.46 9 11.06
1/1/2022 11:30:00 PM 7.71 45.878 0.233 7.45 8 11.06
1/1/2022 11:45:00 PM 7.72 45.896 0.233 7.46 8.17 11.07
1/2/2022 12:00:00 AM 7.72 45.896 0.233 7.46 9.08 11.06
1/2/2022 12:15:00 AM 7.72 45.896 0.233 7.47 8.39 11.06
1/2/2022 12:30:00 AM 7.73 45.914 0.233 7.46 8.54 11.06
1/2/2022 12:45:00 AM 7.73 45.914 0.234 7.47 8.98 11.07
1/2/2022 1:00:00 AM 7.73 45.914 0.234 7.46 9.17 11.06
1/2/2022 1:15:00 AM 7.73 45.914 0.234 7.46 8.61 11.06
1/2/2022 1:30:00 AM 7.74 45.932 0.234 7.46 8.93 11.05
1/2/2022 1:45:00 AM 7.74 45.932 0.234 7.46 9.28 11.05
1/2/2022 2:00:00 AM 7.74 45.932 0.234 7.46 9.57 11.05
1/2/2022 2:15:00 AM 7.75 45.95 0.234 7.44 9 11.04
1/2/2022 2:30:00 AM 7.75 45.95 0.234 7.46 8.84 11.05
1/2/2022 2:45:00 AM 7.76 45.968 0.234 7.46 8.51 11.04
1/2/2022 3:00:00 AM 7.76 45.968 0.234 7.46 8.91 11.04
1/2/2022 3:15:00 AM 7.77 45.986 0.234 7.47 8.5 11.04
1/2/2022 3:30:00 AM 7.77 45.986 0.234 7.45 9.27 11.03
1/2/2022 3:45:00 AM 7.78 46.004 0.234 7.47 9.26 11.04
1/2/2022 4:00:00 AM 7.78 46.004 0.234 7.46 9.21 11.03
1/2/2022 4:15:00 AM 7.79 46.022 0.235 7.47 9.13 11.03
1/2/2022 4:30:00 AM 7.8 46.04 0.235 7.46 9.78 11.02
1/2/2022 4:45:00 AM 7.8 46.04 0.235 7.48 9.4 11.03
1/2/2022 5:00:00 AM 7.81 46.058 0.235 7.47 9.51 11.02
1/2/2022 5:15:00 AM 7.82 46.076 0.235 7.48 8.99 11.02
1/2/2022 5:30:00 AM 7.82 46.076 0.235 7.48 10.23 11.02
1/2/2022 5:45:00 AM 7.82 46.076 0.235 7.46 9.97 11.02
1/2/2022 6:00:00 AM 7.82 46.076 0.236 7.45 10.22 11.02
1/2/2022 6:15:00 AM 7.83 46.094 0.236 7.47 10.27 11.01
1/2/2022 6:30:00 AM 7.83 46.094 0.236 7.48 10.05 11.02
1/2/2022 6:45:00 AM 7.83 46.094 0.237 7.47 10.73 11.02
1/2/2022 7:00:00 AM 7.83 46.094 0.237 7.48 9.56 11.01
1/2/2022 7:15:00 AM 7.83 46.094 0.237 7.49 9.69 11.01
1/2/2022 7:30:00 AM 7.83 46.094 0.238 7.49 9.9 11.02
1/2/2022 7:45:00 AM 7.83 46.094 0.238 7.5 9.99 11.02
1/2/2022 8:00:00 AM 7.83 46.094 0.238 7.5 9.89 11.01
1/2/2022 8:15:00 AM 7.84 46.112 0.239 7.49 9.49 11.03
1/2/2022 8:30:00 AM 7.84 46.112 0.239 7.5 9.61 11.02
1/2/2022 8:45:00 AM 7.85 46.13 0.239 7.5 9.38 11.04
1/2/2022 9:00:00 AM 7.85 46.13 0.239 7.5 8.99 11.03
1/2/2022 9:15:00 AM 7.86 46.148 0.24 7.51 10.07 11.05
1/2/2022 9:30:00 AM 7.87 46.166 0.24 7.51 8.85 11.06
1/2/2022 9:45:00 AM 7.87 46.166 0.24 7.51 8.98 11.07
1/2/2022 10:00:00 AM 7.87 46.166 0.24 7.52 9.1 11.07
1/2/2022 10:15:00 AM 7.88 46.184 0.239 7.52 8.83 11.08
1/2/2022 10:30:00 AM 7.88 46.184 0.239 7.52 8.86 11.09
1/2/2022 10:45:00 AM 7.89 46.202 0.239 7.52 8.75 11.09
1/2/2022 11:00:00 AM 7.89 46.202 0.239 7.52 8.93 11.11
1/2/2022 11:15:00 AM 7.9 46.22 0.239 7.52 8.77 11.12
1/2/2022 11:30:00 AM 7.89 46.202 0.238 7.53 8.59 11.12
1/2/2022 11:45:00 AM 7.89 46.202 0.238 7.53 9.62 11.14
1/2/2022 12:00:00 PM 7.88 46.184 0.238 7.52 8.78 11.13
1/2/2022 12:15:00 PM 7.88 46.184 0.238 7.53 9.11 11.14
1/2/2022 12:30:00 PM 7.88 46.184 0.237 7.53 9.32 11.15
1/2/2022 12:45:00 PM 7.89 46.202 0.237 7.53 8.72 11.16
1/2/2022 1:00:00 PM 7.89 46.202 0.237 7.54 9.54 11.17
1/2/2022 1:15:00 PM 7.88 46.184 0.236 7.54 8.5 11.17
1/2/2022 1:30:00 PM 7.87 46.166 0.236 7.54 8.97 11.17
1/2/2022 1:45:00 PM 7.85 46.13 0.236 7.53 9.04 11.18
1/2/2022 2:00:00 PM 7.83 46.094 0.235 7.53 9.3 11.19
1/2/2022 2:15:00 PM 7.81 46.058 0.235 7.53 8.79 11.19
1/2/2022 2:30:00 PM 7.79 46.022 0.235 7.53 8.31 11.18
1/2/2022 2:45:00 PM 7.77 45.986 0.235 7.52 8.66 11.18
1/2/2022 3:00:00 PM 7.76 45.968 0.234 7.53 8.96 11.19
1/2/2022 3:15:00 PM 7.74 45.932 0.234 7.53 8.78 11.2
1/2/2022 3:30:00 PM 7.71 45.878 0.234 7.53 8.76 11.2
1/2/2022 3:45:00 PM 7.67 45.806 0.234 7.53 9.08 11.21
1/2/2022 4:00:00 PM 7.63 45.734 0.234 7.54 8.89 11.21
1/2/2022 4:15:00 PM 7.6 45.68 0.234 7.53 8.29 11.21
1/2/2022 4:30:00 PM 7.56 45.608 0.234 7.53 8.69 11.21
1/2/2022 4:45:00 PM 7.52 45.536 0.234 7.53 8.4 11.22
1/2/2022 5:00:00 PM 7.48 45.464 0.234 7.53 7.96 11.22
1/2/2022 5:15:00 PM 7.44 45.392 0.234 7.53 8.35 11.22
1/2/2022 5:30:00 PM 7.39 45.302 0.234 7.52 8.63 11.23
1/2/2022 5:45:00 PM 7.35 45.23 0.234 7.53 9 11.25
1/2/2022 6:00:00 PM 7.31 45.158 0.234 7.52 9.62 11.26
1/2/2022 6:15:00 PM 7.26 45.068 0.234 7.52 8.19 11.26
1/2/2022 6:30:00 PM 7.22 44.996 0.235 7.52 8.87 11.27
1/2/2022 6:45:00 PM 7.17 44.906 0.235 7.52 8.79 11.29
1/2/2022 7:00:00 PM 7.13 44.834 0.235 7.52 9.16 11.29
1/2/2022 7:15:00 PM 7.08 44.744 0.236 7.52 9.14 11.31
1/2/2022 7:30:00 PM 7.04 44.672 0.236 7.52 8.76 11.32
1/2/2022 7:45:00 PM 7 44.6 0.236 7.52 8.65 11.32
1/2/2022 8:00:00 PM 6.96 44.528 0.236 7.52 8.48 11.33
1/2/2022 8:15:00 PM 6.92 44.456 0.237 7.52 8.63 11.34
1/2/2022 8:30:00 PM 6.87 44.366 0.237 7.53 8.43 11.36
1/2/2022 8:45:00 PM 6.83 44.294 0.237 7.52 8.88 11.36
1/2/2022 9:00:00 PM 6.79 44.222 0.238 7.52 8.8 11.38
1/2/2022 9:15:00 PM 6.75 44.15 0.238 7.53 8.88 11.4
1/2/2022 9:30:00 PM 6.71 44.078 0.238 7.53 9.19 11.41
1/2/2022 9:45:00 PM 6.66 43.988 0.238 7.53 8.29 11.43
1/2/2022 10:00:00 PM 6.62 43.916 0.239 7.53 9 11.44
1/2/2022 10:15:00 PM 6.57 43.826 0.239 7.52 8.23 11.46
1/2/2022 10:30:00 PM 6.53 43.754 0.239 7.53 8.71 11.46
1/2/2022 10:45:00 PM 6.49 43.682 0.239 7.53 8.21 11.49
1/2/2022 11:00:00 PM 6.44 43.592 0.24 7.53 8.24 11.51
1/2/2022 11:15:00 PM 6.39 43.502 0.24 7.52 8.53 11.53
1/2/2022 11:30:00 PM 6.34 43.412 0.24 7.53 8.55 11.54
1/2/2022 11:45:00 PM 6.29 43.322 0.241 7.53 8.14 11.55
1/3/2022 12:00:00 AM 6.24 43.232 0.241 7.53 8.08 11.57
1/3/2022 12:15:00 AM 6.2 43.16 0.241 7.53 7.94 11.58
1/3/2022 12:30:00 AM 6.15 43.07 0.242 7.53 7.81 11.6
1/3/2022 12:45:00 AM 6.1 42.98 0.242 7.53 7.97 11.61
1/3/2022 1:00:00 AM 6.06 42.908 0.242 7.53 7.88 11.62
1/3/2022 1:15:00 AM 6.01 42.818 0.242 7.53 7.84 11.63
1/3/2022 1:30:00 AM 5.95 42.71 0.242 7.54 7.45 11.66
1/3/2022 1:45:00 AM 5.9 42.62 0.243 7.53 7.91 11.67
1/3/2022 2:00:00 AM 5.86 42.548 0.243 7.54 8.05 11.68
1/3/2022 2:15:00 AM 5.82 42.476 0.243 7.53 7.33 11.69
1/3/2022 2:30:00 AM 5.77 42.386 0.243 7.53 7.29 11.7
1/3/2022 2:45:00 AM 5.72 42.296 0.243 7.53 7.46 11.72
1/3/2022 3:00:00 AM 5.68 42.224 0.244 7.53 8.16 11.72
1/3/2022 3:15:00 AM 5.61 42.098 0.244 7.54 7.36 11.75
1/3/2022 3:30:00 AM 5.56 42.008 0.244 7.53 7.13 11.77
1/3/2022 3:45:00 AM 5.52 41.936 0.244 7.54 6.99 11.78
1/3/2022 4:00:00 AM 5.47 41.846 0.244 7.53 6.91 11.79
1/3/2022 4:15:00 AM 5.42 41.756 0.244 7.54 6.69 11.82
1/3/2022 4:30:00 AM 5.37 41.666 0.245 7.53 7.05 11.84
1/3/2022 4:45:00 AM 5.32 41.576 0.245 7.48 8.05 11.85
1/3/2022 5:00:00 AM 5.27 41.486 0.245 7.51 7.05 11.87
1/3/2022 5:15:00 AM 5.22 41.396 0.245 7.52 7.2 11.88
1/3/2022 5:30:00 AM 5.17 41.306 0.245 7.53 6.37 11.89
1/3/2022 5:45:00 AM 5.13 41.234 0.245 7.53 6.76 11.91
1/3/2022 6:00:00 AM 5.09 41.162 0.246 7.54 6.9 11.93
1/3/2022 6:15:00 AM 5.05 41.09 0.246 7.54 6.72 11.94
1/3/2022 6:30:00 AM 4.99 40.982 0.246 7.53 6.75 11.95
1/3/2022 6:45:00 AM 4.94 40.892 0.246 7.53 6.66 11.97
1/3/2022 7:00:00 AM 4.9 40.82 0.246 7.54 6.88 11.98
1/3/2022 7:15:00 AM 4.87 40.766 0.246 7.53 6.29 11.99
1/3/2022 7:30:00 AM 4.82 40.676 0.247 7.53 7.74 12.01
1/3/2022 7:45:00 AM 4.77 40.586 0.247 7.54 6.59 12.03
1/3/2022 8:00:00 AM 4.72 40.496 0.247 7.54 7.17 12.05
1/3/2022 8:15:00 AM 4.67 40.406 0.247 7.54 6.5 12.08
1/3/2022 8:30:00 AM 4.64 40.352 0.247 7.54 6.25 12.08
1/3/2022 8:45:00 AM 4.6 40.28 0.248 7.54 6.48 12.1
1/3/2022 9:00:00 AM 4.56 40.208 0.248 7.54 6.32 12.13
1/3/2022 9:15:00 AM 4.53 40.154 0.248 7.54 6.34 12.15
1/3/2022 9:30:00 AM 4.49 40.082 0.248 7.54 6.24 12.18
1/3/2022 9:45:00 AM 4.46 40.028 0.248 7.55 6.15 12.21
1/3/2022 10:00:00 AM 4.44 39.992 0.249 7.55 5.97 12.23
1/3/2022 10:15:00 AM 4.42 39.956 0.249 7.56 6.22 12.26
1/3/2022 10:30:00 AM 4.39 39.902 0.249 7.55 6.91 12.28
1/3/2022 10:45:00 AM 4.38 39.884 0.249 7.57 6.12 12.31
1/3/2022 11:00:00 AM 4.35 39.83 0.249 7.56 6.22 12.33
1/3/2022 11:15:00 AM 4.31 39.758 0.25 7.56 6.4 12.34
1/3/2022 11:30:00 AM 4.29 39.722 0.25 7.57 5.55 12.37
1/3/2022 11:45:00 AM 4.27 39.686 0.25 7.57 5.97 12.38
1/3/2022 12:00:00 PM 4.25 39.65 0.25 7.57 5.62 12.4
1/3/2022 12:15:00 PM 4.22 39.596 0.251 7.57 6.44 12.42
1/3/2022 12:30:00 PM 4.21 39.578 0.251 7.58 5.64 12.43
1/3/2022 12:45:00 PM 4.17 39.506 0.251 7.58 5.93 12.44
1/3/2022 1:00:00 PM 4.17 39.506 0.251 7.58 5.87 12.44
1/3/2022 1:15:00 PM 4.15 39.47 0.252 7.58 5.55 12.46
1/3/2022 1:30:00 PM 4.15 39.47 0.252 7.58 5.65 12.47
1/3/2022 1:45:00 PM 4.16 39.488 0.252 7.58 5.72 12.47
1/3/2022 2:00:00 PM 4.18 39.524 0.252 7.59 5.59 12.47
1/3/2022 2:15:00 PM 4.19 39.542 0.253 7.59 5.49 12.48
1/3/2022 2:30:00 PM 4.19 39.542 0.253 7.59 5.35 12.48
1/3/2022 2:45:00 PM 4.18 39.524 0.253 7.59 5.55 12.48
1/3/2022 3:00:00 PM 4.16 39.488 0.253 7.59 5.8 12.5
1/3/2022 3:15:00 PM 4.14 39.452 0.254 7.6 6.71 12.5
1/3/2022 3:30:00 PM 4.09 39.362 0.254 7.6 5.53 12.51
1/3/2022 3:45:00 PM 4.04 39.272 0.254 7.59 5.61 12.51
1/3/2022 4:00:00 PM 3.98 39.164 0.254 7.59 5.55 12.51
1/3/2022 4:15:00 PM 3.91 39.038 0.254 7.59 5.85 12.53
1/3/2022 4:30:00 PM 3.85 38.93 0.255 7.59 5.28 12.52
1/3/2022 4:45:00 PM 3.78 38.804 0.255 7.58 5.35 12.54
1/3/2022 5:00:00 PM 3.73 38.714 0.255 7.58 5.58 12.53
1/3/2022 5:15:00 PM 3.67 38.606 0.255 7.58 5.21 12.54
1/3/2022 5:30:00 PM 3.61 38.498 0.256 7.58 5.5 12.54
1/3/2022 5:45:00 PM 3.56 38.408 0.256 7.58 5.3 12.55
1/3/2022 6:00:00 PM 3.5 38.3 0.256 7.58 6 12.56
1/3/2022 6:15:00 PM 3.45 38.21 0.257 7.58 5.88 12.57
1/3/2022 6:30:00 PM 3.4 38.12 0.257 7.58 5.35 12.58
1/3/2022 6:45:00 PM 3.37 38.066 0.257 7.57 5.44 12.58
1/3/2022 7:00:00 PM 3.32 37.976 0.257 7.58 5.93 12.6
1/3/2022 7:15:00 PM 3.27 37.886 0.258 7.57 5.64 12.6
1/3/2022 7:30:00 PM 3.23 37.814 0.258 7.57 5.46 12.62
1/3/2022 7:45:00 PM 3.2 37.76 0.258 7.57 5.62 12.63
1/3/2022 8:00:00 PM 3.15 37.67 0.258 7.57 5.53 12.64
1/3/2022 8:15:00 PM 3.11 37.598 0.259 7.57 5.49 12.66
1/3/2022 8:30:00 PM 3.05 37.49 0.259 7.58 5.47 12.68
1/3/2022 8:45:00 PM 3 37.4 0.259 7.57 5.76 12.7
1/3/2022 9:00:00 PM 2.95 37.31 0.259 7.57 6.62 12.71
1/3/2022 9:15:00 PM 2.9 37.22 0.26 7.57 5.58 12.73
1/3/2022 9:30:00 PM 2.85 37.13 0.26 7.57 5.44 12.75
1/3/2022 9:45:00 PM 2.79 37.022 0.26 7.57 5.73 12.77
1/3/2022 10:00:00 PM 2.74 36.932 0.26 7.57 5.46 12.79
1/3/2022 10:15:00 PM 2.7 36.86 0.261 7.57 5.7 12.8
1/3/2022 10:30:00 PM 2.65 36.77 0.261 7.57 5.18 12.81
1/3/2022 10:45:00 PM 2.61 36.698 0.261 7.57 5.41 12.83
1/3/2022 11:00:00 PM 2.58 36.644 0.261 7.57 5.42 12.84
1/3/2022 11:15:00 PM 2.55 36.59 0.261 7.57 5.34 12.87
1/3/2022 11:30:00 PM 2.52 36.536 0.262 7.57 5.6 12.88
1/3/2022 11:45:00 PM 2.5 36.5 0.262 7.57 4.97 12.88
1/4/2022 12:00:00 AM 2.47 36.446 0.262 7.57 5.72 12.9
1/4/2022 12:15:00 AM 2.44 36.392 0.262 7.57 5.18 12.92
1/4/2022 12:30:00 AM 2.41 36.338 0.263 7.57 5.62 12.93
1/4/2022 12:45:00 AM 2.38 36.284 0.263 7.58 5.46 12.95
1/4/2022 1:00:00 AM 2.34 36.212 0.263 7.57 5.16 12.97
1/4/2022 1:15:00 AM 2.3 36.14 0.263 7.57 5.46 12.98
1/4/2022 1:30:00 AM 2.26 36.068 0.263 7.57 5.14 13
1/4/2022 1:45:00 AM 2.22 35.996 0.264 7.58 5.57 13.01
1/4/2022 2:00:00 AM 2.18 35.924 0.264 7.58 5.18 13.03
1/4/2022 2:15:00 AM 2.13 35.834 0.264 7.57 5.14 13.05
1/4/2022 2:30:00 AM 2.09 35.762 0.264 7.58 5.06 13.07
1/4/2022 2:45:00 AM 2.05 35.69 0.265 7.57 4.74 13.08
1/4/2022 3:00:00 AM 2.01 35.618 0.265 7.58 5.2 13.09
1/4/2022 3:15:00 AM 1.96 35.528 0.265 7.58 5.28 13.11
1/4/2022 3:30:00 AM 1.91 35.438 0.265 7.58 5.3 13.13
1/4/2022 3:45:00 AM 1.86 35.348 0.266 7.58 4.89 13.14
1/4/2022 4:00:00 AM 1.83 35.294 0.266 7.58 4.84 13.16
1/4/2022 4:15:00 AM 1.78 35.204 0.266 7.58 5.21 13.16
1/4/2022 4:30:00 AM 1.74 35.132 0.266 7.58 5 13.18
1/4/2022 4:45:00 AM 1.7 35.06 0.266 7.59 4.74 13.2
1/4/2022 5:00:00 AM 1.66 34.988 0.267 7.57 5.18 13.21
1/4/2022 5:15:00 AM 1.62 34.916 0.267 7.58 5.73 13.22
1/4/2022 5:30:00 AM 1.58 34.844 0.267 7.58 4.91 13.23
1/4/2022 5:45:00 AM 1.54 34.772 0.268 7.59 4.77 13.25
1/4/2022 6:00:00 AM 1.51 34.718 0.268 7.57 4.91 13.25
1/4/2022 6:15:00 AM 1.46 34.628 0.268 7.59 4.75 13.28
1/4/2022 6:30:00 AM 1.43 34.574 0.268 7.58 5.15 13.29
1/4/2022 6:45:00 AM 1.39 34.502 0.269 7.58 4.77 13.31
1/4/2022 7:00:00 AM 1.36 34.448 0.269 7.57 4.93 13.31
1/4/2022 7:15:00 AM 1.32 34.376 0.269 7.58 5 13.33
1/4/2022 7:30:00 AM 1.28 34.304 0.269 7.58 4.67 13.35
1/4/2022 7:45:00 AM 1.24 34.232 0.27 7.58 5.03 13.36
1/4/2022 8:00:00 AM 1.21 34.178 0.27 7.58 4.68 13.38
1/4/2022 8:15:00 AM 1.19 34.142 0.27 7.57 4.96 13.4
1/4/2022 8:30:00 AM 1.16 34.088 0.27 7.58 4.91 13.42
1/4/2022 8:45:00 AM 1.14 34.052 0.271 7.58 4.88 13.43
1/4/2022 9:00:00 AM 1.12 34.016 0.271 7.59 4.82 13.46